Provisional Data: Little Muncy Creek near Moreland, PA


Please select a monitoring station.
Please select start date.
Please select start date.
Historical Station - Data Range: 08/06/2010 - 05/15/2024

Toggle Unit: C/F Toggle Unit: C/F
Sample Time Temperature (C) Temperature (F) Specific Conductivity (mS/cm) pH   Turbidity (NTU+) DO (mg/L)
3/17/2024 12:00:00 AM 8.48 47.264 0.081 7.22 4.89 11.03
3/17/2024 12:15:00 AM 8.42 47.156 0.081 7.24 4.71 11.05
3/17/2024 12:30:00 AM 8.35 47.03 0.081 7.22 4.92 11.07
3/17/2024 12:45:00 AM 8.29 46.922 0.081 7.22 4.71 11.08
3/17/2024 1:00:00 AM 8.24 46.832 0.081 7.23 5 11.1
3/17/2024 1:15:00 AM 8.18 46.724 0.081 7.22 4.71 11.12
3/17/2024 1:30:00 AM 8.14 46.652 0.081 7.24 5.01 11.13
3/17/2024 1:45:00 AM 8.09 46.562 0.081 7.23 5.13 11.14
3/17/2024 2:00:00 AM 8.05 46.49 0.081 7.22 5.31 11.15
3/17/2024 2:15:00 AM 8.01 46.418 0.081 7.24 5 11.17
3/17/2024 2:30:00 AM 7.97 46.346 0.081 7.24 4.91 11.18
3/17/2024 2:45:00 AM 7.94 46.292 0.081 7.22 4.91 11.19
3/17/2024 3:00:00 AM 7.91 46.238 0.081 7.22 4.77 11.2
3/17/2024 3:15:00 AM 7.88 46.184 0.081 7.24 4.82 11.21
3/17/2024 3:30:00 AM 7.85 46.13 0.081 7.24 4.83 11.21
3/17/2024 3:45:00 AM 7.83 46.094 0.081 7.22 4.81 11.22
3/17/2024 4:00:00 AM 7.81 46.058 0.081 7.22 4.64 11.23
3/17/2024 4:15:00 AM 7.79 46.022 0.081 7.23 4.66 11.24
3/17/2024 4:30:00 AM 7.76 45.968 0.081 7.24 4.72 11.25
3/17/2024 4:45:00 AM 7.74 45.932 0.081 7.24 4.81 11.26
3/17/2024 5:00:00 AM 7.72 45.896 0.081 7.23 4.81 11.27
3/17/2024 5:15:00 AM 7.7 45.86 0.081 7.22 4.73 11.28
3/17/2024 5:30:00 AM 7.68 45.824 0.081 7.25 4.89 11.29
3/17/2024 5:45:00 AM 7.65 45.77 0.081 7.25 4.89 11.29
3/17/2024 6:00:00 AM 7.62 45.716 0.082 7.23 5.06 11.3
3/17/2024 6:15:00 AM 7.6 45.68 0.082 7.24 4.72 11.31
3/17/2024 6:30:00 AM 7.57 45.626 0.082 7.25 4.96 11.32
3/17/2024 6:45:00 AM 7.55 45.59 0.082 7.24 4.76 11.33
3/17/2024 7:00:00 AM 7.51 45.518 0.082 7.25 4.75 11.33
3/17/2024 7:15:00 AM 7.48 45.464 0.082 7.24 4.91 11.34
3/17/2024 7:30:00 AM 7.46 45.428 0.082 7.23 4.72 11.36
3/17/2024 7:45:00 AM 7.45 45.41 0.082 7.26 4.9 11.38
3/17/2024 8:00:00 AM 7.44 45.392 0.082 7.26 4.6 11.4
3/17/2024 8:15:00 AM 7.42 45.356 0.082 7.24 5.03 11.43
3/17/2024 8:30:00 AM 7.43 45.374 0.082 7.25 4.55 11.46
3/17/2024 8:45:00 AM 7.44 45.392 0.081 7.28 4.57 11.51
3/17/2024 9:00:00 AM 7.46 45.428 0.081 7.28 4.55 11.56
3/17/2024 9:15:00 AM 7.51 45.518 0.081 7.31 4.56 11.62
3/17/2024 9:30:00 AM 7.52 45.536 0.081 7.31 4.43 11.66
3/17/2024 9:45:00 AM 7.62 45.716 0.081 7.34 4.46 11.71
3/17/2024 10:00:00 AM 7.7 45.86 0.081 7.35 4.52 11.74
3/17/2024 10:15:00 AM 7.75 45.95 0.081 7.36 4.34 11.77
3/17/2024 10:30:00 AM 7.83 46.094 0.081 7.37 4.44 11.79
3/17/2024 10:45:00 AM 7.95 46.31 0.081 7.38 4.16 11.81
3/17/2024 11:00:00 AM 7.94 46.292 0.081 7.41 4.46 11.82
3/17/2024 11:15:00 AM 7.96 46.328 0.081 7.39 4.36 11.81
3/17/2024 11:30:00 AM 7.95 46.31 0.081 7.4 4.22 11.82
3/17/2024 11:45:00 AM 8.05 46.49 0.081 7.43 4.13 11.81
3/17/2024 12:00:00 PM 8.03 46.454 0.081 7.43 4.23 11.81
3/17/2024 12:15:00 PM 8.09 46.562 0.081 7.42 4.21 11.82
3/17/2024 12:30:00 PM 8.09 46.562 0.081 7.45 4.19 11.83
3/17/2024 12:45:00 PM 8.37 47.066 0.081 7.45 4.09 11.84
3/17/2024 1:00:00 PM 8.59 47.462 0.081 7.47 4.37 11.84
3/17/2024 1:15:00 PM 8.8 47.84 0.08 7.48 4.13 11.83
3/17/2024 1:30:00 PM 8.84 47.912 0.08 7.48 4.12 11.79
3/17/2024 1:45:00 PM 9.05 48.29 0.08 7.5 4.03 11.78
3/17/2024 2:00:00 PM 9.29 48.722 0.08 7.5 3.97 11.75
3/17/2024 2:15:00 PM 9.5 49.1 0.08 7.51 3.99 11.71
3/17/2024 2:30:00 PM 9.69 49.442 0.08 7.52 4.01 11.66
3/17/2024 2:45:00 PM 9.83 49.694 0.08 7.52 4.04 11.63
3/17/2024 3:00:00 PM 9.83 49.694 0.08 7.51 3.9 11.55
3/17/2024 3:15:00 PM 9.94 49.892 0.08 7.52 3.98 11.53
3/17/2024 3:30:00 PM 9.99 49.982 0.08 7.53 3.94 11.49
3/17/2024 3:45:00 PM 10.1 50.18 0.08 7.54 3.86 11.47
3/17/2024 4:00:00 PM 10.17 50.306 0.08 7.53 3.97 11.43
3/17/2024 4:15:00 PM 10.25 50.45 0.08 7.53 3.9 11.41
3/17/2024 4:30:00 PM 10.23 50.414 0.08 7.53 3.97 11.37
3/17/2024 4:45:00 PM 10.33 50.594 0.08 7.53 4.06 11.34
3/17/2024 5:00:00 PM 10.37 50.666 0.08 7.54 3.92 11.28
3/17/2024 5:15:00 PM 10.39 50.702 0.08 7.51 4.38 11.23
3/17/2024 5:30:00 PM 10.44 50.792 0.08 7.5 3.95 11.18
3/17/2024 5:45:00 PM 10.47 50.846 0.08 7.52 3.84 11.14
3/17/2024 6:00:00 PM 10.46 50.828 0.08 7.49 3.95 11.07
3/17/2024 6:15:00 PM 10.45 50.81 0.08 7.46 4 11.02
3/17/2024 6:30:00 PM 10.42 50.756 0.08 7.45 4.07 10.98
3/17/2024 6:45:00 PM 10.37 50.666 0.08 7.45 4.2 10.94
3/17/2024 7:00:00 PM 10.29 50.522 0.08 7.42 4.27 10.91
3/17/2024 7:15:00 PM 10.21 50.378 0.08 7.39 4.2 10.88
3/17/2024 7:30:00 PM 10.12 50.216 0.08 7.4 4.21 10.85
3/17/2024 7:45:00 PM 10.02 50.036 0.08 7.37 4.35 10.83
3/17/2024 8:00:00 PM 9.9 49.82 0.08 7.34 4.41 10.83
3/17/2024 8:15:00 PM 9.79 49.622 0.08 7.34 4.38 10.83
3/17/2024 8:30:00 PM 9.68 49.424 0.08 7.32 4.2 10.83
3/17/2024 8:45:00 PM 9.56 49.208 0.081 7.33 4.18 10.84
3/17/2024 9:00:00 PM 9.44 48.992 0.081 7.31 4.4 10.86
3/17/2024 9:15:00 PM 9.32 48.776 0.081 7.31 4.49 10.88
3/17/2024 9:30:00 PM 9.19 48.542 0.081 7.28 4.53 10.9
3/17/2024 9:45:00 PM 9.08 48.344 0.081 7.31 4.94 10.92
3/17/2024 10:00:00 PM 8.98 48.164 0.081 7.29 4.53 10.94
3/17/2024 10:15:00 PM 8.87 47.966 0.081 7.27 4.51 10.97
3/17/2024 10:30:00 PM 8.77 47.786 0.081 7.28 4.69 10.99
3/17/2024 10:45:00 PM 8.67 47.606 0.081 7.27 4.81 11.01
3/17/2024 11:00:00 PM 8.58 47.444 0.081 7.28 4.61 11.04
3/17/2024 11:15:00 PM 8.49 47.282 0.082 7.28 4.54 11.06
3/17/2024 11:30:00 PM 8.41 47.138 0.082 7.27 4.64 11.08
3/17/2024 11:45:00 PM 8.33 46.994 0.082 7.27 4.55 11.1
3/18/2024 12:00:00 AM 8.25 46.85 0.082 7.27 4.64 11.12
3/18/2024 12:15:00 AM 8.18 46.724 0.082 7.26 4.49 11.14
3/18/2024 12:30:00 AM 8.1 46.58 0.082 7.26 4.46 11.17
3/18/2024 12:45:00 AM 8.03 46.454 0.082 7.26 4.49 11.18
3/18/2024 1:00:00 AM 7.95 46.31 0.082 7.25 4.36 11.21
3/18/2024 1:15:00 AM 7.89 46.202 0.082 7.28 4.55 11.22
3/18/2024 1:30:00 AM 7.82 46.076 0.082 7.25 4.36 11.24
3/18/2024 1:45:00 AM 7.75 45.95 0.082 7.25 4.58 11.26
3/18/2024 2:00:00 AM 7.69 45.842 0.082 7.26 4.49 11.28
3/18/2024 2:15:00 AM 7.62 45.716 0.082 7.26 4.51 11.3
3/18/2024 2:30:00 AM 7.53 45.554 0.082 7.27 4.49 11.32
3/18/2024 2:45:00 AM 7.45 45.41 0.082 7.27 4.52 11.35
3/18/2024 3:00:00 AM 7.37 45.266 0.082 7.25 4.53 11.37
3/18/2024 3:15:00 AM 7.29 45.122 0.082 7.25 4.6 11.4
3/18/2024 3:30:00 AM 7.21 44.978 0.082 7.26 4.71 11.42
3/18/2024 3:45:00 AM 7.13 44.834 0.082 7.26 4.72 11.44
3/18/2024 4:00:00 AM 7.07 44.726 0.082 7.25 4.54 11.46
3/18/2024 4:15:00 AM 7 44.6 0.082 7.25 4.73 11.48
3/18/2024 4:30:00 AM 6.93 44.474 0.082 7.26 4.62 11.51
3/18/2024 4:45:00 AM 6.87 44.366 0.082 7.26 4.73 11.53
3/18/2024 5:00:00 AM 6.82 44.276 0.082 7.26 4.54 11.55
3/18/2024 5:15:00 AM 6.78 44.204 0.082 7.26 4.99 11.57
3/18/2024 5:30:00 AM 6.73 44.114 0.082 7.25 4.63 11.58
3/18/2024 5:45:00 AM 6.68 44.024 0.083 7.25 4.6 11.6
3/18/2024 6:00:00 AM 6.63 43.934 0.082 7.27 4.79 11.62
3/18/2024 6:15:00 AM 6.58 43.844 0.083 7.26 4.58 11.64
3/18/2024 6:30:00 AM 6.53 43.754 0.083 7.26 4.58 11.66
3/18/2024 6:45:00 AM 6.49 43.682 0.083 7.26 4.48 11.68
3/18/2024 7:00:00 AM 6.44 43.592 0.083 7.26 4.49 11.69
3/18/2024 7:15:00 AM 6.39 43.502 0.083 7.26 4.56 11.71
3/18/2024 7:30:00 AM 6.35 43.43 0.083 7.25 4.5 11.74
3/18/2024 7:45:00 AM 6.3 43.34 0.083 7.27 4.57 11.78
3/18/2024 8:00:00 AM 6.24 43.232 0.083 7.29 4.66 11.82
3/18/2024 8:15:00 AM 6.21 43.178 0.083 7.29 4.65 11.88
3/18/2024 8:30:00 AM 6.17 43.106 0.083 7.28 4.25 11.93
3/18/2024 8:45:00 AM 6.16 43.088 0.083 7.3 4.26 11.99
3/18/2024 9:00:00 AM 6.15 43.07 0.083 7.33 4.43 12.04
3/18/2024 9:15:00 AM 6.13 43.034 0.082 7.33 4.24 12.09
3/18/2024 9:30:00 AM 6.13 43.034 0.082 7.33 4.32 12.14
3/18/2024 9:45:00 AM 6.12 43.016 0.082 7.36 4.3 12.19
3/18/2024 10:00:00 AM 6.13 43.034 0.082 7.36 4.21 12.23
3/18/2024 10:15:00 AM 6.11 42.998 0.082 7.36 4.22 12.25
3/18/2024 10:30:00 AM 6.11 42.998 0.082 7.38 4.04 12.29
3/18/2024 10:45:00 AM 6.14 43.052 0.082 7.38 4.21 12.31
3/18/2024 11:00:00 AM 6.17 43.106 0.082 7.41 3.81 12.35
3/18/2024 11:15:00 AM 6.3 43.34 0.082 7.41 4.09 12.38
3/18/2024 11:30:00 AM 6.25 43.25 0.082 7.41 4.13 12.38
3/18/2024 11:45:00 AM 6.25 43.25 0.082 7.43 4.13 12.4
3/18/2024 12:00:00 PM 6.31 43.358 0.082 7.45 3.97 12.42
3/18/2024 12:15:00 PM 6.42 43.556 0.082 7.46 4.05 12.42
3/18/2024 12:30:00 PM 6.38 43.484 0.082 7.45 3.98 12.41
3/18/2024 12:45:00 PM 6.36 43.448 0.082 7.45 3.9 12.41
3/18/2024 1:00:00 PM 6.38 43.484 0.082 7.46 4.01 12.42
3/18/2024 1:15:00 PM 6.41 43.538 0.082 7.48 3.95 12.43
3/18/2024 1:30:00 PM 6.44 43.592 0.082 7.48 3.93 12.43
3/18/2024 1:45:00 PM 6.5 43.7 0.082 7.48 3.96 12.44
3/18/2024 2:00:00 PM 6.57 43.826 0.082 7.49 3.82 12.43
3/18/2024 2:15:00 PM 6.59 43.862 0.081 7.51 3.87 12.43
3/18/2024 2:30:00 PM 6.76 44.168 0.081 7.51 3.64 12.42
3/18/2024 2:45:00 PM 6.8 44.24 0.081 7.51 3.87 12.41
3/18/2024 3:00:00 PM 6.8 44.24 0.082 7.52 3.73 12.39
3/18/2024 3:15:00 PM 6.77 44.186 0.082 7.51 4.02 12.37
3/18/2024 3:30:00 PM 6.78 44.204 0.082 7.51 3.98 12.36
3/18/2024 3:45:00 PM 6.77 44.186 0.081 7.5 3.78 12.33
3/18/2024 4:00:00 PM 6.73 44.114 0.081 7.51 3.87 12.32
3/18/2024 4:15:00 PM 6.71 44.078 0.081 7.52 3.76 12.29
3/18/2024 4:30:00 PM 6.68 44.024 0.081 7.5 3.77 12.27
3/18/2024 4:45:00 PM 6.64 43.952 0.081 7.49 3.74 12.26
3/18/2024 5:00:00 PM 6.61 43.898 0.081 7.48 3.84 12.23
3/18/2024 5:15:00 PM 6.57 43.826 0.081 7.47 4 12.21
3/18/2024 5:30:00 PM 6.53 43.754 0.081 7.46 3.9 12.19
3/18/2024 5:45:00 PM 6.48 43.664 0.081 7.44 3.96 12.16
3/18/2024 6:00:00 PM 6.44 43.592 0.081 7.43 4.06 12.15
3/18/2024 6:15:00 PM 6.39 43.502 0.081 7.44 3.88 12.13
3/18/2024 6:30:00 PM 6.35 43.43 0.081 7.43 3.89 12.12
3/18/2024 6:45:00 PM 6.3 43.34 0.081 7.41 3.87 12.1
3/18/2024 7:00:00 PM 6.25 43.25 0.081 7.39 3.85 12.08
3/18/2024 7:15:00 PM 6.19 43.142 0.081 7.4 3.76 12.06
3/18/2024 7:30:00 PM 6.14 43.052 0.081 7.37 3.92 12.04
3/18/2024 7:45:00 PM 6.08 42.944 0.081 7.35 3.82 12.03
3/18/2024 8:00:00 PM 6.02 42.836 0.081 7.36 3.9 12.02
3/18/2024 8:15:00 PM 5.96 42.728 0.082 7.35 3.84 12.01
3/18/2024 8:30:00 PM 5.89 42.602 0.082 7.32 3.84 12.01
3/18/2024 8:45:00 PM 5.82 42.476 0.082 7.34 3.81 12.01
3/18/2024 9:00:00 PM 5.75 42.35 0.082 7.31 3.73 12.02
3/18/2024 9:15:00 PM 5.7 42.26 0.082 7.32 3.97 12.02
3/18/2024 9:30:00 PM 5.65 42.17 0.082 7.31 3.98 12.03
3/18/2024 9:45:00 PM 5.59 42.062 0.082 7.31 3.76 12.04
3/18/2024 10:00:00 PM 5.53 41.954 0.082 7.3 4.01 12.05
3/18/2024 10:15:00 PM 5.47 41.846 0.082 7.29 3.98 12.06
3/18/2024 10:30:00 PM 5.42 41.756 0.082 7.3 3.91 12.07
3/18/2024 10:45:00 PM 5.37 41.666 0.082 7.31 3.98 12.09
3/18/2024 11:00:00 PM 5.32 41.576 0.083 7.28 4.03 12.1
3/18/2024 11:15:00 PM 5.28 41.504 0.083 7.29 3.95 12.11
3/18/2024 11:30:00 PM 5.23 41.414 0.083 7.29 3.83 12.13
3/18/2024 11:45:00 PM 5.19 41.342 0.083 7.28 4.02 12.14
3/19/2024 12:00:00 AM 5.15 41.27 0.083 7.28 3.93 12.16
3/19/2024 12:15:00 AM 5.1 41.18 0.083 7.28 3.82 12.17
3/19/2024 12:30:00 AM 5.04 41.072 0.083 7.28 4.05 12.19
3/19/2024 12:45:00 AM 4.99 40.982 0.083 7.27 4.05 12.2
3/19/2024 1:00:00 AM 4.93 40.874 0.083 7.28 4.05 12.22
3/19/2024 1:15:00 AM 4.88 40.784 0.083 7.27 3.87 12.23
3/19/2024 1:30:00 AM 4.83 40.694 0.083 7.27 3.98 12.25
3/19/2024 1:45:00 AM 4.79 40.622 0.083 7.25 4.1 12.26
3/19/2024 2:00:00 AM 4.75 40.55 0.083 7.28 4.25 12.28
3/19/2024 2:15:00 AM 4.69 40.442 0.083 7.28 4.08 12.3
3/19/2024 2:30:00 AM 4.63 40.334 0.083 7.26 4.04 12.31
3/19/2024 2:45:00 AM 4.59 40.262 0.083 7.27 3.9 12.33
3/19/2024 3:00:00 AM 4.53 40.154 0.083 7.28 4.04 12.34
3/19/2024 3:15:00 AM 4.48 40.064 0.083 7.27 4.08 12.37
3/19/2024 3:30:00 AM 4.43 39.974 0.083 7.25 3.87 12.38
3/19/2024 3:45:00 AM 4.39 39.902 0.083 7.26 4.25 12.4
3/19/2024 4:00:00 AM 4.35 39.83 0.083 7.26 3.85 12.41
3/19/2024 4:15:00 AM 4.31 39.758 0.083 7.26 4.04 12.43
3/19/2024 4:30:00 AM 4.26 39.668 0.083 7.25 4.06 12.44
3/19/2024 4:45:00 AM 4.22 39.596 0.083 7.27 4.16 12.46
3/19/2024 5:00:00 AM 4.19 39.542 0.083 7.25 4.04 12.47
3/19/2024 5:15:00 AM 4.15 39.47 0.083 7.28 4 12.48
3/19/2024 5:30:00 AM 4.11 39.398 0.083 7.26 4.1 12.5
3/19/2024 5:45:00 AM 4.08 39.344 0.083 7.27 3.98 12.52
3/19/2024 6:00:00 AM 4.05 39.29 0.084 7.27 3.94 12.53
3/19/2024 6:15:00 AM 4.01 39.218 0.084 7.26 3.96 12.55
3/19/2024 6:30:00 AM 3.97 39.146 0.084 7.27 4.29 12.56
3/19/2024 6:45:00 AM 3.95 39.11 0.084 7.27 4.14 12.57
3/19/2024 7:00:00 AM 3.93 39.074 0.084 7.27 3.99 12.58
3/19/2024 7:15:00 AM 3.91 39.038 0.084 7.28 3.9 12.6
3/19/2024 7:30:00 AM 3.89 39.002 0.084 7.28 3.9 12.61
3/19/2024 7:45:00 AM 3.87 38.966 0.084 7.27 4.02 12.64
3/19/2024 8:00:00 AM 3.86 38.948 0.084 7.29 4.06 12.67
3/19/2024 8:15:00 AM 3.84 38.912 0.084 7.28 4.14 12.72
3/19/2024 8:30:00 AM 3.83 38.894 0.084 7.31 3.93 12.77
3/19/2024 8:45:00 AM 3.83 38.894 0.084 7.31 3.9 12.82
3/19/2024 9:00:00 AM 3.85 38.93 0.084 7.34 3.78 12.87
3/19/2024 9:15:00 AM 3.84 38.912 0.084 7.34 3.77 12.91
3/19/2024 9:30:00 AM 3.86 38.948 0.083 7.34 3.89 12.95
3/19/2024 9:45:00 AM 3.89 39.002 0.083 7.35 3.89 12.98
3/19/2024 10:00:00 AM 3.9 39.02 0.083 7.36 3.77 13
3/19/2024 10:15:00 AM 4.01 39.218 0.083 7.39 3.64 13.04
3/19/2024 10:30:00 AM 4.14 39.452 0.083 7.39 3.67 13.04
3/19/2024 10:45:00 AM 4.22 39.596 0.083 7.39 3.68 13.06
3/19/2024 11:00:00 AM 4.25 39.65 0.083 7.4 3.64 13.07
3/19/2024 11:15:00 AM 4.35 39.83 0.083 7.41 3.66 13.07
3/19/2024 11:30:00 AM 4.39 39.902 0.083 7.42 3.68 13.07
3/19/2024 11:45:00 AM 4.47 40.046 0.083 7.43 3.69 13.07
3/19/2024 12:00:00 PM 4.58 40.244 0.083 7.44 3.68 13.07
3/19/2024 12:15:00 PM 4.68 40.424 0.083 7.44 3.56 13.05
3/19/2024 12:30:00 PM 4.67 40.406 0.083 7.45 3.53 13.05
3/19/2024 12:45:00 PM 4.68 40.424 0.082 7.46 3.59 13.03
3/19/2024 1:00:00 PM 4.78 40.604 0.082 7.45 3.49 13.04
3/19/2024 1:15:00 PM 4.82 40.676 0.082 7.47 3.34 13.01
3/19/2024 1:30:00 PM 5.09 41.162 0.082 7.47 3.61 12.99
3/19/2024 1:45:00 PM 5.17 41.306 0.082 7.47 3.46 12.97
3/19/2024 2:00:00 PM 5.22 41.396 0.082 7.49 3.58 12.95
3/19/2024 2:15:00 PM 5.26 41.468 0.082 7.48 3.59 12.92
3/19/2024 2:30:00 PM 5.31 41.558 0.082 7.48 3.51 12.9
3/19/2024 2:45:00 PM 5.42 41.756 0.082 7.5 3.33 12.87
3/19/2024 3:00:00 PM 5.52 41.936 0.082 7.51 3.48 12.84
3/19/2024 3:15:00 PM 5.51 41.918 0.082 7.49 3.48 12.82
3/19/2024 3:30:00 PM 5.49 41.882 0.082 7.5 3.44 12.79
3/19/2024 3:45:00 PM 5.55 41.99 0.082 7.51 3.52 12.77
3/19/2024 4:00:00 PM 5.62 42.116 0.082 7.51 3.3 12.76
3/19/2024 4:15:00 PM 5.65 42.17 0.082 7.5 3.37 12.74
3/19/2024 4:30:00 PM 5.66 42.188 0.082 7.51 3.41 12.71
3/19/2024 4:45:00 PM 5.69 42.242 0.081 7.51 3.38 12.69
3/19/2024 5:00:00 PM 5.71 42.278 0.081 7.52 3.45 12.65
3/19/2024 5:15:00 PM 5.71 42.278 0.081 7.51 3.51 12.61
3/19/2024 5:30:00 PM 5.71 42.278 0.081 7.49 3.44 12.55
3/19/2024 5:45:00 PM 5.7 42.26 0.081 7.48 3.46 12.5
3/19/2024 6:00:00 PM 5.7 42.26 0.081 7.47 3.4 12.45
3/19/2024 6:15:00 PM 5.7 42.26 0.081 7.46 3.44 12.41
3/19/2024 6:30:00 PM 5.69 42.242 0.081 7.45 3.5 12.36
3/19/2024 6:45:00 PM 5.69 42.242 0.082 7.44 3.52 12.32
3/19/2024 7:00:00 PM 5.67 42.206 0.082 7.42 3.41 12.28
3/19/2024 7:15:00 PM 5.66 42.188 0.082 7.4 3.66 12.25
3/19/2024 7:30:00 PM 5.64 42.152 0.082 7.4 3.66 12.21
3/19/2024 7:45:00 PM 5.61 42.098 0.082 7.38 3.65 12.19
3/19/2024 8:00:00 PM 5.58 42.044 0.082 7.38 3.63 12.16
3/19/2024 8:15:00 PM 5.56 42.008 0.082 7.37 3.51 12.14
3/19/2024 8:30:00 PM 5.53 41.954 0.082 7.36 3.76 12.13
3/19/2024 8:45:00 PM 5.51 41.918 0.082 7.36 3.56 12.12
3/19/2024 9:00:00 PM 5.48 41.864 0.082 7.33 3.75 12.11
3/19/2024 9:15:00 PM 5.45 41.81 0.082 7.34 3.59 12.1
3/19/2024 9:30:00 PM 5.43 41.774 0.082 7.32 3.62 12.1
3/19/2024 9:45:00 PM 5.4 41.72 0.082 7.32 3.73 12.09
3/19/2024 10:00:00 PM 5.37 41.666 0.082 7.32 3.56 12.09
3/19/2024 10:15:00 PM 5.34 41.612 0.082 7.32 3.84 12.1
3/19/2024 10:30:00 PM 5.31 41.558 0.082 7.3 3.88 12.1
3/19/2024 10:45:00 PM 5.28 41.504 0.083 7.3 3.67 12.1
3/19/2024 11:00:00 PM 5.24 41.432 0.083 7.3 3.87 12.11
3/19/2024 11:15:00 PM 5.21 41.378 0.083 7.29 3.58 12.12
3/19/2024 11:30:00 PM 5.18 41.324 0.083 7.29 3.54 12.12
3/19/2024 11:45:00 PM 5.15 41.27 0.083 7.29 3.78 12.13
3/20/2024 12:00:00 AM 5.12 41.216 0.083 7.3 3.66 12.13
3/20/2024 12:15:00 AM 5.09 41.162 0.083 7.29 3.84 12.14
3/20/2024 12:30:00 AM 5.06 41.108 0.083 7.28 3.83 12.15
3/20/2024 12:45:00 AM 5.03 41.054 0.083 7.28 3.69 12.16
3/20/2024 1:00:00 AM 5 41 0.083 7.28 3.8 12.17
3/20/2024 1:15:00 AM 4.97 40.946 0.083 7.28 3.86 12.17
3/20/2024 1:30:00 AM 4.95 40.91 0.083 7.29 3.77 12.18
3/20/2024 1:45:00 AM 4.92 40.856 0.084 7.29 3.91 12.18
3/20/2024 2:00:00 AM 4.9 40.82 0.084 7.29 3.54 12.19
3/20/2024 2:15:00 AM 4.87 40.766 0.084 7.29 3.79 12.2
3/20/2024 2:30:00 AM 4.84 40.712 0.084 7.28 3.81 12.2
3/20/2024 2:45:00 AM 4.82 40.676 0.084 7.28 3.72 12.21
3/20/2024 3:00:00 AM 4.79 40.622 0.084 7.28 3.7 12.22
3/20/2024 3:15:00 AM 4.77 40.586 0.084 7.28 3.72 12.23
3/20/2024 3:30:00 AM 4.73 40.514 0.084 7.27 3.74 12.24
3/20/2024 3:45:00 AM 4.68 40.424 0.084 7.27 3.93 12.25
3/20/2024 4:00:00 AM 4.65 40.37 0.084 7.29 3.69 12.26
3/20/2024 4:15:00 AM 4.62 40.316 0.084 7.28 3.65 12.26
3/20/2024 4:30:00 AM 4.56 40.208 0.084 7.28 3.65 12.28
3/20/2024 4:45:00 AM 4.51 40.118 0.084 7.27 3.63 12.29
3/20/2024 5:00:00 AM 4.46 40.028 0.084 7.28 3.82 12.3
3/20/2024 5:15:00 AM 4.4 39.92 0.084 7.27 3.77 12.32
3/20/2024 5:30:00 AM 4.35 39.83 0.084 7.28 3.78 12.33
3/20/2024 5:45:00 AM 4.3 39.74 0.084 7.27 3.75 12.35
3/20/2024 6:00:00 AM 4.25 39.65 0.084 7.27 3.82 12.37
3/20/2024 6:15:00 AM 4.19 39.542 0.084 7.27 4.12 12.39
3/20/2024 6:30:00 AM 4.15 39.47 0.084 7.27 3.75 12.4
3/20/2024 6:45:00 AM 4.12 39.416 0.084 7.27 3.67 12.42
3/20/2024 7:00:00 AM 4.08 39.344 0.084 7.27 3.63 12.44
3/20/2024 7:15:00 AM 4.05 39.29 0.084 7.26 3.96 12.46
3/20/2024 7:30:00 AM 4.02 39.236 0.085 7.26 3.86 12.47
3/20/2024 7:45:00 AM 3.99 39.182 0.085 7.27 3.9 12.5
3/20/2024 8:00:00 AM 3.97 39.146 0.085 7.28 3.92 12.52
3/20/2024 8:15:00 AM 3.95 39.11 0.085 7.29 3.94 12.54
3/20/2024 8:30:00 AM 3.94 39.092 0.085 7.29 3.66 12.58
3/20/2024 8:45:00 AM 3.93 39.074 0.085 7.29 3.79 12.61
3/20/2024 9:00:00 AM 3.92 39.056 0.084 7.3 3.61 12.65
3/20/2024 9:15:00 AM 3.92 39.056 0.084 7.3 3.68 12.69
3/20/2024 9:30:00 AM 3.92 39.056 0.084 7.3 3.63 12.72
3/20/2024 9:45:00 AM 3.93 39.074 0.084 7.32 3.65 12.74
3/20/2024 10:00:00 AM 3.94 39.092 0.084 7.33 3.58 12.77
3/20/2024 10:15:00 AM 3.95 39.11 0.084 7.34 3.43 12.8
3/20/2024 10:30:00 AM 3.95 39.11 0.084 7.33 3.69 12.8
3/20/2024 10:45:00 AM 3.91 39.038 0.084 7.34 3.54 12.82
3/20/2024 11:00:00 AM 3.93 39.074 0.084 7.34 3.55 12.84
3/20/2024 11:15:00 AM 3.94 39.092 0.084 7.35 3.51 12.87
3/20/2024 11:30:00 AM 3.97 39.146 0.084 7.37 3.54 12.89
3/20/2024 11:45:00 AM 3.99 39.182 0.084 7.37 3.44 12.92
3/20/2024 12:00:00 PM 4.05 39.29 0.084 7.38 3.48 12.94
3/20/2024 12:15:00 PM 4.15 39.47 0.084 7.39 3.66 12.96
3/20/2024 12:30:00 PM 4.16 39.488 0.084 7.4 3.86 12.94
3/20/2024 12:45:00 PM 4.17 39.506 0.083 7.4 3.6 12.95
3/20/2024 1:00:00 PM 4.19 39.542 0.083 7.4 3.54 12.93
3/20/2024 1:15:00 PM 4.22 39.596 0.083 7.4 3.57 12.94
3/20/2024 1:30:00 PM 4.25 39.65 0.083 7.42 3.52 12.94
3/20/2024 1:45:00 PM 4.26 39.668 0.083 7.42 3.46 12.93
3/20/2024 2:00:00 PM 4.31 39.758 0.083 7.42 3.51 12.95
3/20/2024 2:15:00 PM 4.53 40.154 0.083 7.44 3.4 12.95
3/20/2024 2:30:00 PM 4.6 40.28 0.083 7.44 3.47 12.95
3/20/2024 2:45:00 PM 4.89 40.802 0.083 7.45 3.43 12.94
3/20/2024 3:00:00 PM 5 41 0.083 7.46 3.5 12.92
3/20/2024 3:15:00 PM 4.93 40.874 0.083 7.45 3.45 12.85
3/20/2024 3:30:00 PM 4.96 40.928 0.083 7.44 3.46 12.85
3/20/2024 3:45:00 PM 4.97 40.946 0.083 7.46 3.5 12.81
3/20/2024 4:00:00 PM 4.97 40.946 0.083 7.46 3.5 12.78
3/20/2024 4:15:00 PM 5.05 41.09 0.083 7.45 3.5 12.78
3/20/2024 4:30:00 PM 5.24 41.432 0.082 7.46 3.37 12.78
3/20/2024 4:45:00 PM 5.2 41.36 0.082 7.47 3.5 12.75
3/20/2024 5:00:00 PM 5.21 41.378 0.082 7.47 3.55 12.74
3/20/2024 5:15:00 PM 5.23 41.414 0.082 7.46 3.4 12.71
3/20/2024 5:30:00 PM 5.22 41.396 0.082 7.47 3.39 12.7
3/20/2024 5:45:00 PM 5.26 41.468 0.082 7.48 3.61 12.68
3/20/2024 6:00:00 PM 5.24 41.432 0.082 7.47 3.5 12.67
3/20/2024 6:15:00 PM 5.17 41.306 0.082 7.46 3.52 12.64
3/20/2024 6:30:00 PM 5.1 41.18 0.082 7.46 3.44 12.6
3/20/2024 6:45:00 PM 5.05 41.09 0.082 7.44 3.39 12.58
3/20/2024 7:00:00 PM 5 41 0.082 7.42 3.48 12.56
3/20/2024 7:15:00 PM 4.95 40.91 0.082 7.42 3.49 12.54
3/20/2024 7:30:00 PM 4.89 40.802 0.082 7.41 3.59 12.52
3/20/2024 7:45:00 PM 4.82 40.676 0.082 7.39 3.45 12.5
3/20/2024 8:00:00 PM 4.75 40.55 0.082 7.38 3.51 12.5
3/20/2024 8:15:00 PM 4.69 40.442 0.082 7.37 3.62 12.48
3/20/2024 8:30:00 PM 4.64 40.352 0.082 7.37 4.08 12.48
3/20/2024 8:45:00 PM 4.6 40.28 0.082 7.36 3.68 12.48
3/20/2024 9:00:00 PM 4.56 40.208 0.082 7.35 3.61 12.47
3/20/2024 9:15:00 PM 4.51 40.118 0.082 7.35 3.65 12.48
3/20/2024 9:30:00 PM 4.47 40.046 0.082 7.34 3.57 12.48
3/20/2024 9:45:00 PM 4.43 39.974 0.082 7.33 3.54 12.48
3/20/2024 10:00:00 PM 4.38 39.884 0.082 7.33 3.63 12.49
3/20/2024 10:15:00 PM 4.29 39.722 0.082 7.32 3.66 12.51
3/20/2024 10:30:00 PM 4.23 39.614 0.082 7.32 3.65 12.52
3/20/2024 10:45:00 PM 4.16 39.488 0.082 7.31 3.72 12.54
3/20/2024 11:00:00 PM 4.08 39.344 0.082 7.31 3.81 12.56
3/20/2024 11:15:00 PM 4.02 39.236 0.083 7.3 3.7 12.58
3/20/2024 11:30:00 PM 3.96 39.128 0.083 7.3 3.65 12.6
3/20/2024 11:45:00 PM 3.89 39.002 0.083 7.31 3.77 12.63
3/21/2024 12:00:00 AM 3.81 38.858 0.083 7.3 3.74 12.65
3/21/2024 12:15:00 AM 3.73 38.714 0.083 7.29 3.76 12.68
3/21/2024 12:30:00 AM 3.66 38.588 0.083 7.3 3.79 12.7
3/21/2024 12:45:00 AM 3.58 38.444 0.083 7.3 3.7 12.73
3/21/2024 1:00:00 AM 3.5 38.3 0.083 7.29 3.76 12.75
3/21/2024 1:15:00 AM 3.42 38.156 0.083 7.3 3.83 12.78
3/21/2024 1:30:00 AM 3.33 37.994 0.083 7.3 3.82 12.81
3/21/2024 1:45:00 AM 3.25 37.85 0.083 7.3 3.89 12.84
3/21/2024 2:00:00 AM 3.18 37.724 0.083 7.29 3.73 12.87
3/21/2024 2:15:00 AM 3.1 37.58 0.083 7.3 3.82 12.9
3/21/2024 2:30:00 AM 3.01 37.418 0.083 7.3 3.75 12.93
3/21/2024 2:45:00 AM 2.95 37.31 0.083 7.29 4.07 12.96
3/21/2024 3:00:00 AM 2.87 37.166 0.083 7.27 4.05 12.99
3/21/2024 3:15:00 AM 2.8 37.04 0.084 7.27 3.84 13.02
3/21/2024 3:30:00 AM 2.72 36.896 0.084 7.29 3.85 13.06
3/21/2024 3:45:00 AM 2.65 36.77 0.084 7.28 3.66 13.08
3/21/2024 4:00:00 AM 2.58 36.644 0.084 7.27 3.74 13.11
3/21/2024 4:15:00 AM 2.52 36.536 0.084 7.28 3.76 13.14
3/21/2024 4:30:00 AM 2.45 36.41 0.084 7.27 3.81 13.18
3/21/2024 4:45:00 AM 2.38 36.284 0.084 7.27 3.87 13.2
3/21/2024 5:00:00 AM 2.32 36.176 0.084 7.28 3.98 13.23
3/21/2024 5:15:00 AM 2.25 36.05 0.084 7.28 3.86 13.26
3/21/2024 5:30:00 AM 2.19 35.942 0.084 7.26 3.94 13.29
3/21/2024 5:45:00 AM 2.13 35.834 0.084 7.28 4.04 13.32
3/21/2024 6:00:00 AM 2.07 35.726 0.084 7.29 4.21 13.34
3/21/2024 6:15:00 AM 2.01 35.618 0.084 7.26 4.04 13.37
3/21/2024 6:30:00 AM 1.95 35.51 0.084 7.26 3.99 13.39
3/21/2024 6:45:00 AM 1.9 35.42 0.084 7.28 3.9 13.42
3/21/2024 7:00:00 AM 1.84 35.312 0.084 7.28 3.93 13.44
3/21/2024 7:15:00 AM 1.8 35.24 0.084 7.26 3.85 13.48
3/21/2024 7:30:00 AM 1.76 35.168 0.085 7.28 3.78 13.52
3/21/2024 7:45:00 AM 1.73 35.114 0.085 7.28 3.85 13.57
3/21/2024 8:00:00 AM 1.71 35.078 0.085 7.29 3.74 13.62
3/21/2024 8:15:00 AM 1.67 35.006 0.085 7.3 3.86 13.67
3/21/2024 8:30:00 AM 1.65 34.97 0.085 7.31 3.72 13.72
3/21/2024 8:45:00 AM 1.65 34.97 0.085 7.3 3.71 13.76
3/21/2024 9:00:00 AM 1.65 34.97 0.085 7.33 3.79 13.81
3/21/2024 9:15:00 AM 1.66 34.988 0.084 7.35 3.66 13.86
3/21/2024 9:30:00 AM 1.67 35.006 0.084 7.34 3.82 13.89
3/21/2024 9:45:00 AM 1.71 35.078 0.084 7.35 3.74 13.93
3/21/2024 10:00:00 AM 1.75 35.15 0.084 7.37 3.64 13.96
3/21/2024 10:15:00 AM 1.78 35.204 0.084 7.36 3.64 13.98
3/21/2024 10:30:00 AM 1.87 35.366 0.084 7.37 3.57 13.99
3/21/2024 10:45:00 AM 2 35.6 0.084 7.39 3.62 14.01
3/21/2024 11:00:00 AM 2.11 35.798 0.084 7.4 3.62 14.01
3/21/2024 11:15:00 AM 2.15 35.87 0.084 7.4 3.56 14.02
3/21/2024 11:30:00 AM 2.21 35.978 0.084 7.4 3.62 14.02
3/21/2024 11:45:00 AM 2.51 36.518 0.084 7.4 3.6 14
3/21/2024 12:00:00 PM 2.64 36.752 0.084 7.42 3.56 13.97
3/21/2024 12:15:00 PM 2.88 37.184 0.083 7.43 3.37 13.94
3/21/2024 12:30:00 PM 3.19 37.742 0.083 7.42 3.47 13.88
3/21/2024 12:45:00 PM 3.34 38.012 0.083 7.43 3.32 13.85
3/21/2024 1:00:00 PM 3.56 38.408 0.083 7.43 3.3 13.82
3/21/2024 1:15:00 PM 3.88 38.984 0.083 7.44 3.48 13.75
3/21/2024 1:30:00 PM 4.13 39.434 0.083 7.45 3.36 13.67
3/21/2024 1:45:00 PM 4.37 39.866 0.083 7.44 3.32 13.63
3/21/2024 2:00:00 PM 4.69 40.442 0.083 7.45 3.33 13.55
3/21/2024 2:15:00 PM 4.79 40.622 0.083 7.45 3.29 13.49
3/21/2024 2:30:00 PM 4.93 40.874 0.083 7.45 3.24 13.43
3/21/2024 2:45:00 PM 5.02 41.036 0.083 7.45 3.48 13.38
3/21/2024 3:00:00 PM 5.18 41.324 0.083 7.46 3.36 13.32
3/21/2024 3:15:00 PM 5.18 41.324 0.083 7.45 3.19 13.28
3/21/2024 3:30:00 PM 5.3 41.54 0.083 7.46 3.25 13.21
3/21/2024 3:45:00 PM 5.37 41.666 0.083 7.47 3.27 13.18
3/21/2024 4:00:00 PM 5.45 41.81 0.083 7.47 3.34 13.12
3/21/2024 4:15:00 PM 5.52 41.936 0.083 7.47 3.3 13.06
3/21/2024 4:30:00 PM 5.51 41.918 0.083 7.47 3.23 13.02
3/21/2024 4:45:00 PM 5.48 41.864 0.083 7.47 3.26 12.99
3/21/2024 5:00:00 PM 5.47 41.846 0.083 7.47 3.21 12.94
3/21/2024 5:15:00 PM 5.43 41.774 0.083 7.47 3.33 12.9
3/21/2024 5:30:00 PM 5.38 41.684 0.083 7.47 3.41 12.87
3/21/2024 5:45:00 PM 5.36 41.648 0.083 7.47 3.22 12.82
3/21/2024 6:00:00 PM 5.34 41.612 0.083 7.46 3.32 12.78
3/21/2024 6:15:00 PM 5.31 41.558 0.083 7.45 3.17 12.73
3/21/2024 6:30:00 PM 5.31 41.558 0.083 7.44 3.3 12.68
3/21/2024 6:45:00 PM 5.33 41.594 0.083 7.43 3.39 12.63
3/21/2024 7:00:00 PM 5.35 41.63 0.083 7.43 3.3 12.58
3/21/2024 7:15:00 PM 5.37 41.666 0.083 7.41 3.4 12.53
3/21/2024 7:30:00 PM 5.37 41.666 0.083 7.4 3.57 12.49
3/21/2024 7:45:00 PM 5.36 41.648 0.083 7.39 3.41 12.45
3/21/2024 8:00:00 PM 5.32 41.576 0.083 7.38 3.43 12.42
3/21/2024 8:15:00 PM 5.28 41.504 0.083 7.37 3.52 12.41
3/21/2024 8:30:00 PM 5.23 41.414 0.083 7.36 3.5 12.4
3/21/2024 8:45:00 PM 5.17 41.306 0.083 7.37 3.55 12.39
3/21/2024 9:00:00 PM 5.1 41.18 0.083 7.36 3.48 12.4
3/21/2024 9:15:00 PM 5.03 41.054 0.083 7.34 3.27 12.4
3/21/2024 9:30:00 PM 4.96 40.928 0.083 7.34 3.4 12.42
3/21/2024 9:45:00 PM 4.88 40.784 0.083 7.34 3.52 12.43
3/21/2024 10:00:00 PM 4.79 40.622 0.083 7.33 3.43 12.44
3/21/2024 10:15:00 PM 4.71 40.478 0.083 7.33 3.4 12.47
3/21/2024 10:30:00 PM 4.63 40.334 0.083 7.33 3.48 12.49
3/21/2024 10:45:00 PM 4.53 40.154 0.083 7.32 3.51 12.51
3/21/2024 11:00:00 PM 4.44 39.992 0.083 7.32 3.69 12.55
3/21/2024 11:15:00 PM 4.33 39.794 0.083 7.32 3.48 12.58
3/21/2024 11:30:00 PM 4.22 39.596 0.084 7.31 3.56 12.62
3/21/2024 11:45:00 PM 4.11 39.398 0.084 7.31 3.42 12.66
3/22/2024 12:00:00 AM 3.99 39.182 0.084 7.3 3.5 12.7
3/22/2024 12:15:00 AM 3.87 38.966 0.084 7.3 3.41 12.75
3/22/2024 12:30:00 AM 3.76 38.768 0.084 7.3 3.71 12.79
3/22/2024 12:45:00 AM 3.64 38.552 0.084 7.3 3.48 12.83
3/22/2024 1:00:00 AM 3.53 38.354 0.084 7.3 3.48 12.87
3/22/2024 1:15:00 AM 3.43 38.174 0.084 7.29 3.39 12.91
3/22/2024 1:30:00 AM 3.33 37.994 0.084 7.3 3.39 12.95
3/22/2024 1:45:00 AM 3.24 37.832 0.084 7.3 3.43 12.99
3/22/2024 2:00:00 AM 3.14 37.652 0.084 7.29 3.46 13.03
3/22/2024 2:15:00 AM 3.04 37.472 0.085 7.28 3.43 13.06
3/22/2024 2:30:00 AM 2.94 37.292 0.085 7.28 3.49 13.1
3/22/2024 2:45:00 AM 2.85 37.13 0.085 7.28 3.6 13.14
3/22/2024 3:00:00 AM 2.76 36.968 0.085 7.29 3.62 13.17
3/22/2024 3:15:00 AM 2.67 36.806 0.085 7.29 3.47 13.21
3/22/2024 3:30:00 AM 2.57 36.626 0.085 7.27 3.6 13.25
3/22/2024 3:45:00 AM 2.49 36.482 0.085 7.27 3.62 13.28
3/22/2024 4:00:00 AM 2.41 36.338 0.085 7.28 3.55 13.31
3/22/2024 4:15:00 AM 2.33 36.194 0.085 7.28 3.49 13.34
3/22/2024 4:30:00 AM 2.25 36.05 0.085 7.27 3.54 13.37
3/22/2024 4:45:00 AM 2.18 35.924 0.085 7.29 3.67 13.4
3/22/2024 5:00:00 AM 2.11 35.798 0.085 7.29 3.58 13.43
3/22/2024 5:15:00 AM 2.04 35.672 0.085 7.28 3.54 13.46
3/22/2024 5:30:00 AM 1.97 35.546 0.085 7.27 3.55 13.49
3/22/2024 5:45:00 AM 1.9 35.42 0.085 7.27 3.72 13.51
3/22/2024 6:00:00 AM 1.84 35.312 0.086 7.29 3.91 13.54
3/22/2024 6:15:00 AM 1.78 35.204 0.086 7.28 3.54 13.57
3/22/2024 6:30:00 AM 1.71 35.078 0.086 7.27 3.59 13.6
3/22/2024 6:45:00 AM 1.65 34.97 0.086 7.28 3.53 13.63
3/22/2024 7:00:00 AM 1.58 34.844 0.086 7.28 3.63 13.65
3/22/2024 7:15:00 AM 1.52 34.736 0.086 7.29 3.58 13.69
3/22/2024 7:30:00 AM 1.47 34.646 0.086 7.29 3.56 13.74
3/22/2024 7:45:00 AM 1.42 34.556 0.086 7.28 3.55 13.8
3/22/2024 8:00:00 AM 1.39 34.502 0.086 7.3 3.39 13.85
3/22/2024 8:15:00 AM 1.36 34.448 0.086 7.3 3.44 13.91
3/22/2024 8:30:00 AM 1.36 34.448 0.086 7.31 3.57 13.96
3/22/2024 8:45:00 AM 1.35 34.43 0.086 7.32 3.64 14.01
3/22/2024 9:00:00 AM 1.4 34.52 0.086 7.33 3.36 14.05
3/22/2024 9:15:00 AM 1.43 34.574 0.086 7.33 3.52 14.09
3/22/2024 9:30:00 AM 1.43 34.574 0.086 7.33 3.33 14.11
3/22/2024 9:45:00 AM 1.44 34.592 0.086 7.35 3.45 14.14
3/22/2024 10:00:00 AM 1.51 34.718 0.086 7.36 3.4 14.18
3/22/2024 10:15:00 AM 1.57 34.826 0.086 7.36 3.33 14.19
3/22/2024 10:30:00 AM 1.62 34.916 0.086 7.37 3.37 14.21
3/22/2024 10:45:00 AM 1.78 35.204 0.086 7.38 3.38 14.22
3/22/2024 11:00:00 AM 2 35.6 0.085 7.39 3.3 14.22
3/22/2024 11:15:00 AM 2.12 35.816 0.085 7.39 3.33 14.21
3/22/2024 11:30:00 AM 2.32 36.176 0.085 7.39 3.15 14.19
3/22/2024 11:45:00 AM 2.48 36.464 0.085 7.4 3.18 14.16
3/22/2024 12:00:00 PM 2.67 36.806 0.085 7.41 3.16 14.14
3/22/2024 12:15:00 PM 2.83 37.094 0.085 7.41 3.45 14.09
3/22/2024 12:30:00 PM 2.91 37.238 0.085 7.41 3.31 14.07
3/22/2024 12:45:00 PM 3.21 37.778 0.085 7.42 3.2 14.02
3/22/2024 1:00:00 PM 3.53 38.354 0.085 7.43 3.09 13.96
3/22/2024 1:15:00 PM 3.68 38.624 0.084 7.43 3.08 13.91
3/22/2024 1:30:00 PM 3.87 38.966 0.085 7.43 3.1 13.85
3/22/2024 1:45:00 PM 4.13 39.434 0.084 7.44 3.1 13.77
3/22/2024 2:00:00 PM 4.18 39.524 0.084 7.44 3.05 13.73
3/22/2024 2:15:00 PM 4.28 39.704 0.084 7.44 3.16 13.68
3/22/2024 2:30:00 PM 4.4 39.92 0.084 7.45 3.15 13.65
3/22/2024 2:45:00 PM 4.64 40.352 0.084 7.46 3.04 13.57
3/22/2024 3:00:00 PM 4.69 40.442 0.084 7.46 3.11 13.54
3/22/2024 3:15:00 PM 4.88 40.784 0.084 7.46 3.04 13.48
3/22/2024 3:30:00 PM 5.05 41.09 0.084 7.47 3.08 13.41
3/22/2024 3:45:00 PM 5.15 41.27 0.084 7.47 2.98 13.35
3/22/2024 4:00:00 PM 5.25 41.45 0.084 7.47 2.98 13.29
3/22/2024 4:15:00 PM 5.32 41.576 0.084 7.48 3.19 13.23
3/22/2024 4:30:00 PM 5.31 41.558 0.084 7.47 2.98 13.2
3/22/2024 4:45:00 PM 5.31 41.558 0.084 7.47 3.09 13.15
3/22/2024 5:00:00 PM 5.24 41.432 0.084 7.47 3.04 13.08
3/22/2024 5:15:00 PM 5.25 41.45 0.084 7.48 3.2 13.04
3/22/2024 5:30:00 PM 5.31 41.558 0.084 7.48 3.19 12.99
3/22/2024 5:45:00 PM 5.33 41.594 0.084 7.47 3.24 12.95
3/22/2024 6:00:00 PM 5.34 41.612 0.084 7.46 3.21 12.9
3/22/2024 6:15:00 PM 5.36 41.648 0.083 7.46 3 12.84
3/22/2024 6:30:00 PM 5.4 41.72 0.083 7.45 3.15 12.76
3/22/2024 6:45:00 PM 5.44 41.792 0.083 7.43 3.3 12.7
3/22/2024 7:00:00 PM 5.47 41.846 0.083 7.43 3.28 12.64
3/22/2024 7:15:00 PM 5.48 41.864 0.083 7.41 3.31 12.58
3/22/2024 7:30:00 PM 5.49 41.882 0.083 7.4 3.32 12.53
3/22/2024 7:45:00 PM 5.48 41.864 0.083 7.39 3.07 12.49
3/22/2024 8:00:00 PM 5.47 41.846 0.083 7.38 3.23 12.45
3/22/2024 8:15:00 PM 5.45 41.81 0.083 7.37 3.21 12.43
3/22/2024 8:30:00 PM 5.44 41.792 0.083 7.36 3.07 12.41
3/22/2024 8:45:00 PM 5.42 41.756 0.083 7.35 3.23 12.38
3/22/2024 9:00:00 PM 5.4 41.72 0.083 7.35 3.3 12.36
3/22/2024 9:15:00 PM 5.38 41.684 0.083 7.35 3.18 12.34
3/22/2024 9:30:00 PM 5.36 41.648 0.083 7.34 3.24 12.33
3/22/2024 9:45:00 PM 5.34 41.612 0.084 7.33 3.24 12.32
3/22/2024 10:00:00 PM 5.32 41.576 0.084 7.33 3.29 12.31
3/22/2024 10:15:00 PM 5.3 41.54 0.084 7.33 3.46 12.3
3/22/2024 10:30:00 PM 5.27 41.486 0.084 7.32 3.31 12.3
3/22/2024 10:45:00 PM 5.25 41.45 0.084 7.32 3.19 12.3
3/22/2024 11:00:00 PM 5.22 41.396 0.084 7.32 3.32 12.29
3/22/2024 11:15:00 PM 5.2 41.36 0.084 7.32 3.28 12.3
3/22/2024 11:30:00 PM 5.17 41.306 0.084 7.31 3.39 12.3
3/22/2024 11:45:00 PM 5.14 41.252 0.084 7.31 3.32 12.31
3/23/2024 12:00:00 AM 5.12 41.216 0.084 7.31 3.35 12.32
3/23/2024 12:15:00 AM 5.08 41.144 0.084 7.31 3.26 12.33
3/23/2024 12:30:00 AM 5.05 41.09 0.084 7.3 3.24 12.34
3/23/2024 12:45:00 AM 5.02 41.036 0.085 7.29 3.22 12.35
3/23/2024 1:00:00 AM 4.99 40.982 0.085 7.3 3.26 12.35
3/23/2024 1:15:00 AM 4.96 40.928 0.085 7.3 3.26 12.36
3/23/2024 1:30:00 AM 4.93 40.874 0.085 7.29 3.19 12.36
3/23/2024 1:45:00 AM 4.9 40.82 0.085 7.29 3.46 12.38
3/23/2024 2:00:00 AM 4.86 40.748 0.085 7.29 3.54 12.39
3/23/2024 2:15:00 AM 4.82 40.676 0.085 7.29 3.42 12.4
3/23/2024 2:30:00 AM 4.79 40.622 0.085 7.28 3.53 12.41
3/23/2024 2:45:00 AM 4.75 40.55 0.085 7.28 3.54 12.42
3/23/2024 3:00:00 AM 4.71 40.478 0.085 7.29 3.42 12.43
3/23/2024 3:15:00 AM 4.68 40.424 0.085 7.29 3.58 12.44
3/23/2024 3:30:00 AM 4.65 40.37 0.085 7.28 4.56 12.45
3/23/2024 3:45:00 AM 4.61 40.298 0.085 7.28 3.82 12.46
3/23/2024 4:00:00 AM 4.58 40.244 0.085 7.28 6.51 12.47
3/23/2024 4:15:00 AM 4.55 40.19 0.084 7.28 4.47 12.48
3/23/2024 4:30:00 AM 4.52 40.136 0.084 7.28 4.91 12.49
3/23/2024 4:45:00 AM 4.5 40.1 0.084 7.28 4.54 12.49
3/23/2024 5:00:00 AM 4.47 40.046 0.085 7.29 4.93 12.5
3/23/2024 5:15:00 AM 4.45 40.01 0.085 7.28 4.12 12.51
3/23/2024 5:30:00 AM 4.43 39.974 0.085 7.27 4.14 12.51
3/23/2024 5:45:00 AM 4.42 39.956 0.085 7.29 4.55 12.51
3/23/2024 6:00:00 AM 4.4 39.92 0.085 7.28 4.43 12.52
3/23/2024 6:15:00 AM 4.38 39.884 0.085 7.28 4.48 12.53
3/23/2024 6:30:00 AM 4.36 39.848 0.085 7.27 4.59 12.53
3/23/2024 6:45:00 AM 4.34 39.812 0.085 7.28 4.74 12.54
3/23/2024 7:00:00 AM 4.32 39.776 0.086 7.28 4.72 12.55
3/23/2024 7:15:00 AM 4.3 39.74 0.086 7.28 5.09 12.56
3/23/2024 7:30:00 AM 4.28 39.704 0.086 7.29 5.01 12.57
3/23/2024 7:45:00 AM 4.26 39.668 0.086 7.29 5.52 12.59
3/23/2024 8:00:00 AM 4.25 39.65 0.086 7.3 5.88 12.61
3/23/2024 8:15:00 AM 4.24 39.632 0.087 7.3 6.33 12.62
3/23/2024 8:30:00 AM 4.23 39.614 0.087 7.3 6.58 12.64
3/23/2024 8:45:00 AM 4.22 39.596 0.087 7.3 7.42 12.67
3/23/2024 9:00:00 AM 4.22 39.596 0.087 7.32 7.94 12.69
3/23/2024 9:15:00 AM 4.22 39.596 0.087 7.33 8.67 12.7
3/23/2024 9:30:00 AM 4.21 39.578 0.087 7.32 9.65 12.72
3/23/2024 9:45:00 AM 4.21 39.578 0.087 7.32 9.44 12.74
3/23/2024 10:00:00 AM 4.21 39.578 0.087 7.33 10.38 12.76
3/23/2024 10:15:00 AM 4.22 39.596 0.087 7.34 11.27 12.76
3/23/2024 10:30:00 AM 4.22 39.596 0.088 7.35 12.45 12.77
3/23/2024 10:45:00 AM 4.23 39.614 0.088 7.34 13.93 12.8
3/23/2024 11:00:00 AM 4.24 39.632 0.088 7.34 15.55 12.81
3/23/2024 11:15:00 AM 4.26 39.668 0.088 7.37 17.44 12.82
3/23/2024 11:30:00 AM 4.29 39.722 0.087 7.38 19.11 12.83
3/23/2024 11:45:00 AM 4.32 39.776 0.087 7.37 26.36 12.83
3/23/2024 12:00:00 PM 4.35 39.83 0.086 7.38 25.7 12.82
3/23/2024 12:15:00 PM 4.39 39.902 0.086 7.38 27.07 12.82
3/23/2024 12:30:00 PM 4.43 39.974 0.085 7.37 27.36 12.82
3/23/2024 12:45:00 PM 4.47 40.046 0.084 7.39 20.62 12.82
3/23/2024 1:00:00 PM 4.5 40.1 0.084 7.38 23.95 12.82
3/23/2024 1:15:00 PM 4.55 40.19 0.083 7.37 23.46 12.81
3/23/2024 1:30:00 PM 4.58 40.244 0.082 7.38 23.59 12.8
3/23/2024 1:45:00 PM 4.61 40.298 0.081 7.37 19.21 12.79
3/23/2024 2:00:00 PM 4.64 40.352 0.081 7.38 22.25 12.78
3/23/2024 2:15:00 PM 4.67 40.406 0.08 7.37 21.22 12.78
3/23/2024 2:30:00 PM 4.71 40.478 0.08 7.37 20.64 12.77
3/23/2024 2:45:00 PM 4.75 40.55 0.08 7.37 16.4 12.77
3/23/2024 3:00:00 PM 4.79 40.622 0.079 7.39 21.07 12.76
3/23/2024 3:15:00 PM 4.81 40.658 0.079 7.37 20.45 12.74
3/23/2024 3:30:00 PM 4.82 40.676 0.079 7.37 19.69 12.73
3/23/2024 3:45:00 PM 4.83 40.694 0.079 7.38 19.26 12.72
3/23/2024 4:00:00 PM 4.83 40.694 0.079 7.37 17.88 12.7
3/23/2024 4:15:00 PM 4.82 40.676 0.079 7.38 17.87 12.69
3/23/2024 4:30:00 PM 4.82 40.676 0.078 7.37 18.97 12.68
3/23/2024 4:45:00 PM 4.8 40.64 0.078 7.38 17.92 12.66
3/23/2024 5:00:00 PM 4.78 40.604 0.078 7.38 18.11 12.65
3/23/2024 5:15:00 PM 4.75 40.55 0.078 7.37 18.12 12.65
3/23/2024 5:30:00 PM 4.72 40.496 0.078 7.36 19.23 12.65
3/23/2024 5:45:00 PM 4.69 40.442 0.078 7.36 15.43 12.65
3/23/2024 6:00:00 PM 4.67 40.406 0.078 7.37 17.54 12.65
3/23/2024 6:15:00 PM 4.64 40.352 0.078 7.37 17.91 12.65
3/23/2024 6:30:00 PM 4.6 40.28 0.078 7.36 17.6 12.65
3/23/2024 6:45:00 PM 4.56 40.208 0.078 7.36 14.7 12.65
3/23/2024 7:00:00 PM 4.51 40.118 0.078 7.34 17.3 12.64
3/23/2024 7:15:00 PM 4.45 40.01 0.078 7.34 17.47 12.65
3/23/2024 7:30:00 PM 4.41 39.938 0.078 7.35 18.79 12.64
3/23/2024 7:45:00 PM 4.35 39.83 0.078 7.33 17.69 12.65
3/23/2024 8:00:00 PM 4.29 39.722 0.078 7.32 16.31 12.65
3/23/2024 8:15:00 PM 4.24 39.632 0.078 7.32 15.85 12.66
3/23/2024 8:30:00 PM 4.17 39.506 0.078 7.3 16.4 12.67
3/23/2024 8:45:00 PM 4.13 39.434 0.078 7.3 15.85 12.68
3/23/2024 9:00:00 PM 4.08 39.344 0.078 7.3 15.62 12.69
3/23/2024 9:15:00 PM 4.02 39.236 0.079 7.29 14.8 12.7
3/23/2024 9:30:00 PM 3.96 39.128 0.078 7.3 14.82 12.72
3/23/2024 9:45:00 PM 3.9 39.02 0.079 7.29 13.96 12.73
3/23/2024 10:00:00 PM 3.83 38.894 0.078 7.28 14.12 12.75
3/23/2024 10:15:00 PM 3.77 38.786 0.078 7.27 14.48 12.77
3/23/2024 10:30:00 PM 3.72 38.696 0.078 7.29 13.06 12.79
3/23/2024 10:45:00 PM 3.66 38.588 0.079 7.28 12.59 12.81
3/23/2024 11:00:00 PM 3.61 38.498 0.079 7.28 12.72 12.82
3/23/2024 11:15:00 PM 3.57 38.426 0.078 7.26 11.91 12.85
3/23/2024 11:30:00 PM 3.51 38.318 0.079 7.26 11.72 12.86
3/23/2024 11:45:00 PM 3.46 38.228 0.079 7.28 11.8 12.88
3/24/2024 12:00:00 AM 3.4 38.12 0.079 7.27 11.6 12.9
3/24/2024 12:15:00 AM 3.34 38.012 0.079 7.26 10.95 12.93
3/24/2024 12:30:00 AM 3.29 37.922 0.079 7.24 10.43 12.95
3/24/2024 12:45:00 AM 3.23 37.814 0.079 7.27 10.38 12.97
3/24/2024 1:00:00 AM 3.17 37.706 0.079 7.25 9.98 12.99
3/24/2024 1:15:00 AM 3.11 37.598 0.079 7.26 9.79 13.01
3/24/2024 1:30:00 AM 3.05 37.49 0.079 7.25 9.41 13.03
3/24/2024 1:45:00 AM 2.99 37.382 0.079 7.24 9.8 13.06
3/24/2024 2:00:00 AM 2.94 37.292 0.079 7.25 8.92 13.08
3/24/2024 2:15:00 AM 2.88 37.184 0.079 7.24 8.91 13.1
3/24/2024 2:30:00 AM 2.82 37.076 0.079 7.26 9.04 13.13
3/24/2024 2:45:00 AM 2.76 36.968 0.079 7.25 8.87 13.15
3/24/2024 3:00:00 AM 2.7 36.86 0.08 7.24 8.61 13.18
3/24/2024 3:15:00 AM 2.64 36.752 0.08 7.25 8.43 13.2
3/24/2024 3:30:00 AM 2.59 36.662 0.08 7.26 8.03 13.22
3/24/2024 3:45:00 AM 2.54 36.572 0.08 7.24 8.53 13.24
3/24/2024 4:00:00 AM 2.48 36.464 0.08 7.24 7.89 13.26
3/24/2024 4:15:00 AM 2.43 36.374 0.08 7.26 7.52 13.28
3/24/2024 4:30:00 AM 2.37 36.266 0.08 7.25 7.29 13.31
3/24/2024 4:45:00 AM 2.32 36.176 0.08 7.23 7.28 13.33
3/24/2024 5:00:00 AM 2.26 36.068 0.08 7.26 7.4 13.35
3/24/2024 5:15:00 AM 2.21 35.978 0.08 7.26 7.33 13.37
3/24/2024 5:30:00 AM 2.16 35.888 0.08 7.25 6.79 13.39
3/24/2024 5:45:00 AM 2.1 35.78 0.081 7.25 7.49 13.42
3/24/2024 6:00:00 AM 2.05 35.69 0.081 7.24 7.15 13.45
3/24/2024 6:15:00 AM 2 35.6 0.081 7.24 6.6 13.47
3/24/2024 6:30:00 AM 1.95 35.51 0.081 7.26 6.7 13.49
3/24/2024 6:45:00 AM 1.9 35.42 0.081 7.25 6.63 13.51
3/24/2024 7:00:00 AM 1.86 35.348 0.081 7.24 6.49 13.54
3/24/2024 7:15:00 AM 1.81 35.258 0.081 7.26 6.79 13.57
3/24/2024 7:30:00 AM 1.78 35.204 0.081 7.26 6.94 13.6
3/24/2024 7:45:00 AM 1.74 35.132 0.081 7.25 5.98 13.64
3/24/2024 8:00:00 AM 1.72 35.096 0.081 7.27 6.76 13.67
3/24/2024 8:15:00 AM 1.71 35.078 0.081 7.28 6.49 13.72
3/24/2024 8:30:00 AM 1.73 35.114 0.081 7.28 7.09 13.76
3/24/2024 8:45:00 AM 1.76 35.168 0.081 7.29 6.58 13.8
3/24/2024 9:00:00 AM 1.79 35.222 0.081 7.3 6.42 13.84
3/24/2024 9:15:00 AM 1.83 35.294 0.081 7.3 6.48 13.87
3/24/2024 9:30:00 AM 1.87 35.366 0.081 7.31 6.2 13.89
3/24/2024 9:45:00 AM 1.92 35.456 0.081 7.3 6.05 13.91
3/24/2024 10:00:00 AM 1.96 35.528 0.081 7.32 6.2 13.93
3/24/2024 10:15:00 AM 2.09 35.762 0.081 7.32 5.77 13.94
3/24/2024 10:30:00 AM 2.19 35.942 0.081 7.32 5.61 13.95
3/24/2024 10:45:00 AM 2.34 36.212 0.081 7.34 5.83 13.94
3/24/2024 11:00:00 AM 2.44 36.392 0.081 7.34 5.65 13.94
3/24/2024 11:15:00 AM 2.61 36.698 0.081 7.34 5.67 13.93
3/24/2024 11:30:00 AM 2.74 36.932 0.081 7.37 5.57 13.92
3/24/2024 11:45:00 AM 2.96 37.328 0.081 7.37 5.4 13.89
3/24/2024 12:00:00 PM 3.17 37.706 0.081 7.37 5.19 13.85
3/24/2024 12:15:00 PM 3.4 38.12 0.081 7.37 5.33 13.81
3/24/2024 12:30:00 PM 3.7 38.66 0.081 7.38 5.23 13.75
3/24/2024 12:45:00 PM 3.98 39.164 0.081 7.39 5.11 13.69
3/24/2024 1:00:00 PM 4.23 39.614 0.081 7.39 4.92 13.63
3/24/2024 1:15:00 PM 4.49 40.082 0.081 7.39 4.87 13.58
3/24/2024 1:30:00 PM 4.77 40.586 0.081 7.4 4.94 13.5
3/24/2024 1:45:00 PM 5.03 41.054 0.081 7.41 4.76 13.43
3/24/2024 2:00:00 PM 5.24 41.432 0.081 7.4 4.9 13.36
3/24/2024 2:15:00 PM 5.47 41.846 0.081 7.41 4.78 13.28
3/24/2024 2:30:00 PM 5.66 42.188 0.081 7.41 4.64 13.2
3/24/2024 2:45:00 PM 5.82 42.476 0.081 7.41 4.57 13.15
3/24/2024 3:00:00 PM 6.03 42.854 0.081 7.41 4.58 13.07
3/24/2024 3:15:00 PM 6.11 42.998 0.081 7.41 4.65 13
3/24/2024 3:30:00 PM 6.26 43.268 0.081 7.41 4.57 12.93
3/24/2024 3:45:00 PM 6.36 43.448 0.081 7.42 4.44 12.88
3/24/2024 4:00:00 PM 6.44 43.592 0.081 7.42 4.55 12.81
3/24/2024 4:15:00 PM 6.52 43.736 0.081 7.41 4.68 12.76
3/24/2024 4:30:00 PM 6.57 43.826 0.08 7.42 4.48 12.69
3/24/2024 4:45:00 PM 6.64 43.952 0.08 7.42 4.38 12.64
3/24/2024 5:00:00 PM 6.67 44.006 0.081 7.41 4.28 12.59
3/24/2024 5:15:00 PM 6.69 44.042 0.08 7.41 4.38 12.54
3/24/2024 5:30:00 PM 6.7 44.06 0.081 7.41 4.35 12.49
3/24/2024 5:45:00 PM 6.71 44.078 0.081 7.4 4.32 12.44
3/24/2024 6:00:00 PM 6.71 44.078 0.081 7.4 4.24 12.39
3/24/2024 6:15:00 PM 6.71 44.078 0.081 7.39 4.49 12.35
3/24/2024 6:30:00 PM 6.7 44.06 0.081 7.38 4.48 12.31
3/24/2024 6:45:00 PM 6.68 44.024 0.081 7.37 4.4 12.27
3/24/2024 7:00:00 PM 6.64 43.952 0.081 7.38 4.4 12.25
3/24/2024 7:15:00 PM 6.59 43.862 0.081 7.36 4.33 12.23
3/24/2024 7:30:00 PM 6.52 43.736 0.081 7.35 4.34 12.21
3/24/2024 7:45:00 PM 6.44 43.592 0.081 7.33 4.41 12.2
3/24/2024 8:00:00 PM 6.35 43.43 0.081 7.31 4.27 12.18
3/24/2024 8:15:00 PM 6.26 43.268 0.081 7.32 4.33 12.18
3/24/2024 8:30:00 PM 6.16 43.088 0.081 7.31 4.31 12.19
3/24/2024 8:45:00 PM 6.06 42.908 0.081 7.29 4.59 12.2
3/24/2024 9:00:00 PM 5.95 42.71 0.081 7.29 4.43 12.21
3/24/2024 9:15:00 PM 5.84 42.512 0.081 7.29 4.46 12.23
3/24/2024 9:30:00 PM 5.73 42.314 0.081 7.27 4.55 12.25
3/24/2024 9:45:00 PM 5.62 42.116 0.081 7.27 4.46 12.27
3/24/2024 10:00:00 PM 5.51 41.918 0.081 7.28 4.42 12.3
3/24/2024 10:15:00 PM 5.39 41.702 0.082 7.27 4.55 12.33
3/24/2024 10:30:00 PM 5.28 41.504 0.082 7.26 4.38 12.37
3/24/2024 10:45:00 PM 5.17 41.306 0.082 7.25 4.41 12.4
3/24/2024 11:00:00 PM 5.05 41.09 0.082 7.26 4.68 12.43
3/24/2024 11:15:00 PM 4.95 40.91 0.082 7.26 4.41 12.47
3/24/2024 11:30:00 PM 4.84 40.712 0.082 7.26 4.48 12.5
3/24/2024 11:45:00 PM 4.73 40.514 0.082 7.24 4.52 12.54
3/25/2024 12:00:00 AM 4.63 40.334 0.082 7.23 4.39 12.57
3/25/2024 12:15:00 AM 4.53 40.154 0.082 7.26 4.37 12.6
3/25/2024 12:30:00 AM 4.44 39.992 0.082 7.24 4.32 12.63
3/25/2024 12:45:00 AM 4.35 39.83 0.082 7.23 4.57 12.67
3/25/2024 1:00:00 AM 4.26 39.668 0.083 7.26 4.52 12.69
3/25/2024 1:15:00 AM 4.18 39.524 0.083 7.24 4.41 12.73
3/25/2024 1:30:00 AM 4.1 39.38 0.083 7.23 4.63 12.76
3/25/2024 1:45:00 AM 4.02 39.236 0.083 7.26 4.52 12.78
3/25/2024 2:00:00 AM 3.95 39.11 0.083 7.26 4.42 12.81
3/25/2024 2:15:00 AM 3.87 38.966 0.083 7.24 4.51 12.84
3/25/2024 2:30:00 AM 3.79 38.822 0.083 7.23 4.54 12.87
3/25/2024 2:45:00 AM 3.72 38.696 0.083 7.25 4.35 12.9
3/25/2024 3:00:00 AM 3.65 38.57 0.083 7.23 4.61 12.92
3/25/2024 3:15:00 AM 3.58 38.444 0.083 7.25 4.42 12.95
3/25/2024 3:30:00 AM 3.51 38.318 0.083 7.25 4.67 12.98
3/25/2024 3:45:00 AM 3.44 38.192 0.083 7.23 4.58 13
3/25/2024 4:00:00 AM 3.37 38.066 0.083 7.23 4.55 13.03
3/25/2024 4:15:00 AM 3.31 37.958 0.083 7.25 4.37 13.06
3/25/2024 4:30:00 AM 3.24 37.832 0.083 7.23 4.39 13.08
3/25/2024 4:45:00 AM 3.18 37.724 0.083 7.24 4.44 13.1
3/25/2024 5:00:00 AM 3.12 37.616 0.083 7.24 4.31 13.13
3/25/2024 5:15:00 AM 3.07 37.526 0.083 7.25 4.43 13.15
3/25/2024 5:30:00 AM 3.01 37.418 0.083 7.24 4.26 13.17
3/25/2024 5:45:00 AM 2.97 37.346 0.083 7.22 4.15 13.19
3/25/2024 6:00:00 AM 2.93 37.274 0.083 7.24 4.13 13.21
3/25/2024 6:15:00 AM 2.89 37.202 0.083 7.24 4.14 13.22
3/25/2024 6:30:00 AM 2.86 37.148 0.083 7.25 4.39 13.24
3/25/2024 6:45:00 AM 2.83 37.094 0.083 7.25 4.33 13.25
3/25/2024 7:00:00 AM 2.79 37.022 0.083 7.23 4.31 13.27
3/25/2024 7:15:00 AM 2.76 36.968 0.083 7.23 4.33 13.3
3/25/2024 7:30:00 AM 2.73 36.914 0.083 7.26 4.06 13.33
3/25/2024 7:45:00 AM 2.71 36.878 0.083 7.25 4.3 13.37
3/25/2024 8:00:00 AM 2.69 36.842 0.083 7.24 5.06 13.41
3/25/2024 8:15:00 AM 2.69 36.842 0.083 7.27 4.12 13.45
3/25/2024 8:30:00 AM 2.69 36.842 0.083 7.26 4.03 13.49
3/25/2024 8:45:00 AM 2.72 36.896 0.083 7.29 3.88 13.52
3/25/2024 9:00:00 AM 2.76 36.968 0.083 7.3 3.89 13.55
3/25/2024 9:15:00 AM 2.82 37.076 0.082 7.3 3.91 13.58
3/25/2024 9:30:00 AM 2.88 37.184 0.082 7.3 3.77 13.61
3/25/2024 9:45:00 AM 2.96 37.328 0.082 7.31 3.83 13.63
3/25/2024 10:00:00 AM 3.07 37.526 0.082 7.31 3.63 13.64
3/25/2024 10:15:00 AM 3.18 37.724 0.082 7.33 3.78 13.65
3/25/2024 10:30:00 AM 3.32 37.976 0.082 7.33 3.67 13.64
3/25/2024 10:45:00 AM 3.47 38.246 0.082 7.33 3.63 13.64
3/25/2024 11:00:00 AM 3.6 38.48 0.082 7.35 3.71 13.63
3/25/2024 11:15:00 AM 3.81 38.858 0.082 7.35 4.04 13.6
3/25/2024 11:30:00 AM 3.95 39.11 0.082 7.36 3.81 13.59
3/25/2024 11:45:00 AM 4.16 39.488 0.082 7.36 3.75 13.55
3/25/2024 12:00:00 PM 4.39 39.902 0.082 7.36 3.88 13.52
3/25/2024 12:15:00 PM 4.62 40.316 0.082 7.37 3.55 13.48
3/25/2024 12:30:00 PM 4.9 40.82 0.081 7.38 3.56 13.41
3/25/2024 12:45:00 PM 5.16 41.288 0.081 7.38 3.81 13.36
3/25/2024 1:00:00 PM 5.43 41.774 0.081 7.38 3.43 13.3
3/25/2024 1:15:00 PM 5.72 42.296 0.081 7.39 3.23 13.23
3/25/2024 1:30:00 PM 5.95 42.71 0.081 7.4 3.42 13.17
3/25/2024 1:45:00 PM 6.24 43.232 0.081 7.4 3.32 13.08
3/25/2024 2:00:00 PM 6.48 43.664 0.081 7.4 3.31 13.02
3/25/2024 2:15:00 PM 6.71 44.078 0.081 7.4 3.41 12.93
3/25/2024 2:30:00 PM 6.89 44.402 0.081 7.41 3.39 12.87
3/25/2024 2:45:00 PM 7.09 44.762 0.081 7.42 3.48 12.79
3/25/2024 3:00:00 PM 7.29 45.122 0.081 7.43 3.36 12.72
3/25/2024 3:15:00 PM 7.43 45.374 0.081 7.42 3.42 12.65
3/25/2024 3:30:00 PM 7.58 45.644 0.081 7.42 3.36 12.58
3/25/2024 3:45:00 PM 7.68 45.824 0.08 7.43 3.62 12.52
3/25/2024 4:00:00 PM 7.79 46.022 0.08 7.42 3.48 12.45
3/25/2024 4:15:00 PM 7.87 46.166 0.08 7.42 3.44 12.4
3/25/2024 4:30:00 PM 7.96 46.328 0.08 7.43 3.34 12.33
3/25/2024 4:45:00 PM 8.05 46.49 0.08 7.43 3.35 12.26
3/25/2024 5:00:00 PM 8.11 46.598 0.08 7.42 3.58 12.2
3/25/2024 5:15:00 PM 8.14 46.652 0.08 7.43 3.5 12.14
3/25/2024 5:30:00 PM 8.18 46.724 0.08 7.42 3.52 12.08
3/25/2024 5:45:00 PM 8.21 46.778 0.08 7.41 3.38 12.02
3/25/2024 6:00:00 PM 8.22 46.796 0.08 7.4 3.46 11.97
3/25/2024 6:15:00 PM 8.24 46.832 0.08 7.39 3.49 11.91
3/25/2024 6:30:00 PM 8.25 46.85 0.08 7.39 3.54 11.86
3/25/2024 6:45:00 PM 8.25 46.85 0.08 7.38 3.66 11.82
3/25/2024 7:00:00 PM 8.23 46.814 0.08 7.36 3.49 11.78
3/25/2024 7:15:00 PM 8.2 46.76 0.08 7.35 3.41 11.75
3/25/2024 7:30:00 PM 8.15 46.67 0.08 7.35 3.5 11.72
3/25/2024 7:45:00 PM 8.08 46.544 0.08 7.33 3.48 11.68
3/25/2024 8:00:00 PM 8.01 46.418 0.08 7.31 3.56 11.67
3/25/2024 8:15:00 PM 7.93 46.274 0.08 7.3 3.66 11.66
3/25/2024 8:30:00 PM 7.85 46.13 0.08 7.3 3.61 11.65
3/25/2024 8:45:00 PM 7.77 45.986 0.08 7.3 3.86 11.65
3/25/2024 9:00:00 PM 7.68 45.824 0.08 7.27 3.79 11.65
3/25/2024 9:15:00 PM 7.59 45.662 0.081 7.27 3.75 11.66
3/25/2024 9:30:00 PM 7.49 45.482 0.081 7.25 3.62 11.67
3/25/2024 9:45:00 PM 7.39 45.302 0.081 7.26 3.74 11.69
3/25/2024 10:00:00 PM 7.28 45.104 0.081 7.24 3.87 11.71
3/25/2024 10:15:00 PM 7.17 44.906 0.081 7.24 3.92 11.73
3/25/2024 10:30:00 PM 7.07 44.726 0.081 7.23 3.8 11.76
3/25/2024 10:45:00 PM 6.95 44.51 0.081 7.23 3.85 11.78
3/25/2024 11:00:00 PM 6.84 44.312 0.081 7.24 3.71 11.81
3/25/2024 11:15:00 PM 6.73 44.114 0.082 7.24 3.96 11.84
3/25/2024 11:30:00 PM 6.62 43.916 0.082 7.22 4.06 11.87
3/25/2024 11:45:00 PM 6.51 43.718 0.082 7.22 3.94 11.9
3/26/2024 12:00:00 AM 6.4 43.52 0.082 7.24 3.92 11.92
3/26/2024 12:15:00 AM 6.3 43.34 0.082 7.24 3.95 11.96
3/26/2024 12:30:00 AM 6.2 43.16 0.082 7.24 3.87 11.99
3/26/2024 12:45:00 AM 6.1 42.98 0.082 7.23 3.88 12.02
3/26/2024 1:00:00 AM 6 42.8 0.082 7.22 3.97 12.05
3/26/2024 1:15:00 AM 5.91 42.638 0.082 7.23 4.08 12.08
3/26/2024 1:30:00 AM 5.81 42.458 0.082 7.24 3.99 12.11
3/26/2024 1:45:00 AM 5.73 42.314 0.082 7.22 4.05 12.14
3/26/2024 2:00:00 AM 5.64 42.152 0.082 7.21 3.91 12.17
3/26/2024 2:15:00 AM 5.56 42.008 0.082 7.23 3.86 12.19
3/26/2024 2:30:00 AM 5.47 41.846 0.082 7.23 4.33 12.23
3/26/2024 2:45:00 AM 5.39 41.702 0.082 7.22 4.11 12.25
3/26/2024 3:00:00 AM 5.3 41.54 0.082 7.22 4 12.28
3/26/2024 3:15:00 AM 5.22 41.396 0.082 7.22 4.01 12.31
3/26/2024 3:30:00 AM 5.14 41.252 0.082 7.24 3.75 12.34
3/26/2024 3:45:00 AM 5.06 41.108 0.082 7.22 4.06 12.37
3/26/2024 4:00:00 AM 4.98 40.964 0.082 7.22 4.16 12.39
3/26/2024 4:15:00 AM 4.91 40.838 0.082 7.22 3.96 12.42
3/26/2024 4:30:00 AM 4.83 40.694 0.082 7.24 4.16 12.44
3/26/2024 4:45:00 AM 4.76 40.568 0.082 7.24 3.81 12.47
3/26/2024 5:00:00 AM 4.69 40.442 0.082 7.23 3.9 12.49
3/26/2024 5:15:00 AM 4.63 40.334 0.082 7.22 4.04 12.52
3/26/2024 5:30:00 AM 4.56 40.208 0.082 7.21 4.11 12.54
3/26/2024 5:45:00 AM 4.5 40.1 0.082 7.23 3.93 12.56
3/26/2024 6:00:00 AM 4.45 40.01 0.082 7.21 4.09 12.58
3/26/2024 6:15:00 AM 4.39 39.902 0.082 7.23 4.12 12.6
3/26/2024 6:30:00 AM 4.34 39.812 0.082 7.23 4.14 12.62
3/26/2024 6:45:00 AM 4.29 39.722 0.083 7.23 4.08 12.64
3/26/2024 7:00:00 AM 4.24 39.632 0.083 7.21 4.02 12.66
3/26/2024 7:15:00 AM 4.2 39.56 0.083 7.22 3.94 12.69
3/26/2024 7:30:00 AM 4.16 39.488 0.083 7.22 3.79 12.72
3/26/2024 7:45:00 AM 4.14 39.452 0.083 7.24 4.04 12.77
3/26/2024 8:00:00 AM 4.12 39.416 0.082 7.25 3.85 12.82
3/26/2024 8:15:00 AM 4.11 39.398 0.082 7.25 3.83 12.87
3/26/2024 8:30:00 AM 4.13 39.434 0.082 7.25 3.99 12.91
3/26/2024 8:45:00 AM 4.14 39.452 0.082 7.27 3.85 12.97
3/26/2024 9:00:00 AM 4.17 39.506 0.082 7.27 3.62 13.01
3/26/2024 9:15:00 AM 4.21 39.578 0.082 7.3 3.8 13.04
3/26/2024 9:30:00 AM 4.26 39.668 0.082 7.3 3.68 13.07
3/26/2024 9:45:00 AM 4.31 39.758 0.082 7.31 3.64 13.1
3/26/2024 10:00:00 AM 4.38 39.884 0.082 7.32 3.79 13.12
3/26/2024 10:15:00 AM 4.47 40.046 0.081 7.35 3.35 13.14
3/26/2024 10:30:00 AM 4.57 40.226 0.081 7.34 3.54 13.15
3/26/2024 10:45:00 AM 4.65 40.37 0.081 7.35 3.52 13.15
3/26/2024 11:00:00 AM 4.73 40.514 0.081 7.37 3.48 13.15
3/26/2024 11:15:00 AM 4.81 40.658 0.081 7.39 3.46 13.14
3/26/2024 11:30:00 AM 4.91 40.838 0.081 7.39 3.68 13.13
3/26/2024 11:45:00 AM 5.05 41.09 0.081 7.4 3.6 13.12
3/26/2024 12:00:00 PM 5.17 41.306 0.081 7.41 3.46 13.1
3/26/2024 12:15:00 PM 5.29 41.522 0.081 7.41 3.48 13.08
3/26/2024 12:30:00 PM 5.44 41.792 0.081 7.42 3.51 13.06
3/26/2024 12:45:00 PM 5.57 42.026 0.081 7.43 3.42 13.03
3/26/2024 1:00:00 PM 5.68 42.224 0.081 7.44 3.28 13
3/26/2024 1:15:00 PM 5.83 42.494 0.08 7.44 3.42 12.97
3/26/2024 1:30:00 PM 6 42.8 0.08 7.44 3.29 12.94
3/26/2024 1:45:00 PM 6.22 43.196 0.08 7.44 3.36 12.9
3/26/2024 2:00:00 PM 6.48 43.664 0.08 7.46 3.34 12.85
3/26/2024 2:15:00 PM 6.64 43.952 0.08 7.45 3.26 12.81
3/26/2024 2:30:00 PM 6.78 44.204 0.08 7.46 3.32 12.77
3/26/2024 2:45:00 PM 6.88 44.384 0.08 7.46 3.32 12.7
3/26/2024 3:00:00 PM 6.94 44.492 0.08 7.46 3.1 12.65
3/26/2024 3:15:00 PM 7.01 44.618 0.08 7.46 3.3 12.59
3/26/2024 3:30:00 PM 7.11 44.798 0.08 7.46 3.28 12.55
3/26/2024 3:45:00 PM 7.18 44.924 0.08 7.47 3.01 12.5
3/26/2024 4:00:00 PM 7.25 45.05 0.08 7.47 3.21 12.45
3/26/2024 4:15:00 PM 7.3 45.14 0.079 7.47 3.24 12.41
3/26/2024 4:30:00 PM 7.34 45.212 0.079 7.47 3.29 12.37
3/26/2024 4:45:00 PM 7.4 45.32 0.079 7.46 3.35 12.33
3/26/2024 5:00:00 PM 7.45 45.41 0.079 7.46 3.25 12.29
3/26/2024 5:15:00 PM 7.49 45.482 0.079 7.45 3.33 12.26
3/26/2024 5:30:00 PM 7.52 45.536 0.079 7.47 3.07 12.22
3/26/2024 5:45:00 PM 7.55 45.59 0.079 7.44 3.15 12.18
3/26/2024 6:00:00 PM 7.57 45.626 0.079 7.44 3.2 12.14
3/26/2024 6:15:00 PM 7.59 45.662 0.079 7.44 3.39 12.1
3/26/2024 6:30:00 PM 7.6 45.68 0.079 7.43 3.26 12.05
3/26/2024 6:45:00 PM 7.62 45.716 0.079 7.41 3.3 12.02
3/26/2024 7:00:00 PM 7.63 45.734 0.079 7.41 3.35 11.97
3/26/2024 7:15:00 PM 7.63 45.734 0.079 7.39 3.57 11.92
3/26/2024 7:30:00 PM 7.64 45.752 0.079 7.38 3.38 11.86
3/26/2024 7:45:00 PM 7.65 45.77 0.079 7.35 3.45 11.81
3/26/2024 8:00:00 PM 7.65 45.77 0.08 7.35 3.28 11.77
3/26/2024 8:15:00 PM 7.64 45.752 0.08 7.34 3.48 11.73
3/26/2024 8:30:00 PM 7.63 45.734 0.08 7.32 3.49 11.7
3/26/2024 8:45:00 PM 7.62 45.716 0.08 7.32 3.47 11.67
3/26/2024 9:00:00 PM 7.61 45.698 0.08 7.3 3.42 11.65
3/26/2024 9:15:00 PM 7.6 45.68 0.08 7.28 3.57 11.63
3/26/2024 9:30:00 PM 7.58 45.644 0.08 7.28 3.57 11.61
3/26/2024 9:45:00 PM 7.57 45.626 0.08 7.27 3.5 11.6
3/26/2024 10:00:00 PM 7.55 45.59 0.08 7.27 3.7 11.6
3/26/2024 10:15:00 PM 7.52 45.536 0.08 7.26 3.76 11.58
3/26/2024 10:30:00 PM 7.49 45.482 0.08 7.25 3.99 11.59
3/26/2024 10:45:00 PM 7.46 45.428 0.08 7.26 3.72 11.58
3/26/2024 11:00:00 PM 7.43 45.374 0.081 7.26 3.58 11.58
3/26/2024 11:15:00 PM 7.39 45.302 0.081 7.25 3.66 11.59
3/26/2024 11:30:00 PM 7.36 45.248 0.081 7.24 3.68 11.59
3/26/2024 11:45:00 PM 7.33 45.194 0.081 7.24 3.58 11.59
3/27/2024 12:00:00 AM 7.29 45.122 0.081 7.25 3.65 11.59
3/27/2024 12:15:00 AM 7.27 45.086 0.081 7.25 3.66 11.6
3/27/2024 12:30:00 AM 7.24 45.032 0.081 7.25 3.75 11.61
3/27/2024 12:45:00 AM 7.2 44.96 0.081 7.24 3.65 11.61
3/27/2024 1:00:00 AM 7.18 44.924 0.081 7.24 3.67 11.62
3/27/2024 1:15:00 AM 7.15 44.87 0.081 7.24 3.77 11.63
3/27/2024 1:30:00 AM 7.13 44.834 0.081 7.24 3.67 11.63
3/27/2024 1:45:00 AM 7.12 44.816 0.081 7.25 3.81 11.64
3/27/2024 2:00:00 AM 7.1 44.78 0.081 7.25 3.76 11.65
3/27/2024 2:15:00 AM 7.09 44.762 0.081 7.24 3.6 11.65
3/27/2024 2:30:00 AM 7.07 44.726 0.081 7.23 3.73 11.66
3/27/2024 2:45:00 AM 7.05 44.69 0.081 7.25 3.7 11.67
3/27/2024 3:00:00 AM 7.03 44.654 0.082 7.25 3.67 11.67
3/27/2024 3:15:00 AM 7.01 44.618 0.081 7.25 3.74 11.68
3/27/2024 3:30:00 AM 6.99 44.582 0.081 7.24 3.75 11.68
3/27/2024 3:45:00 AM 6.97 44.546 0.082 7.23 3.54 11.69
3/27/2024 4:00:00 AM 6.95 44.51 0.082 7.23 3.79 11.7
3/27/2024 4:15:00 AM 6.93 44.474 0.082 7.24 3.78 11.71
3/27/2024 4:30:00 AM 6.91 44.438 0.082 7.25 3.71 11.71
3/27/2024 4:45:00 AM 6.89 44.402 0.082 7.25 3.73 11.72
3/27/2024 5:00:00 AM 6.87 44.366 0.082 7.24 3.7 11.73
3/27/2024 5:15:00 AM 6.85 44.33 0.082 7.24 3.67 11.74
3/27/2024 5:30:00 AM 6.83 44.294 0.082 7.24 3.72 11.74
3/27/2024 5:45:00 AM 6.81 44.258 0.082 7.25 3.67 11.75
3/27/2024 6:00:00 AM 6.8 44.24 0.082 7.24 3.84 11.76
3/27/2024 6:15:00 AM 6.78 44.204 0.082 7.23 3.76 11.76
3/27/2024 6:30:00 AM 6.76 44.168 0.082 7.25 3.71 11.77
3/27/2024 6:45:00 AM 6.74 44.132 0.082 7.24 3.82 11.78
3/27/2024 7:00:00 AM 6.73 44.114 0.082 7.23 3.73 11.79
3/27/2024 7:15:00 AM 6.71 44.078 0.082 7.25 3.66 11.8
3/27/2024 7:30:00 AM 6.7 44.06 0.082 7.25 3.72 11.81
3/27/2024 7:45:00 AM 6.69 44.042 0.082 7.25 3.7 11.83
3/27/2024 8:00:00 AM 6.68 44.024 0.082 7.24 3.7 11.85
3/27/2024 8:15:00 AM 6.67 44.006 0.082 7.24 3.81 11.86
3/27/2024 8:30:00 AM 6.67 44.006 0.082 7.27 3.46 11.88
3/27/2024 8:45:00 AM 6.67 44.006 0.082 7.25 3.62 11.91
3/27/2024 9:00:00 AM 6.67 44.006 0.081 7.28 3.62 11.95
3/27/2024 9:15:00 AM 6.68 44.024 0.081 7.28 3.48 11.97
3/27/2024 9:30:00 AM 6.69 44.042 0.081 7.28 3.43 12
3/27/2024 9:45:00 AM 6.71 44.078 0.081 7.31 3.38 12.05
3/27/2024 10:00:00 AM 6.72 44.096 0.081 7.31 3.58 12.08
3/27/2024 10:15:00 AM 6.74 44.132 0.081 7.33 3.44 12.11
3/27/2024 10:30:00 AM 6.77 44.186 0.081 7.33 3.36 12.14
3/27/2024 10:45:00 AM 6.81 44.258 0.081 7.34 3.41 12.17
3/27/2024 11:00:00 AM 6.86 44.348 0.081 7.36 3.6 12.2
3/27/2024 11:15:00 AM 6.87 44.366 0.081 7.37 3.36 12.21
3/27/2024 11:30:00 AM 6.88 44.384 0.081 7.37 3.57 12.21
3/27/2024 11:45:00 AM 6.91 44.438 0.081 7.38 3.55 12.22
3/27/2024 12:00:00 PM 6.93 44.474 0.081 7.38 3.42 12.21
3/27/2024 12:15:00 PM 6.96 44.528 0.08 7.38 3.47 12.23
3/27/2024 12:30:00 PM 7.02 44.636 0.081 7.4 3.31 12.24
3/27/2024 12:45:00 PM 7.06 44.708 0.08 7.41 3.5 12.26
3/27/2024 1:00:00 PM 7.08 44.744 0.08 7.41 3.32 12.25
3/27/2024 1:15:00 PM 7.1 44.78 0.08 7.42 3.29 12.25
3/27/2024 1:30:00 PM 7.17 44.906 0.08 7.43 3.42 12.26
3/27/2024 1:45:00 PM 7.22 44.996 0.08 7.43 3.43 12.25
3/27/2024 2:00:00 PM 7.26 45.068 0.08 7.43 3.38 12.26
3/27/2024 2:15:00 PM 7.33 45.194 0.08 7.43 3.26 12.26
3/27/2024 2:30:00 PM 7.36 45.248 0.08 7.45 3.31 12.26
3/27/2024 2:45:00 PM 7.4 45.32 0.08 7.45 3.21 12.25
3/27/2024 3:00:00 PM 7.45 45.41 0.08 7.45 3.28 12.24
3/27/2024 3:15:00 PM 7.5 45.5 0.08 7.45 3.35 12.22
3/27/2024 3:30:00 PM 7.52 45.536 0.08 7.46 3.25 12.2
3/27/2024 3:45:00 PM 7.54 45.572 0.08 7.45 3.25 12.18
3/27/2024 4:00:00 PM 7.55 45.59 0.08 7.45 3.46 12.16
3/27/2024 4:15:00 PM 7.56 45.608 0.08 7.45 3.36 12.14
3/27/2024 4:30:00 PM 7.6 45.68 0.08 7.45 3.34 12.14
3/27/2024 4:45:00 PM 7.62 45.716 0.08 7.46 3.37 12.12
3/27/2024 5:00:00 PM 7.64 45.752 0.08 7.45 3.5 12.11
3/27/2024 5:15:00 PM 7.68 45.824 0.08 7.45 3.39 12.11
3/27/2024 5:30:00 PM 7.71 45.878 0.079 7.45 3.36 12.1
3/27/2024 5:45:00 PM 7.74 45.932 0.079 7.45 3.26 12.09
3/27/2024 6:00:00 PM 7.74 45.932 0.079 7.46 3.37 12.06
3/27/2024 6:15:00 PM 7.74 45.932 0.079 7.45 3.48 12.02
3/27/2024 6:30:00 PM 7.74 45.932 0.079 7.43 3.66 11.98
3/27/2024 6:45:00 PM 7.74 45.932 0.079 7.41 3.5 11.95
3/27/2024 7:00:00 PM 7.73 45.914 0.08 7.41 3.33 11.9
3/27/2024 7:15:00 PM 7.72 45.896 0.08 7.39 3.22 11.85
3/27/2024 7:30:00 PM 7.71 45.878 0.08 7.37 3.24 11.81
3/27/2024 7:45:00 PM 7.7 45.86 0.08 7.35 3.47 11.77
3/27/2024 8:00:00 PM 7.69 45.842 0.08 7.35 3.34 11.73
3/27/2024 8:15:00 PM 7.68 45.824 0.08 7.34 3.4 11.7
3/27/2024 8:30:00 PM 7.67 45.806 0.08 7.32 3.5 11.67
3/27/2024 8:45:00 PM 7.66 45.788 0.08 7.31 3.41 11.65
3/27/2024 9:00:00 PM 7.65 45.77 0.08 7.3 3.62 11.63
3/27/2024 9:15:00 PM 7.63 45.734 0.08 7.29 3.59 11.61
3/27/2024 9:30:00 PM 7.62 45.716 0.08 7.28 3.76 11.6
3/27/2024 9:45:00 PM 7.6 45.68 0.08 7.28 3.62 11.59
3/27/2024 10:00:00 PM 7.58 45.644 0.08 7.28 3.58 11.59
3/27/2024 10:15:00 PM 7.57 45.626 0.08 7.28 3.43 11.58
3/27/2024 10:30:00 PM 7.55 45.59 0.081 7.27 3.48 11.58
3/27/2024 10:45:00 PM 7.53 45.554 0.081 7.26 3.42 11.57
3/27/2024 11:00:00 PM 7.52 45.536 0.081 7.27 3.59 11.58
3/27/2024 11:15:00 PM 7.5 45.5 0.081 7.26 3.54 11.58
3/27/2024 11:30:00 PM 7.49 45.482 0.081 7.26 3.65 11.58
3/27/2024 11:45:00 PM 7.47 45.446 0.081 7.26 3.59 11.58
3/28/2024 12:00:00 AM 7.46 45.428 0.081 7.26 3.71 11.58
3/28/2024 12:15:00 AM 7.45 45.41 0.081 7.25 3.58 11.58
3/28/2024 12:30:00 AM 7.44 45.392 0.081 7.25 3.5 11.58
3/28/2024 12:45:00 AM 7.43 45.374 0.081 7.25 3.65 11.58
3/28/2024 1:00:00 AM 7.42 45.356 0.081 7.25 3.57 11.58
3/28/2024 1:15:00 AM 7.41 45.338 0.081 7.24 3.72 11.58
3/28/2024 1:30:00 AM 7.39 45.302 0.081 7.25 3.63 11.59
3/28/2024 1:45:00 AM 7.38 45.284 0.081 7.25 3.6 11.59
3/28/2024 2:00:00 AM 7.37 45.266 0.081 7.25 3.68 11.59
3/28/2024 2:15:00 AM 7.36 45.248 0.082 7.25 3.73 11.59
3/28/2024 2:30:00 AM 7.35 45.23 0.082 7.25 3.64 11.6
3/28/2024 2:45:00 AM 7.34 45.212 0.082 7.24 3.49 11.6
3/28/2024 3:00:00 AM 7.33 45.194 0.082 7.24 3.64 11.6
3/28/2024 3:15:00 AM 7.32 45.176 0.082 7.25 3.67 11.6
3/28/2024 3:30:00 AM 7.31 45.158 0.082 7.25 3.62 11.61
3/28/2024 3:45:00 AM 7.3 45.14 0.082 7.25 3.82 11.61
3/28/2024 4:00:00 AM 7.29 45.122 0.082 7.25 3.69 11.61
3/28/2024 4:15:00 AM 7.28 45.104 0.082 7.25 3.77 11.62
3/28/2024 4:30:00 AM 7.27 45.086 0.082 7.25 3.68 11.62
3/28/2024 4:45:00 AM 7.26 45.068 0.082 7.25 3.61 11.62
3/28/2024 5:00:00 AM 7.25 45.05 0.082 7.25 3.78 11.62
3/28/2024 5:15:00 AM 7.24 45.032 0.082 7.25 3.89 11.62
3/28/2024 5:30:00 AM 7.23 45.014 0.082 7.25 3.75 11.62
3/28/2024 5:45:00 AM 7.21 44.978 0.082 7.25 3.68 11.63
3/28/2024 6:00:00 AM 7.2 44.96 0.082 7.25 3.83 11.63
3/28/2024 6:15:00 AM 7.19 44.942 0.082 7.25 3.77 11.63
3/28/2024 6:30:00 AM 7.17 44.906 0.082 7.25 3.84 11.64
3/28/2024 6:45:00 AM 7.16 44.888 0.082 7.26 3.73 11.64
3/28/2024 7:00:00 AM 7.14 44.852 0.083 7.26 3.69 11.65
3/28/2024 7:15:00 AM 7.12 44.816 0.083 7.25 3.67 11.66
3/28/2024 7:30:00 AM 7.1 44.78 0.083 7.26 3.67 11.66
3/28/2024 7:45:00 AM 7.08 44.744 0.083 7.26 3.59 11.68
3/28/2024 8:00:00 AM 7.07 44.726 0.083 7.26 3.56 11.71
3/28/2024 8:15:00 AM 7.06 44.708 0.082 7.27 3.71 11.74
3/28/2024 8:30:00 AM 7.05 44.69 0.082 7.28 3.79 11.78
3/28/2024 8:45:00 AM 7.05 44.69 0.082 7.29 3.44 11.82
3/28/2024 9:00:00 AM 7.08 44.744 0.082 7.3 3.66 11.88
3/28/2024 9:15:00 AM 7.11 44.798 0.082 7.32 3.55 11.94
3/28/2024 9:30:00 AM 7.13 44.834 0.082 7.33 3.52 11.99
3/28/2024 9:45:00 AM 7.2 44.96 0.082 7.35 3.43 12.04
3/28/2024 10:00:00 AM 7.22 44.996 0.082 7.36 3.28 12.06
3/28/2024 10:15:00 AM 7.22 44.996 0.082 7.36 3.31 12.07
3/28/2024 10:30:00 AM 7.22 44.996 0.082 7.37 3.45 12.08
3/28/2024 10:45:00 AM 7.29 45.122 0.082 7.39 3.14 12.12
3/28/2024 11:00:00 AM 7.34 45.212 0.081 7.4 3.29 12.15
3/28/2024 11:15:00 AM 7.36 45.248 0.081 7.41 3.22 12.17
3/28/2024 11:30:00 AM 7.39 45.302 0.081 7.43 3.25 12.19
3/28/2024 11:45:00 AM 7.55 45.59 0.081 7.44 3.32 12.21
3/28/2024 12:00:00 PM 7.61 45.698 0.081 7.45 3.17 12.21
3/28/2024 12:15:00 PM 7.64 45.752 0.081 7.47 3.29 12.22
3/28/2024 12:30:00 PM 7.69 45.842 0.081 7.48 3.3 12.22
3/28/2024 12:45:00 PM 7.75 45.95 0.081 7.48 3.15 12.21
3/28/2024 1:00:00 PM 7.8 46.04 0.081 7.48 3.26 12.21
3/28/2024 1:15:00 PM 7.89 46.202 0.081 7.51 3.15 12.21
3/28/2024 1:30:00 PM 7.97 46.346 0.081 7.5 3.13 12.21
3/28/2024 1:45:00 PM 8.1 46.58 0.081 7.51 3.18 12.2
3/28/2024 2:00:00 PM 8.18 46.724 0.081 7.52 3.17 12.18
3/28/2024 2:15:00 PM 8.19 46.742 0.081 7.52 3.39 12.17
3/28/2024 2:30:00 PM 8.22 46.796 0.08 7.53 3.13 12.15
3/28/2024 2:45:00 PM 8.26 46.868 0.08 7.54 3.08 12.14
3/28/2024 3:00:00 PM 8.29 46.922 0.08 7.55 3.21 12.11
3/28/2024 3:15:00 PM 8.3 46.94 0.08 7.55 3.19 12.09
3/28/2024 3:30:00 PM 8.33 46.994 0.08 7.55 3.06 12.08
3/28/2024 3:45:00 PM 8.36 47.048 0.08 7.55 3.14 12.07
3/28/2024 4:00:00 PM 8.41 47.138 0.08 7.55 3.51 12.05
3/28/2024 4:15:00 PM 8.44 47.192 0.08 7.56 3.3 12.03
3/28/2024 4:30:00 PM 8.46 47.228 0.08 7.56 3.29 12.02
3/28/2024 4:45:00 PM 8.48 47.264 0.08 7.56 3.19 12.01
3/28/2024 5:00:00 PM 8.59 47.462 0.08 7.56 3.22 11.99
3/28/2024 5:15:00 PM 8.56 47.408 0.08 7.56 3.23 11.96
3/28/2024 5:30:00 PM 8.51 47.318 0.08 7.55 3.26 11.92
3/28/2024 5:45:00 PM 8.49 47.282 0.08 7.54 3.13 11.89
3/28/2024 6:00:00 PM 8.47 47.246 0.08 7.52 3.17 11.86
3/28/2024 6:15:00 PM 8.45 47.21 0.08 7.52 3.19 11.82
3/28/2024 6:30:00 PM 8.45 47.21 0.08 7.5 3.22 11.78
3/28/2024 6:45:00 PM 8.43 47.174 0.08 7.48 3.13 11.73
3/28/2024 7:00:00 PM 8.41 47.138 0.08 7.47 3.23 11.69
3/28/2024 7:15:00 PM 8.37 47.066 0.08 7.46 3.13 11.65
3/28/2024 7:30:00 PM 8.33 46.994 0.08 7.43 3.18 11.61
3/28/2024 7:45:00 PM 8.28 46.904 0.08 7.4 3.1 11.56
3/28/2024 8:00:00 PM 8.23 46.814 0.08 7.39 3.37 11.53
3/28/2024 8:15:00 PM 8.18 46.724 0.08 7.38 3.34 11.5
3/28/2024 8:30:00 PM 8.12 46.616 0.08 7.36 3.34 11.48
3/28/2024 8:45:00 PM 8.05 46.49 0.08 7.35 3.54 11.46
3/28/2024 9:00:00 PM 7.99 46.382 0.08 7.34 3.26 11.45
3/28/2024 9:15:00 PM 7.93 46.274 0.08 7.33 3.45 11.45
3/28/2024 9:30:00 PM 7.87 46.166 0.081 7.33 3.39 11.44
3/28/2024 9:45:00 PM 7.8 46.04 0.081 7.32 3.41 11.44
3/28/2024 10:00:00 PM 7.74 45.932 0.081 7.31 3.43 11.45
3/28/2024 10:15:00 PM 7.68 45.824 0.081 7.31 3.31 11.45
3/28/2024 10:30:00 PM 7.62 45.716 0.081 7.29 3.44 11.46
3/28/2024 10:45:00 PM 7.55 45.59 0.081 7.29 3.45 11.47
3/28/2024 11:00:00 PM 7.48 45.464 0.081 7.29 3.34 11.49
3/28/2024 11:15:00 PM 7.41 45.338 0.081 7.28 3.42 11.5
3/28/2024 11:30:00 PM 7.34 45.212 0.081 7.28 3.37 11.52
3/28/2024 11:45:00 PM 7.27 45.086 0.081 7.28 3.46 11.53
3/29/2024 12:00:00 AM 7.2 44.96 0.082 7.28 3.44 11.54
3/29/2024 12:15:00 AM 7.13 44.834 0.082 7.27 3.55 11.56
3/29/2024 12:30:00 AM 7.06 44.708 0.082 7.28 3.48 11.58
3/29/2024 12:45:00 AM 7 44.6 0.082 7.27 3.62 11.6
3/29/2024 1:00:00 AM 6.94 44.492 0.082 7.26 3.4 11.62
3/29/2024 1:15:00 AM 6.87 44.366 0.082 7.27 3.56 11.64
3/29/2024 1:30:00 AM 6.8 44.24 0.082 7.26 3.47 11.66
3/29/2024 1:45:00 AM 6.74 44.132 0.082 7.25 3.52 11.67
3/29/2024 2:00:00 AM 6.67 44.006 0.082 7.27 3.44 11.7
3/29/2024 2:15:00 AM 6.59 43.862 0.082 7.25 3.46 11.72
3/29/2024 2:30:00 AM 6.51 43.718 0.083 7.25 3.41 11.74
3/29/2024 2:45:00 AM 6.44 43.592 0.083 7.26 3.51 11.76
3/29/2024 3:00:00 AM 6.37 43.466 0.083 7.27 3.29 11.78
3/29/2024 3:15:00 AM 6.3 43.34 0.083 7.26 3.55 11.8
3/29/2024 3:30:00 AM 6.23 43.214 0.083 7.25 3.4 11.82
3/29/2024 3:45:00 AM 6.15 43.07 0.083 7.26 3.53 11.84
3/29/2024 4:00:00 AM 6.08 42.944 0.083 7.26 3.63 11.87
3/29/2024 4:15:00 AM 6 42.8 0.083 7.26 3.35 11.89
3/29/2024 4:30:00 AM 5.92 42.656 0.083 7.27 3.41 11.91
3/29/2024 4:45:00 AM 5.83 42.494 0.083 7.26 3.31 11.93
3/29/2024 5:00:00 AM 5.76 42.368 0.083 7.26 4.13 11.96
3/29/2024 5:15:00 AM 5.67 42.206 0.083 7.27 3.47 11.98
3/29/2024 5:30:00 AM 5.6 42.08 0.083 7.27 3.52 12
3/29/2024 5:45:00 AM 5.52 41.936 0.083 7.26 3.61 12.03
3/29/2024 6:00:00 AM 5.45 41.81 0.083 7.25 3.53 12.05
3/29/2024 6:15:00 AM 5.37 41.666 0.083 7.27 3.32 12.08
3/29/2024 6:30:00 AM 5.3 41.54 0.083 7.27 3.47 12.1
3/29/2024 6:45:00 AM 5.22 41.396 0.083 7.27 3.46 12.13
3/29/2024 7:00:00 AM 5.14 41.252 0.083 7.26 3.3 12.16
3/29/2024 7:15:00 AM 5.07 41.126 0.083 7.26 3.44 12.2
3/29/2024 7:30:00 AM 5.01 41.018 0.083 7.27 3.33 12.25
3/29/2024 7:45:00 AM 4.95 40.91 0.083 7.29 3.42 12.31
3/29/2024 8:00:00 AM 4.9 40.82 0.083 7.29 3.34 12.36
3/29/2024 8:15:00 AM 4.87 40.766 0.083 7.29 3.13 12.42
3/29/2024 8:30:00 AM 4.86 40.748 0.083 7.3 3.24 12.48
3/29/2024 8:45:00 AM 4.87 40.766 0.083 7.3 3.57 12.53
3/29/2024 9:00:00 AM 4.89 40.802 0.083 7.33 3.18 12.58
3/29/2024 9:15:00 AM 4.94 40.892 0.083 7.33 3.35 12.62
3/29/2024 9:30:00 AM 5 41 0.083 7.35 3.24 12.66
3/29/2024 9:45:00 AM 5.08 41.144 0.083 7.35 3.23 12.68
3/29/2024 10:00:00 AM 5.18 41.324 0.083 7.37 3.4 12.71
3/29/2024 10:15:00 AM 5.28 41.504 0.083 7.39 3.1 12.73
3/29/2024 10:30:00 AM 5.39 41.702 0.083 7.39 3.19 12.75
3/29/2024 10:45:00 AM 5.54 41.972 0.082 7.4 3.19 12.75
3/29/2024 11:00:00 AM 5.71 42.278 0.082 7.42 3.2 12.74
3/29/2024 11:15:00 AM 5.87 42.566 0.082 7.42 3.19 12.72
3/29/2024 11:30:00 AM 6.07 42.926 0.082 7.43 3 12.72
3/29/2024 11:45:00 AM 6.27 43.286 0.082 7.44 3.1 12.7
3/29/2024 12:00:00 PM 6.48 43.664 0.082 7.45 3.06 12.66
3/29/2024 12:15:00 PM 6.66 43.988 0.082 7.45 3.16 12.63
3/29/2024 12:30:00 PM 6.92 44.456 0.082 7.46 3.05 12.59
3/29/2024 12:45:00 PM 7.15 44.87 0.082 7.46 3.23 12.54
3/29/2024 1:00:00 PM 7.42 45.356 0.082 7.47 3.13 12.49
3/29/2024 1:15:00 PM 7.66 45.788 0.082 7.48 2.98 12.44
3/29/2024 1:30:00 PM 7.95 46.31 0.081 7.48 3 12.38
3/29/2024 1:45:00 PM 8.19 46.742 0.081 7.48 2.87 12.32
3/29/2024 2:00:00 PM 8.33 46.994 0.081 7.49 2.97 12.25
3/29/2024 2:15:00 PM 8.49 47.282 0.081 7.49 2.94 12.21
3/29/2024 2:30:00 PM 8.49 47.282 0.081 7.5 2.79 12.16
3/29/2024 2:45:00 PM 8.56 47.408 0.081 7.5 2.81 12.12
3/29/2024 3:00:00 PM 8.71 47.678 0.081 7.5 2.78 12.08
3/29/2024 3:15:00 PM 8.89 48.002 0.081 7.51 2.78 12.04
3/29/2024 3:30:00 PM 8.98 48.164 0.081 7.52 2.92 11.98
3/29/2024 3:45:00 PM 9.08 48.344 0.081 7.52 2.66 11.94
3/29/2024 4:00:00 PM 9.13 48.434 0.081 7.52 2.86 11.9
3/29/2024 4:15:00 PM 9.19 48.542 0.081 7.52 3.03 11.85
3/29/2024 4:30:00 PM 9.23 48.614 0.081 7.52 2.89 11.81
3/29/2024 4:45:00 PM 9.27 48.686 0.081 7.52 2.76 11.75
3/29/2024 5:00:00 PM 9.27 48.686 0.081 7.52 2.83 11.69
3/29/2024 5:15:00 PM 9.28 48.704 0.08 7.52 2.88 11.65
3/29/2024 5:30:00 PM 9.22 48.596 0.08 7.51 2.85 11.6
3/29/2024 5:45:00 PM 9.21 48.578 0.08 7.5 2.99 11.55
3/29/2024 6:00:00 PM 9.23 48.614 0.08 7.5 2.99 11.52
3/29/2024 6:15:00 PM 9.25 48.65 0.08 7.49 2.91 11.5
3/29/2024 6:30:00 PM 9.26 48.668 0.08 7.49 3.01 11.46
3/29/2024 6:45:00 PM 9.26 48.668 0.08 7.49 3.23 11.42
3/29/2024 7:00:00 PM 9.24 48.632 0.08 7.47 3.04 11.37
3/29/2024 7:15:00 PM 9.2 48.56 0.08 7.45 2.94 11.32
3/29/2024 7:30:00 PM 9.14 48.452 0.08 7.43 3 11.28
3/29/2024 7:45:00 PM 9.06 48.308 0.081 7.42 3.06 11.24
3/29/2024 8:00:00 PM 8.97 48.146 0.081 7.41 2.9 11.21
3/29/2024 8:15:00 PM 8.88 47.984 0.081 7.4 3.09 11.21
3/29/2024 8:30:00 PM 8.77 47.786 0.081 7.38 3.2 11.2
3/29/2024 8:45:00 PM 8.66 47.588 0.081 7.37 3.47 11.2
3/29/2024 9:00:00 PM 8.54 47.372 0.081 7.35 3.28 11.21
3/29/2024 9:15:00 PM 8.42 47.156 0.081 7.35 3.14 11.21
3/29/2024 9:30:00 PM 8.3 46.94 0.081 7.34 3.21 11.23
3/29/2024 9:45:00 PM 8.2 46.76 0.081 7.33 3.15 11.24
3/29/2024 10:00:00 PM 8.08 46.544 0.081 7.32 3.49 11.26
3/29/2024 10:15:00 PM 7.99 46.382 0.081 7.31 3.52 11.28
3/29/2024 10:30:00 PM 7.88 46.184 0.082 7.32 3.36 11.3
3/29/2024 10:45:00 PM 7.77 45.986 0.082 7.31 3.34 11.32
3/29/2024 11:00:00 PM 7.66 45.788 0.082 7.31 3.41 11.35
3/29/2024 11:15:00 PM 7.56 45.608 0.082 7.31 3.71 11.37
3/29/2024 11:30:00 PM 7.46 45.428 0.082 7.3 3.42 11.4
3/29/2024 11:45:00 PM 7.35 45.23 0.082 7.29 3.43 11.44
3/30/2024 12:00:00 AM 7.24 45.032 0.082 7.29 3.47 11.46
3/30/2024 12:15:00 AM 7.14 44.852 0.082 7.29 3.45 11.5
3/30/2024 12:30:00 AM 7.03 44.654 0.082 7.28 3.29 11.53
3/30/2024 12:45:00 AM 6.93 44.474 0.083 7.28 3.45 11.56
3/30/2024 1:00:00 AM 6.82 44.276 0.083 7.28 3.58 11.6
3/30/2024 1:15:00 AM 6.72 44.096 0.083 7.29 3.47 11.63
3/30/2024 1:30:00 AM 6.62 43.916 0.083 7.28 3.42 11.67
3/30/2024 1:45:00 AM 6.52 43.736 0.083 7.29 3.53 11.69
3/30/2024 2:00:00 AM 6.43 43.574 0.083 7.29 3.67 11.72
3/30/2024 2:15:00 AM 6.34 43.412 0.083 7.28 3.43 11.75
3/30/2024 2:30:00 AM 6.25 43.25 0.083 7.28 3.55 11.79
3/30/2024 2:45:00 AM 6.16 43.088 0.083 7.27 3.64 11.81
3/30/2024 3:00:00 AM 6.07 42.926 0.083 7.27 3.48 11.84
3/30/2024 3:15:00 AM 5.99 42.782 0.084 7.29 3.57 11.87
3/30/2024 3:30:00 AM 5.9 42.62 0.084 7.27 3.34 11.9
3/30/2024 3:45:00 AM 5.82 42.476 0.084 7.27 3.31 11.92
3/30/2024 4:00:00 AM 5.73 42.314 0.084 7.28 3.41 11.95
3/30/2024 4:15:00 AM 5.66 42.188 0.084 7.27 3.46 11.98
3/30/2024 4:30:00 AM 5.57 42.026 0.084 7.27 3.39 12.01
3/30/2024 4:45:00 AM 5.49 41.882 0.084 7.29 3.35 12.03
3/30/2024 5:00:00 AM 5.42 41.756 0.084 7.29 3.25 12.07
3/30/2024 5:15:00 AM 5.34 41.612 0.084 7.27 3.37 12.09
3/30/2024 5:30:00 AM 5.27 41.486 0.084 7.28 3.29 12.11
3/30/2024 5:45:00 AM 5.2 41.36 0.084 7.27 3.29 12.13
3/30/2024 6:00:00 AM 5.12 41.216 0.084 7.27 3.56 12.16
3/30/2024 6:15:00 AM 5.06 41.108 0.084 7.28 3.36 12.18
3/30/2024 6:30:00 AM 4.99 40.982 0.084 7.28 3.41 12.21
3/30/2024 6:45:00 AM 4.91 40.838 0.084 7.27 3.14 12.23
3/30/2024 7:00:00 AM 4.84 40.712 0.084 7.27 3.24 12.26
3/30/2024 7:15:00 AM 4.78 40.604 0.084 7.28 3.45 12.31
3/30/2024 7:30:00 AM 4.73 40.514 0.084 7.29 3.48 12.37
3/30/2024 7:45:00 AM 4.69 40.442 0.084 7.29 3.45 12.42
3/30/2024 8:00:00 AM 4.65 40.37 0.084 7.3 3.31 12.48
3/30/2024 8:15:00 AM 4.65 40.37 0.084 7.32 3.29 12.53
3/30/2024 8:30:00 AM 4.66 40.388 0.084 7.32 3.32 12.59
3/30/2024 8:45:00 AM 4.67 40.406 0.084 7.33 3.19 12.65
3/30/2024 9:00:00 AM 4.69 40.442 0.084 7.36 3.2 12.69
3/30/2024 9:15:00 AM 4.77 40.586 0.084 7.36 3.33 12.73
3/30/2024 9:30:00 AM 4.84 40.712 0.084 7.38 3.16 12.77
3/30/2024 9:45:00 AM 4.92 40.856 0.083 7.39 3.16 12.79
3/30/2024 10:00:00 AM 5.02 41.036 0.083 7.4 3.18 12.83
3/30/2024 10:15:00 AM 5.13 41.234 0.083 7.4 3.21 12.83
3/30/2024 10:30:00 AM 5.23 41.414 0.083 7.42 3.08 12.84
3/30/2024 10:45:00 AM 5.35 41.63 0.083 7.43 3.08 12.84
3/30/2024 11:00:00 AM 5.55 41.99 0.083 7.44 3.12 12.83
3/30/2024 11:15:00 AM 5.68 42.224 0.083 7.44 3 12.85
3/30/2024 11:30:00 AM 5.88 42.584 0.083 7.45 3.03 12.83
3/30/2024 11:45:00 AM 6.03 42.854 0.083 7.46 3.05 12.8
3/30/2024 12:00:00 PM 6.23 43.214 0.083 7.47 2.97 12.78
3/30/2024 12:15:00 PM 6.45 43.61 0.082 7.49 2.97 12.74
3/30/2024 12:30:00 PM 6.63 43.934 0.082 7.49 2.91 12.71
3/30/2024 12:45:00 PM 6.82 44.276 0.082 7.49 3.01 12.67
3/30/2024 1:00:00 PM 7 44.6 0.082 7.5 3 12.63
3/30/2024 1:15:00 PM 7.17 44.906 0.082 7.5 3.36 12.59
3/30/2024 1:30:00 PM 7.36 45.248 0.082 7.51 2.9 12.53
3/30/2024 1:45:00 PM 7.5 45.5 0.082 7.52 2.87 12.49
3/30/2024 2:00:00 PM 7.57 45.626 0.082 7.52 2.83 12.43
3/30/2024 2:15:00 PM 7.61 45.698 0.082 7.53 2.84 12.39
3/30/2024 2:30:00 PM 7.69 45.842 0.082 7.53 2.86 12.35
3/30/2024 2:45:00 PM 7.76 45.968 0.081 7.54 2.79 12.31
3/30/2024 3:00:00 PM 7.84 46.112 0.081 7.54 2.88 12.26
3/30/2024 3:15:00 PM 7.92 46.256 0.081 7.55 2.77 12.23
3/30/2024 3:30:00 PM 7.99 46.382 0.081 7.55 2.65 12.2
3/30/2024 3:45:00 PM 8.08 46.544 0.081 7.55 2.85 12.15
3/30/2024 4:00:00 PM 8.11 46.598 0.081 7.55 2.83 12.08
3/30/2024 4:15:00 PM 8.14 46.652 0.081 7.54 2.69 12.02
3/30/2024 4:30:00 PM 8.16 46.688 0.081 7.52 3.02 11.95
3/30/2024 4:45:00 PM 8.19 46.742 0.081 7.51 3.03 11.91
3/30/2024 5:00:00 PM 8.2 46.76 0.081 7.51 2.88 11.85
3/30/2024 5:15:00 PM 8.21 46.778 0.081 7.49 3.37 11.79
3/30/2024 5:30:00 PM 8.2 46.76 0.081 7.48 3.97 11.74
3/30/2024 5:45:00 PM 8.19 46.742 0.081 7.46 3.37 11.68
3/30/2024 6:00:00 PM 8.17 46.706 0.081 7.45 3.28 11.64
3/30/2024 6:15:00 PM 8.17 46.706 0.081 7.43 3.53 11.59
3/30/2024 6:30:00 PM 8.16 46.688 0.081 7.41 3.13 11.55
3/30/2024 6:45:00 PM 8.15 46.67 0.08 7.4 3.76 11.51
3/30/2024 7:00:00 PM 8.14 46.652 0.081 7.39 3.76 11.49
3/30/2024 7:15:00 PM 8.14 46.652 0.081 7.37 3.24 11.45
3/30/2024 7:30:00 PM 8.13 46.634 0.081 7.37 3.3 11.41
3/30/2024 7:45:00 PM 8.12 46.616 0.081 7.35 3.14 11.38
3/30/2024 8:00:00 PM 8.1 46.58 0.081 7.34 3.3 11.36
3/30/2024 8:15:00 PM 8.09 46.562 0.081 7.33 3.25 11.34
3/30/2024 8:30:00 PM 8.07 46.526 0.081 7.33 3.21 11.32
3/30/2024 8:45:00 PM 8.05 46.49 0.081 7.32 3.26 11.32
3/30/2024 9:00:00 PM 8.02 46.436 0.081 7.32 3.31 11.3
3/30/2024 9:15:00 PM 7.99 46.382 0.081 7.31 3.39 11.3
3/30/2024 9:30:00 PM 7.96 46.328 0.081 7.31 3.38 11.3
3/30/2024 9:45:00 PM 7.93 46.274 0.082 7.3 3.48 11.3
3/30/2024 10:00:00 PM 7.9 46.22 0.082 7.3 3.46 11.31
3/30/2024 10:15:00 PM 7.87 46.166 0.082 7.29 3.33 11.31
3/30/2024 10:30:00 PM 7.83 46.094 0.082 7.29 3.44 11.32
3/30/2024 10:45:00 PM 7.79 46.022 0.082 7.28 3.51 11.32
3/30/2024 11:00:00 PM 7.76 45.968 0.082 7.28 3.44 11.34
3/30/2024 11:15:00 PM 7.72 45.896 0.082 7.28 3.36 11.35
3/30/2024 11:30:00 PM 7.68 45.824 0.083 7.28 3.64 11.36
3/30/2024 11:45:00 PM 7.65 45.77 0.083 7.27 3.64 11.36
3/31/2024 12:00:00 AM 7.62 45.716 0.083 7.27 3.51 11.37
3/31/2024 12:15:00 AM 7.59 45.662 0.083 7.28 3.63 11.38
3/31/2024 12:30:00 AM 7.56 45.608 0.083 7.28 3.61 11.39
3/31/2024 12:45:00 AM 7.53 45.554 0.083 7.28 3.69 11.4
3/31/2024 1:00:00 AM 7.5 45.5 0.083 7.27 3.7 11.41
3/31/2024 1:15:00 AM 7.48 45.464 0.083 7.27 3.83 11.41
3/31/2024 1:30:00 AM 7.46 45.428 0.083 7.27 3.55 11.42
3/31/2024 1:45:00 AM 7.43 45.374 0.083 7.28 3.91 11.43
3/31/2024 2:00:00 AM 7.42 45.356 0.083 7.28 3.73 11.44
3/31/2024 2:15:00 AM 7.39 45.302 0.083 7.27 3.56 11.45
3/31/2024 2:30:00 AM 7.36 45.248 0.083 7.28 3.95 11.45
3/31/2024 2:45:00 AM 7.32 45.176 0.083 7.28 3.91 11.46
3/31/2024 3:00:00 AM 7.28 45.104 0.083 7.26 3.69 11.47
3/31/2024 3:15:00 AM 7.24 45.032 0.083 7.27 3.79 11.48
3/31/2024 3:30:00 AM 7.2 44.96 0.083 7.27 3.6 11.49
3/31/2024 3:45:00 AM 7.16 44.888 0.083 7.27 3.73 11.5
3/31/2024 4:00:00 AM 7.14 44.852 0.083 7.27 3.78 11.52
3/31/2024 4:15:00 AM 7.1 44.78 0.083 7.27 3.67 11.53
3/31/2024 4:30:00 AM 7.07 44.726 0.083 7.28 3.58 11.54
3/31/2024 4:45:00 AM 7.05 44.69 0.083 7.27 3.62 11.55
3/31/2024 5:00:00 AM 7.03 44.654 0.083 7.26 3.69 11.56
3/31/2024 5:15:00 AM 7 44.6 0.083 7.27 3.65 11.57
3/31/2024 5:30:00 AM 6.98 44.564 0.083 7.27 3.71 11.58
3/31/2024 5:45:00 AM 6.96 44.528 0.083 7.27 3.6 11.59
3/31/2024 6:00:00 AM 6.94 44.492 0.083 7.27 3.79 11.6
3/31/2024 6:15:00 AM 6.92 44.456 0.083 7.27 3.67 11.61
3/31/2024 6:30:00 AM 6.89 44.402 0.083 7.28 3.55 11.62
3/31/2024 6:45:00 AM 6.86 44.348 0.083 7.28 3.6 11.62
3/31/2024 7:00:00 AM 6.83 44.294 0.083 7.28 3.57 11.65
3/31/2024 7:15:00 AM 6.8 44.24 0.083 7.28 3.59 11.68
3/31/2024 7:30:00 AM 6.78 44.204 0.083 7.28 3.62 11.72
3/31/2024 7:45:00 AM 6.76 44.168 0.083 7.3 3.51 11.76
3/31/2024 8:00:00 AM 6.73 44.114 0.083 7.3 3.61 11.82
3/31/2024 8:15:00 AM 6.72 44.096 0.083 7.31 3.64 11.88
3/31/2024 8:30:00 AM 6.73 44.114 0.083 7.32 3.61 11.92
3/31/2024 8:45:00 AM 6.74 44.132 0.083 7.33 3.44 11.96
3/31/2024 9:00:00 AM 6.74 44.132 0.083 7.34 3.36 11.99
3/31/2024 9:15:00 AM 6.76 44.168 0.083 7.36 3.43 12.03
3/31/2024 9:30:00 AM 6.78 44.204 0.083 7.38 3.51 12.07
3/31/2024 9:45:00 AM 6.83 44.294 0.083 7.39 3.19 12.12
3/31/2024 10:00:00 AM 6.91 44.438 0.083 7.39 3.3 12.15
3/31/2024 10:15:00 AM 6.94 44.492 0.083 7.41 3.33 12.18
3/31/2024 10:30:00 AM 6.97 44.546 0.083 7.41 3.26 12.19
3/31/2024 10:45:00 AM 7 44.6 0.083 7.43 3.2 12.2
3/31/2024 11:00:00 AM 7.05 44.69 0.083 7.44 3.13 12.21
3/31/2024 11:15:00 AM 7.09 44.762 0.083 7.45 3.23 12.22
3/31/2024 11:30:00 AM 7.16 44.888 0.083 7.46 3.26 12.25
3/31/2024 11:45:00 AM 7.23 45.014 0.082 7.48 3.21 12.25
3/31/2024 12:00:00 PM 7.29 45.122 0.082 7.48 3.08 12.26
3/31/2024 12:15:00 PM 7.31 45.158 0.082 7.49 3.33 12.24
3/31/2024 12:30:00 PM 7.41 45.338 0.082 7.5 3.32 12.26
3/31/2024 12:45:00 PM 7.56 45.608 0.082 7.51 3.27 12.26
3/31/2024 1:00:00 PM 7.62 45.716 0.082 7.52 3.4 12.25
3/31/2024 1:15:00 PM 7.74 45.932 0.082 7.53 3.14 12.25
3/31/2024 1:30:00 PM 7.9 46.22 0.082 7.54 3.05 12.24
3/31/2024 1:45:00 PM 8.24 46.832 0.082 7.54 3.18 12.23
3/31/2024 2:00:00 PM 8.47 47.246 0.082 7.55 3.33 12.19
3/31/2024 2:15:00 PM 8.79 47.822 0.082 7.56 3.2 12.14
3/31/2024 2:30:00 PM 8.79 47.822 0.082 7.56 3.14 12.1
3/31/2024 2:45:00 PM 8.8 47.84 0.081 7.57 3.26 12.08
3/31/2024 3:00:00 PM 8.9 48.02 0.081 7.57 3.18 12.06
3/31/2024 3:15:00 PM 9.2 48.56 0.081 7.58 3.09 12.03
3/31/2024 3:30:00 PM 9.53 49.154 0.081 7.59 2.96 11.99
3/31/2024 3:45:00 PM 9.63 49.334 0.081 7.59 3.06 11.95
3/31/2024 4:00:00 PM 9.77 49.586 0.081 7.6 3.1 11.91
3/31/2024 4:15:00 PM 9.77 49.586 0.081 7.61 3.08 11.85
3/31/2024 4:30:00 PM 9.82 49.676 0.081 7.61 3 11.82
3/31/2024 4:45:00 PM 9.87 49.766 0.081 7.61 3.18 11.79
3/31/2024 5:00:00 PM 9.86 49.748 0.081 7.61 2.94 11.74
3/31/2024 5:15:00 PM 9.85 49.73 0.081 7.61 3.1 11.7
3/31/2024 5:30:00 PM 9.85 49.73 0.081 7.59 3.18 11.65
3/31/2024 5:45:00 PM 9.87 49.766 0.081 7.58 3.15 11.62
3/31/2024 6:00:00 PM 9.85 49.73 0.081 7.58 3.12 11.55
3/31/2024 6:15:00 PM 9.83 49.694 0.081 7.56 3.09 11.5
3/31/2024 6:30:00 PM 9.84 49.712 0.081 7.54 3.07 11.45
3/31/2024 6:45:00 PM 9.82 49.676 0.081 7.53 3.17 11.4
3/31/2024 7:00:00 PM 9.8 49.64 0.081 7.51 3.18 11.35
3/31/2024 7:15:00 PM 9.77 49.586 0.081 7.49 3.11 11.3
3/31/2024 7:30:00 PM 9.73 49.514 0.081 7.47 3.26 11.24
3/31/2024 7:45:00 PM 9.68 49.424 0.081 7.44 3.3 11.19
3/31/2024 8:00:00 PM 9.63 49.334 0.081 7.42 3.15 11.15
3/31/2024 8:15:00 PM 9.57 49.226 0.081 7.41 3.21 11.12
3/31/2024 8:30:00 PM 9.52 49.136 0.081 7.4 3.33 11.09
3/31/2024 8:45:00 PM 9.44 48.992 0.082 7.37 3.32 11.07
3/31/2024 9:00:00 PM 9.38 48.884 0.082 7.37 3.32 11.06
3/31/2024 9:15:00 PM 9.31 48.758 0.082 7.34 3.25 11.05
3/31/2024 9:30:00 PM 9.24 48.632 0.082 7.34 3.33 11.04
3/31/2024 9:45:00 PM 9.17 48.506 0.082 7.32 3.41 11.03
3/31/2024 10:00:00 PM 9.1 48.38 0.082 7.32 3.48 11.03
3/31/2024 10:15:00 PM 9.03 48.254 0.082 7.3 3.3 11.03
3/31/2024 10:30:00 PM 8.97 48.146 0.082 7.3 3.72 11.03
3/31/2024 10:45:00 PM 8.91 48.038 0.082 7.29 3.37 11.04
3/31/2024 11:00:00 PM 8.86 47.948 0.082 7.28 3.2 11.04
3/31/2024 11:15:00 PM 8.8 47.84 0.083 7.28 3.47 11.05
3/31/2024 11:30:00 PM 8.75 47.75 0.083 7.28 3.3 11.06
3/31/2024 11:45:00 PM 8.7 47.66 0.083 7.27 3.24 11.08
4/1/2024 12:00:00 AM 8.64 47.552 0.083 7.27 3.46 11.08
4/1/2024 12:15:00 AM 8.59 47.462 0.083 7.27 3.4 11.1
4/1/2024 12:30:00 AM 8.53 47.354 0.084 7.27 3.37 11.11
4/1/2024 12:45:00 AM 8.48 47.264 0.084 7.28 3.47 11.13
4/1/2024 1:00:00 AM 8.43 47.174 0.084 7.27 3.42 11.14
4/1/2024 1:15:00 AM 8.37 47.066 0.084 7.26 3.35 11.16
4/1/2024 1:30:00 AM 8.31 46.958 0.084 7.27 3.32 11.17
4/1/2024 1:45:00 AM 8.25 46.85 0.084 7.27 3.34 11.19
4/1/2024 2:00:00 AM 8.2 46.76 0.084 7.27 3.62 11.21
4/1/2024 2:15:00 AM 8.15 46.67 0.084 7.26 3.42 11.22
4/1/2024 2:30:00 AM 8.09 46.562 0.084 7.27 3.35 11.24
4/1/2024 2:45:00 AM 8.04 46.472 0.084 7.27 3.41 11.24
4/1/2024 3:00:00 AM 7.99 46.382 0.084 7.28 3.43 11.27
4/1/2024 3:15:00 AM 7.94 46.292 0.085 7.28 3.31 11.28
4/1/2024 3:30:00 AM 7.89 46.202 0.085 7.28 3.32 11.3
4/1/2024 3:45:00 AM 7.85 46.13 0.085 7.27 3.4 11.32
4/1/2024 4:00:00 AM 7.8 46.04 0.085 7.27 3.51 11.32
4/1/2024 4:15:00 AM 7.76 45.968 0.085 7.28 3.64 11.33
4/1/2024 4:30:00 AM 7.72 45.896 0.085 7.28 3.43 11.35
4/1/2024 4:45:00 AM 7.68 45.824 0.085 7.27 3.52 11.37
4/1/2024 5:00:00 AM 7.64 45.752 0.085 7.27 3.4 11.38
4/1/2024 5:15:00 AM 7.6 45.68 0.085 7.27 3.51 11.39
4/1/2024 5:30:00 AM 7.56 45.608 0.085 7.27 3.66 11.4
4/1/2024 5:45:00 AM 7.52 45.536 0.085 7.27 3.4 11.41
4/1/2024 6:00:00 AM 7.48 45.464 0.085 7.27 3.44 11.43
4/1/2024 6:15:00 AM 7.45 45.41 0.085 7.27 3.82 11.43
4/1/2024 6:30:00 AM 7.42 45.356 0.085 7.27 3.51 11.45
4/1/2024 6:45:00 AM 7.39 45.302 0.085 7.26 3.39 11.46
4/1/2024 7:00:00 AM 7.36 45.248 0.085 7.27 3.31 11.47
4/1/2024 7:15:00 AM 7.33 45.194 0.085 7.27 3.34 11.49
4/1/2024 7:30:00 AM 7.31 45.158 0.085 7.27 3.51 11.5
4/1/2024 7:45:00 AM 7.28 45.104 0.085 7.27 3.54 11.52
4/1/2024 8:00:00 AM 7.26 45.068 0.085 7.28 3.4 11.55
4/1/2024 8:15:00 AM 7.24 45.032 0.086 7.28 3.18 11.57
4/1/2024 8:30:00 AM 7.22 44.996 0.086 7.28 3.4 11.59
4/1/2024 8:45:00 AM 7.22 44.996 0.086 7.29 3.36 11.62
4/1/2024 9:00:00 AM 7.2 44.96 0.085 7.29 3.22 11.66
4/1/2024 9:15:00 AM 7.2 44.96 0.085 7.31 3.18 11.69
4/1/2024 9:30:00 AM 7.2 44.96 0.085 7.31 3.2 11.72
4/1/2024 9:45:00 AM 7.2 44.96 0.085 7.32 3.17 11.76
4/1/2024 10:00:00 AM 7.21 44.978 0.085 7.34 3.06 11.8
4/1/2024 10:15:00 AM 7.21 44.978 0.085 7.34 3.24 11.83
4/1/2024 10:30:00 AM 7.21 44.978 0.085 7.35 3.17 11.85
4/1/2024 10:45:00 AM 7.22 44.996 0.085 7.36 3.1 11.87
4/1/2024 11:00:00 AM 7.23 45.014 0.085 7.36 3.13 11.89
4/1/2024 11:15:00 AM 7.25 45.05 0.085 7.38 3.14 11.93
4/1/2024 11:30:00 AM 7.28 45.104 0.085 7.39 3.07 11.96
4/1/2024 11:45:00 AM 7.29 45.122 0.085 7.4 3.07 11.98
4/1/2024 12:00:00 PM 7.32 45.176 0.084 7.41 3.07 12
4/1/2024 12:15:00 PM 7.33 45.194 0.084 7.42 3.26 12
4/1/2024 12:30:00 PM 7.34 45.212 0.084 7.43 3.19 12
4/1/2024 12:45:00 PM 7.35 45.23 0.084 7.42 2.99 11.97
4/1/2024 1:00:00 PM 7.37 45.266 0.084 7.42 3.07 11.98
4/1/2024 1:15:00 PM 7.41 45.338 0.084 7.43 3.02 12.01
4/1/2024 1:30:00 PM 7.44 45.392 0.084 7.45 3.06 12.03
4/1/2024 1:45:00 PM 7.49 45.482 0.084 7.45 2.98 12.04
4/1/2024 2:00:00 PM 7.53 45.554 0.084 7.46 3.5 12.06
4/1/2024 2:15:00 PM 7.59 45.662 0.084 7.48 3.06 12.07
4/1/2024 2:30:00 PM 7.62 45.716 0.084 7.48 3.01 12.08
4/1/2024 2:45:00 PM 7.67 45.806 0.084 7.49 3.01 12.08
4/1/2024 3:00:00 PM 7.7 45.86 0.084 7.5 3.13 12.08
4/1/2024 3:15:00 PM 7.75 45.95 0.084 7.5 3.05 12.07
4/1/2024 3:30:00 PM 7.79 46.022 0.084 7.51 2.98 12.07
4/1/2024 3:45:00 PM 7.83 46.094 0.084 7.51 2.98 12.06
4/1/2024 4:00:00 PM 7.88 46.184 0.084 7.52 3.03 12.06
4/1/2024 4:15:00 PM 7.95 46.31 0.084 7.52 3.09 12.07
4/1/2024 4:30:00 PM 8.02 46.436 0.084 7.53 3.04 12.06
4/1/2024 4:45:00 PM 8.06 46.508 0.084 7.53 3.16 12.04
4/1/2024 5:00:00 PM 8.07 46.526 0.083 7.52 3.12 12.01
4/1/2024 5:15:00 PM 8.08 46.544 0.083 7.53 3.11 11.96
4/1/2024 5:30:00 PM 8.09 46.562 0.083 7.51 3.14 11.94
4/1/2024 5:45:00 PM 8.1 46.58 0.083 7.51 2.98 11.89
4/1/2024 6:00:00 PM 8.11 46.598 0.083 7.5 3.1 11.86
4/1/2024 6:15:00 PM 8.12 46.616 0.083 7.49 3.08 11.82
4/1/2024 6:30:00 PM 8.13 46.634 0.083 7.48 7.06 11.78
4/1/2024 6:45:00 PM 8.13 46.634 0.083 7.47 3 11.74
4/1/2024 7:00:00 PM 8.13 46.634 0.083 7.45 2.94 11.69
4/1/2024 7:15:00 PM 8.14 46.652 0.083 7.44 2.99 11.65
4/1/2024 7:30:00 PM 8.14 46.652 0.083 7.42 3.07 11.6
4/1/2024 7:45:00 PM 8.14 46.652 0.083 7.4 3.15 11.56
4/1/2024 8:00:00 PM 8.14 46.652 0.083 7.39 3.35 11.53
4/1/2024 8:15:00 PM 8.14 46.652 0.083 7.38 3.67 11.49
4/1/2024 8:30:00 PM 8.14 46.652 0.083 7.36 3.05 11.47
4/1/2024 8:45:00 PM 8.13 46.634 0.083 7.35 3.22 11.45
4/1/2024 9:00:00 PM 8.13 46.634 0.083 7.34 3 11.43
4/1/2024 9:15:00 PM 8.12 46.616 0.083 7.33 3.04 11.4
4/1/2024 9:30:00 PM 8.11 46.598 0.083 7.33 3.15 11.39
4/1/2024 9:45:00 PM 8.1 46.58 0.084 7.33 3.09 11.37
4/1/2024 10:00:00 PM 8.09 46.562 0.084 7.32 3.23 11.36
4/1/2024 10:15:00 PM 8.09 46.562 0.084 7.31 3.31 11.35
4/1/2024 10:30:00 PM 8.08 46.544 0.084 7.3 3.3 11.34
4/1/2024 10:45:00 PM 8.07 46.526 0.084 7.3 3.29 11.34
4/1/2024 11:00:00 PM 8.07 46.526 0.084 7.3 3.11 11.33
4/1/2024 11:15:00 PM 8.06 46.508 0.084 7.29 3.08 11.33
4/1/2024 11:30:00 PM 8.05 46.49 0.084 7.29 3.25 11.33
4/1/2024 11:45:00 PM 8.03 46.454 0.084 7.29 3.14 11.32
4/2/2024 12:00:00 AM 8.02 46.436 0.085 7.28 3.28 11.32
4/2/2024 12:15:00 AM 8 46.4 0.085 7.28 3.14 11.32
4/2/2024 12:30:00 AM 8 46.4 0.085 7.28 3.32 11.31
4/2/2024 12:45:00 AM 7.99 46.382 0.085 7.29 3.25 11.32
4/2/2024 1:00:00 AM 7.99 46.382 0.085 7.28 3.01 11.31
4/2/2024 1:15:00 AM 7.98 46.364 0.085 7.28 3.4 11.31
4/2/2024 1:30:00 AM 7.97 46.346 0.085 7.28 3.14 11.32
4/2/2024 1:45:00 AM 7.97 46.346 0.085 7.28 3.17 11.31
4/2/2024 2:00:00 AM 7.96 46.328 0.085 7.29 3.01 11.31
4/2/2024 2:15:00 AM 7.95 46.31 0.085 7.27 3.32 11.32
4/2/2024 2:30:00 AM 7.94 46.292 0.085 7.27 3.58 11.32
4/2/2024 2:45:00 AM 7.93 46.274 0.085 7.28 3.35 11.32
4/2/2024 3:00:00 AM 7.91 46.238 0.085 7.28 3.47 11.32
4/2/2024 3:15:00 AM 7.9 46.22 0.085 7.28 3.63 11.33
4/2/2024 3:30:00 AM 7.89 46.202 0.085 7.27 3.79 11.33
4/2/2024 3:45:00 AM 7.88 46.184 0.085 7.27 4.21 11.33
4/2/2024 4:00:00 AM 7.87 46.166 0.085 7.27 3.76 11.34
4/2/2024 4:15:00 AM 7.86 46.148 0.085 7.28 3.51 11.34
4/2/2024 4:30:00 AM 7.85 46.13 0.085 7.27 3.56 11.34
4/2/2024 4:45:00 AM 7.84 46.112 0.085 7.27 3.71 11.35
4/2/2024 5:00:00 AM 7.83 46.094 0.085 7.28 3.68 11.35
4/2/2024 5:15:00 AM 7.82 46.076 0.085 7.27 3.78 11.35
4/2/2024 5:30:00 AM 7.81 46.058 0.085 7.26 3.93 11.35
4/2/2024 5:45:00 AM 7.81 46.058 0.085 7.27 3.6 11.36
4/2/2024 6:00:00 AM 7.8 46.04 0.085 7.27 3.99 11.36
4/2/2024 6:15:00 AM 7.79 46.022 0.085 7.27 4.58 11.36
4/2/2024 6:30:00 AM 7.78 46.004 0.086 7.28 3.69 11.37
4/2/2024 6:45:00 AM 7.77 45.986 0.086 7.28 4.18 11.37
4/2/2024 7:00:00 AM 7.77 45.986 0.086 7.28 4.11 11.38
4/2/2024 7:15:00 AM 7.76 45.968 0.086 7.28 4.26 11.38
4/2/2024 7:30:00 AM 7.75 45.95 0.087 7.28 4.03 11.39
4/2/2024 7:45:00 AM 7.74 45.932 0.087 7.29 4.08 11.4
4/2/2024 8:00:00 AM 7.74 45.932 0.087 7.31 4.47 11.43
4/2/2024 8:15:00 AM 7.74 45.932 0.088 7.3 4.87 11.45
4/2/2024 8:30:00 AM 7.74 45.932 0.088 7.32 4.74 11.48
4/2/2024 8:45:00 AM 7.75 45.95 0.088 7.32 4.79 11.53
4/2/2024 9:00:00 AM 7.76 45.968 0.088 7.33 5.33 11.55
4/2/2024 9:15:00 AM 7.76 45.968 0.088 7.35 5.63 11.58
4/2/2024 9:30:00 AM 7.77 45.986 0.088 7.35 5.49 11.59
4/2/2024 9:45:00 AM 7.77 45.986 0.088 7.37 5.53 11.6
4/2/2024 10:00:00 AM 7.79 46.022 0.088 7.37 5.98 11.63
4/2/2024 10:15:00 AM 7.8 46.04 0.087 7.38 5.88 11.65
4/2/2024 10:30:00 AM 7.81 46.058 0.087 7.38 5.94 11.67
4/2/2024 10:45:00 AM 7.81 46.058 0.087 7.38 6.12 11.66
4/2/2024 11:00:00 AM 7.81 46.058 0.086 7.37 5.96 11.66
4/2/2024 11:15:00 AM 7.82 46.076 0.086 7.4 6.57 11.68
4/2/2024 11:30:00 AM 7.83 46.094 0.085 7.4 6.54 11.7
4/2/2024 11:45:00 AM 7.84 46.112 0.085 7.41 6.89 11.7
4/2/2024 12:00:00 PM 7.86 46.148 0.085 7.4 7.5 11.71
4/2/2024 12:15:00 PM 7.87 46.166 0.085 7.4 7.74 11.72
4/2/2024 12:30:00 PM 7.89 46.202 0.085 7.42 8.55 11.73
4/2/2024 12:45:00 PM 7.91 46.238 0.086 7.41 10.84 11.72
4/2/2024 1:00:00 PM 7.96 46.328 0.086 7.44 13.19 11.74
4/2/2024 1:15:00 PM 7.98 46.364 0.087 7.45 17.6 11.72
4/2/2024 1:30:00 PM 8.01 46.418 0.088 7.45 25.47 11.71
4/2/2024 1:45:00 PM 8.06 46.508 0.088 7.46 27.97 11.69
4/2/2024 2:00:00 PM 8.09 46.562 0.089 7.47 39.05 11.66
4/2/2024 2:15:00 PM 8.11 46.598 0.088 7.46 52.84 11.64
4/2/2024 2:30:00 PM 8.12 46.616 0.087 7.45 54.06 11.61
4/2/2024 2:45:00 PM 8.13 46.634 0.086 7.44 51.94 11.59
4/2/2024 3:00:00 PM 8.12 46.616 0.085 7.42 54.1 11.57
4/2/2024 3:15:00 PM 8.12 46.616 0.084 7.41 48.86 11.56
4/2/2024 3:30:00 PM 8.12 46.616 0.083 7.39 48.36 11.54
4/2/2024 3:45:00 PM 8.1 46.58 0.083 7.38 45.57 11.53
4/2/2024 4:00:00 PM 8.09 46.562 0.082 7.4 42.95 11.52
4/2/2024 4:15:00 PM 8.08 46.544 0.081 7.4 35.4 11.51
4/2/2024 4:30:00 PM 8.08 46.544 0.081 7.38 40.69 11.51
4/2/2024 4:45:00 PM 8.07 46.526 0.08 7.36 37.74 11.49
4/2/2024 5:00:00 PM 8.06 46.508 0.08 7.37 35.73 11.48
4/2/2024 5:15:00 PM 8.05 46.49 0.08 7.36 37.05 11.47
4/2/2024 5:30:00 PM 8.03 46.454 0.08 7.35 33.69 11.46
4/2/2024 5:45:00 PM 8 46.4 0.079 7.35 34.78 11.46
4/2/2024 6:00:00 PM 7.97 46.346 0.079 7.34 35.11 11.45
4/2/2024 6:15:00 PM 7.95 46.31 0.079 7.34 31.23 11.45
4/2/2024 6:30:00 PM 7.92 46.256 0.079 7.34 32.47 11.44
4/2/2024 6:45:00 PM 7.89 46.202 0.079 7.32 61.01 11.44
4/2/2024 7:00:00 PM 7.87 46.166 0.079 7.32 31.37 11.44
4/2/2024 7:15:00 PM 7.85 46.13 0.08 7.31 29.59 11.44
4/2/2024 7:30:00 PM 7.82 46.076 0.08 7.32 30.6 11.43
4/2/2024 7:45:00 PM 7.8 46.04 0.08 7.31 31.79 11.43
4/2/2024 8:00:00 PM 7.77 45.986 0.08 7.33 30.67 11.43
4/2/2024 8:15:00 PM 7.75 45.95 0.08 7.31 32.52 11.42
4/2/2024 8:30:00 PM 7.72 45.896 0.08 7.31 32.29 11.42
4/2/2024 8:45:00 PM 7.7 45.86 0.08 7.31 32.06 11.42
4/2/2024 9:00:00 PM 7.68 45.824 0.08 7.3 29.88 11.42
4/2/2024 9:15:00 PM 7.66 45.788 0.079 7.29 30.17 11.42
4/2/2024 9:30:00 PM 7.63 45.734 0.079 7.3 29.35 11.43
4/2/2024 9:45:00 PM 7.61 45.698 0.079 7.3 27.57 11.44
4/2/2024 10:00:00 PM 7.59 45.662 0.078 7.3 22.78 11.44
4/2/2024 10:15:00 PM 7.57 45.626 0.078 7.29 25.6 11.45
4/2/2024 10:30:00 PM 7.55 45.59 0.078 7.29 25.48 11.45
4/2/2024 10:45:00 PM 7.53 45.554 0.078 7.27 23.27 11.46
4/2/2024 11:00:00 PM 7.51 45.518 0.078 7.28 23.69 11.46
4/2/2024 11:15:00 PM 7.49 45.482 0.078 7.26 22.25 11.47
4/2/2024 11:30:00 PM 7.47 45.446 0.078 7.27 22.38 11.48
4/2/2024 11:45:00 PM 7.45 45.41 0.078 7.28 21.41 11.48
4/3/2024 12:00:00 AM 7.43 45.374 0.078 7.27 21.8 11.48
4/3/2024 12:15:00 AM 7.41 45.338 0.078 7.28 17.89 11.49
4/3/2024 12:30:00 AM 7.39 45.302 0.078 7.27 19.28 11.49
4/3/2024 12:45:00 AM 7.36 45.248 0.078 7.27 19.35 11.5
4/3/2024 1:00:00 AM 7.34 45.212 0.078 7.26 17.59 11.51
4/3/2024 1:15:00 AM 7.31 45.158 0.077 7.28 18.46 11.52
4/3/2024 1:30:00 AM 7.29 45.122 0.077 7.27 18.34 11.52
4/3/2024 1:45:00 AM 7.27 45.086 0.077 7.26 17.83 11.53
4/3/2024 2:00:00 AM 7.25 45.05 0.077 7.26 18.37 11.53
4/3/2024 2:15:00 AM 7.24 45.032 0.077 7.26 18.26 11.53
4/3/2024 2:30:00 AM 7.21 44.978 0.078 7.27 20.36 11.55
4/3/2024 2:45:00 AM 7.19 44.942 0.078 7.26 20.48 11.55
4/3/2024 3:00:00 AM 7.17 44.906 0.079 7.26 21.68 11.55
4/3/2024 3:15:00 AM 7.15 44.87 0.08 7.26 25.83 11.56
4/3/2024 3:30:00 AM 7.12 44.816 0.081 7.28 34.9 11.56
4/3/2024 3:45:00 AM 7.09 44.762 0.081 7.29 46.08 11.57
4/3/2024 4:00:00 AM 7.06 44.708 0.082 7.28 57.49 11.58
4/3/2024 4:15:00 AM 7.04 44.672 0.081 7.29 66.46 11.6
4/3/2024 4:30:00 AM 7.01 44.618 0.08 7.27 72.36 11.6
4/3/2024 4:45:00 AM 6.99 44.582 0.079 7.28 74.46 11.61
4/3/2024 5:00:00 AM 6.97 44.546 0.078 7.27 76.15 11.61
4/3/2024 5:15:00 AM 6.95 44.51 0.077 7.25 84.63 11.62
4/3/2024 5:30:00 AM 6.92 44.456 0.076 7.24 98.55 11.63
4/3/2024 5:45:00 AM 6.9 44.42 0.065 7.25 128.75 11.63
4/3/2024 6:00:00 AM 6.88 44.384 0.074 7.22 119.01 11.63
4/3/2024 6:15:00 AM 6.86 44.348 0.074 7.24 132.41 11.64
4/3/2024 6:30:00 AM 6.85 44.33 0.073 7.2 114.64 11.64
4/3/2024 6:45:00 AM 6.85 44.33 0.072 7.2 100.67 11.64
4/3/2024 7:00:00 AM 6.84 44.312 0.071 7.18 91.4 11.63
4/3/2024 7:15:00 AM 6.83 44.294 0.06 7.18 83.91 11.61
4/3/2024 7:30:00 AM 6.83 44.294 0.071 7.2 104.47 11.63
4/3/2024 7:45:00 AM 6.82 44.276 0.071 7.21 75.3 11.65
4/3/2024 8:00:00 AM 6.81 44.258 0.071 7.22 80.31 11.65
4/3/2024 8:15:00 AM 6.81 44.258 0.07 7.18 82.48 11.67
4/3/2024 8:30:00 AM 6.8 44.24 0.072 7.19 76.78 11.67
4/3/2024 8:45:00 AM 6.79 44.222 0.066 7.19 79.79 11.68
4/3/2024 9:00:00 AM 6.79 44.222 0.072 7.18 85.47 11.69
4/3/2024 9:15:00 AM 6.78 44.204 0.072 7.17 91.94 11.68
4/3/2024 9:30:00 AM 6.77 44.186 0.071 7.16 101.77 11.69
4/3/2024 9:45:00 AM 6.76 44.168 0.044 7.16 110.3 11.71
4/3/2024 10:00:00 AM 6.76 44.168 0.069 7.16 108.86 11.71
4/3/2024 10:15:00 AM 6.75 44.15 0.047 7.15 111.98 11.71
4/3/2024 10:30:00 AM 6.75 44.15 0.068 7.14 111.96 11.72
4/3/2024 10:45:00 AM 6.77 44.186 0.067 7.13 123.46 11.72
4/3/2024 11:00:00 AM 6.8 44.24 0.05 7.12 140.9 11.71
4/3/2024 11:15:00 AM 6.84 44.312 0.044 7.11 159.92 11.71
4/3/2024 11:30:00 AM 6.88 44.384 0.065 7.11 151.12 11.7
4/3/2024 11:45:00 AM 6.95 44.51 0.046 7.1 163.51 11.69
4/3/2024 12:00:00 PM 7.03 44.654 0.036 7.1 145.57 11.68
4/3/2024 12:15:00 PM 7.07 44.726 0.064 7.14 147.08 11.66
4/3/2024 12:30:00 PM 7.1 44.78 0.05 7.1 150.95 11.65
4/3/2024 12:45:00 PM 7.11 44.798 0.046 7.09 147.58 11.64
4/3/2024 1:00:00 PM 7.12 44.816 0.039 7.08 150.82 11.62
4/3/2024 1:15:00 PM 7.12 44.816 0.063 7.09 151.81 11.61
4/3/2024 1:30:00 PM 7.11 44.798 0.051 7.07 154.47 11.61
4/3/2024 1:45:00 PM 7.1 44.78 0.047 7.07 146.68 11.6
4/3/2024 2:00:00 PM 7.1 44.78 0.044 7.06 138.55 11.6
4/3/2024 2:15:00 PM 7.09 44.762 0.036 7.08 132.15 11.59
4/3/2024 2:30:00 PM 7.09 44.762 0.062 7.05 122.26 11.59
4/3/2024 2:45:00 PM 7.11 44.798 0.048 7.05 115.36 11.59
4/3/2024 3:00:00 PM 7.12 44.816 0.041 7.05 106.01 11.58
4/3/2024 3:15:00 PM 7.13 44.834 0.061 7.03 103.81 11.58
4/3/2024 3:30:00 PM 7.15 44.87 0.046 7.04 90.27 11.57
4/3/2024 3:45:00 PM 7.17 44.906 0.044 7.04 84.28 11.56
4/3/2024 4:00:00 PM 7.18 44.924 0.04 7.03 83.16 11.57
4/3/2024 4:15:00 PM 7.19 44.942 0.062 7.02 78.01 11.56
4/3/2024 4:30:00 PM 7.2 44.96 0.046 7.03 74.46 11.56
4/3/2024 4:45:00 PM 7.21 44.978 0.037 7.03 71.39 11.56
4/3/2024 5:00:00 PM 7.22 44.996 0.062 7.02 69.12 11.55
4/3/2024 5:15:00 PM 7.23 45.014 0.051 7.02 68.21 11.55
4/3/2024 5:30:00 PM 7.23 45.014 0.048 7.02 64.79 11.54
4/3/2024 5:45:00 PM 7.24 45.032 0.044 7.02 64.29 11.54
4/3/2024 6:00:00 PM 7.24 45.032 0.04 7.02 70.17 11.54
4/3/2024 6:15:00 PM 7.23 45.014 0.063 7.02 67.11 11.53
4/3/2024 6:30:00 PM 7.23 45.014 0.05 7.01 65.55 11.53
4/3/2024 6:45:00 PM 7.23 45.014 0.046 7.02 65.14 11.53
4/3/2024 7:00:00 PM 7.22 44.996 0.044 7.01 61.8 11.53
4/3/2024 7:15:00 PM 7.21 44.978 0.038 7.02 60.99 11.53
4/3/2024 7:30:00 PM 7.2 44.96 0.063 7.01 63.45 11.52
4/3/2024 7:45:00 PM 7.19 44.942 0.048 7.02 59.89 11.52
4/3/2024 8:00:00 PM 7.19 44.942 0.043 7.01 57.97 11.51
4/3/2024 8:15:00 PM 7.18 44.924 0.064 7.02 56.96 11.51
4/3/2024 8:30:00 PM 7.17 44.906 0.057 7.01 55.88 11.51
4/3/2024 8:45:00 PM 7.16 44.888 0.048 7.01 54.98 11.51
4/3/2024 9:00:00 PM 7.15 44.87 0.064 7 53.93 11.51
4/3/2024 9:15:00 PM 7.14 44.852 0.045 7.01 57.78 11.52
4/3/2024 9:30:00 PM 7.13 44.834 0.063 7 53.12 11.53
4/3/2024 9:45:00 PM 7.12 44.816 0.046 7.03 46.21 11.54
4/3/2024 10:00:00 PM 7.1 44.78 0.037 7 49.07 11.54
4/3/2024 10:15:00 PM 7.09 44.762 0.062 6.99 46.15 11.54
4/3/2024 10:30:00 PM 7.08 44.744 0.046 7 49.04 11.54
4/3/2024 10:45:00 PM 7.07 44.726 0.043 7 45.98 11.55
4/3/2024 11:00:00 PM 7.06 44.708 0.045 7 45.88 11.54
4/3/2024 11:15:00 PM 7.06 44.708 0.063 7 47.52 11.55
4/3/2024 11:30:00 PM 7.05 44.69 0.047 7 44.62 11.55
4/3/2024 11:45:00 PM 7.04 44.672 0.037 6.99 43.68 11.55
4/4/2024 12:00:00 AM 7.03 44.654 0.063 7.13 42.85 11.56
4/4/2024 12:15:00 AM 7.02 44.636 0.049 6.98 42.96 11.56
4/4/2024 12:30:00 AM 7.01 44.618 0.043 6.99 41.24 11.56
4/4/2024 12:45:00 AM 7 44.6 0.063 7 41.43 11.56
4/4/2024 1:00:00 AM 6.99 44.582 0.049 6.99 38.22 11.57
4/4/2024 1:15:00 AM 6.98 44.564 0.045 6.99 38.49 11.57
4/4/2024 1:30:00 AM 6.97 44.546 0.041 6.99 37.8 11.58
4/4/2024 1:45:00 AM 6.96 44.528 0.063 6.99 31.73 11.57
4/4/2024 2:00:00 AM 6.96 44.528 0.045 7 35.87 11.58
4/4/2024 2:15:00 AM 6.95 44.51 0.052 7 34.49 11.58
4/4/2024 2:30:00 AM 6.94 44.492 0.048 7 33.33 11.58
4/4/2024 2:45:00 AM 6.92 44.456 0.046 7.01 33.31 11.58
4/4/2024 3:00:00 AM 6.91 44.438 0.042 7.02 31.57 11.59
4/4/2024 3:15:00 AM 6.9 44.42 0.063 7.1 32.3 11.59
4/4/2024 3:30:00 AM 6.88 44.384 0.05 6.95 27.02 11.6
4/4/2024 3:45:00 AM 6.87 44.366 0.042 6.97 31.26 11.61
4/4/2024 4:00:00 AM 6.86 44.348 0.059 6.97 28.62 11.6
4/4/2024 4:15:00 AM 6.85 44.33 0.061 6.98 27.76 11.61
4/4/2024 4:30:00 AM 6.83 44.294 0.048 6.98 29.28 11.61
4/4/2024 4:45:00 AM 6.82 44.276 0.045 6.97 27.63 11.61
4/4/2024 5:00:00 AM 6.81 44.258 0.063 6.98 26.87 11.62
4/4/2024 5:15:00 AM 6.8 44.24 0.046 6.98 28.04 11.61
4/4/2024 5:30:00 AM 6.79 44.222 0.036 6.98 28.29 11.62
4/4/2024 5:45:00 AM 6.77 44.186 0.063 6.98 26.26 11.62
4/4/2024 6:00:00 AM 6.76 44.168 0.046 6.97 22.91 11.62
4/4/2024 6:15:00 AM 6.75 44.15 0.04 6.97 24.86 11.64
4/4/2024 6:30:00 AM 6.74 44.132 0.063 6.96 24.34 11.63
4/4/2024 6:45:00 AM 6.73 44.114 0.049 6.98 23.09 11.64
4/4/2024 7:00:00 AM 6.72 44.096 0.046 6.97 24.24 11.64
4/4/2024 7:15:00 AM 6.72 44.096 0.039 6.97 23.29 11.64
4/4/2024 7:30:00 AM 6.7 44.06 0.063 6.97 19.32 11.65
4/4/2024 7:45:00 AM 6.7 44.06 0.05 6.97 22.62 11.66
4/4/2024 8:00:00 AM 6.71 44.078 0.044 6.98 20.56 11.67
4/4/2024 8:15:00 AM 6.72 44.096 0.064 6.97 28.96 11.68
4/4/2024 8:30:00 AM 6.72 44.096 0.052 6.98 22.65 11.69
4/4/2024 8:45:00 AM 6.74 44.132 0.048 6.98 21.85 11.7
4/4/2024 9:00:00 AM 6.76 44.168 0.044 6.99 19.81 11.71
4/4/2024 9:15:00 AM 6.78 44.204 0.04 6.99 20.2 11.71
4/4/2024 9:30:00 AM 6.8 44.24 0.064 6.99 20.58 11.72
4/4/2024 9:45:00 AM 6.83 44.294 0.049 6.99 18.88 11.72
4/4/2024 10:00:00 AM 6.86 44.348 0.064 7 18.18 11.73
4/4/2024 10:15:00 AM 6.89 44.402 0.047 7 19.12 11.73
4/4/2024 10:30:00 AM 6.92 44.456 0.038 7.01 16.35 11.74
4/4/2024 10:45:00 AM 6.97 44.546 0.064 7.01 17.22 11.74
4/4/2024 11:00:00 AM 7.03 44.654 0.045 7.02 13.59 11.74
4/4/2024 11:15:00 AM 7.1 44.78 0.064 7.03 16.61 11.74
4/4/2024 11:30:00 AM 7.15 44.87 0.044 7.03 17.8 11.73
4/4/2024 11:45:00 AM 7.19 44.942 0.064 7.12 15.66 11.72
4/4/2024 12:00:00 PM 7.25 45.05 0.051 7.04 15.66 11.71
4/4/2024 12:15:00 PM 7.3 45.14 0.046 7.02 16.01 11.71
4/4/2024 12:30:00 PM 7.34 45.212 0.064 7.03 15.86 11.7
4/4/2024 12:45:00 PM 7.42 45.356 0.046 7.04 18.39 11.7
4/4/2024 1:00:00 PM 7.53 45.554 0.064 7.05 15.7 11.7
4/4/2024 1:15:00 PM 7.61 45.698 0.043 7.06 14.27 11.68
4/4/2024 1:30:00 PM 7.66 45.788 0.064 7.07 15.22 11.66
4/4/2024 1:45:00 PM 7.7 45.86 0.063 7.06 16.1 11.64
4/4/2024 2:00:00 PM 7.73 45.914 0.046 7.07 15.73 11.63
4/4/2024 2:15:00 PM 7.76 45.968 0.064 7.06 14.81 11.62
4/4/2024 2:30:00 PM 7.8 46.04 0.042 7.06 15.65 11.62
4/4/2024 2:45:00 PM 7.87 46.166 0.064 7.15 14.98 11.61
4/4/2024 3:00:00 PM 7.94 46.292 0.045 7.07 15.73 11.6
4/4/2024 3:15:00 PM 8.01 46.418 0.065 7.06 14.84 11.58
4/4/2024 3:30:00 PM 8.07 46.526 0.065 7.08 15.08 11.57
4/4/2024 3:45:00 PM 8.11 46.598 0.065 7.09 14.85 11.55
4/4/2024 4:00:00 PM 8.14 46.652 0.059 7.07 16.24 11.53
4/4/2024 4:15:00 PM 8.18 46.724 0.064 7.07 16.04 11.51
4/4/2024 4:30:00 PM 8.22 46.796 0.065 7.07 14.81 11.49
4/4/2024 4:45:00 PM 8.25 46.85 0.065 7.07 14.85 11.47
4/4/2024 5:00:00 PM 8.26 46.868 0.047 7.07 15.01 11.45
4/4/2024 5:15:00 PM 8.25 46.85 0.065 7.06 14.44 11.43
4/4/2024 5:30:00 PM 8.25 46.85 0.046 7.06 15.09 11.4
4/4/2024 5:45:00 PM 8.24 46.832 0.065 7.15 14.9 11.39
4/4/2024 6:00:00 PM 8.24 46.832 0.048 7.07 15.42 11.39
4/4/2024 6:15:00 PM 8.23 46.814 0.065 7.05 15.2 11.38
4/4/2024 6:30:00 PM 8.22 46.796 0.065 7.05 14.92 11.37
4/4/2024 6:45:00 PM 8.19 46.742 0.065 7.05 15.98 11.36
4/4/2024 7:00:00 PM 8.15 46.67 0.065 7.04 14.59 11.35
4/4/2024 7:15:00 PM 8.09 46.562 0.065 7.04 13.97 11.35
4/4/2024 7:30:00 PM 8.04 46.472 0.065 7.04 14.57 11.34
4/4/2024 7:45:00 PM 8.01 46.418 0.065 7.03 14.92 11.34
4/4/2024 8:00:00 PM 7.98 46.364 0.065 7.02 13.98 11.33
4/4/2024 8:15:00 PM 7.95 46.31 0.065 7.02 14.05 11.33
4/4/2024 8:30:00 PM 7.91 46.238 0.065 7.02 14.64 11.33
4/4/2024 8:45:00 PM 7.87 46.166 0.065 7.02 14.96 11.34
4/4/2024 9:00:00 PM 7.83 46.094 0.065 7.02 15.04 11.35
4/4/2024 9:15:00 PM 7.78 46.004 0.065 7.01 15.52 11.36
4/4/2024 9:30:00 PM 7.73 45.914 0.065 7.01 14.13 11.37
4/4/2024 9:45:00 PM 7.69 45.842 0.065 7.02 14.54 11.38
4/4/2024 10:00:00 PM 7.64 45.752 0.065 7.01 14.75 11.39
4/4/2024 10:15:00 PM 7.59 45.662 0.065 7.01 14.36 11.4
4/4/2024 10:30:00 PM 7.55 45.59 0.066 7.01 14.45 11.42
4/4/2024 10:45:00 PM 7.51 45.518 0.066 7.01 16.01 11.43
4/4/2024 11:00:00 PM 7.47 45.446 0.066 7.01 14.68 11.45
4/4/2024 11:15:00 PM 7.43 45.374 0.066 7.01 14.63 11.46
4/4/2024 11:30:00 PM 7.39 45.302 0.066 7.02 15.32 11.47
4/4/2024 11:45:00 PM 7.35 45.23 0.066 7.02 14.51 11.48
4/5/2024 12:00:00 AM 7.3 45.14 0.066 7.02 14.56 11.49
4/5/2024 12:15:00 AM 7.26 45.068 0.066 7.02 14.6 11.5
4/5/2024 12:30:00 AM 7.22 44.996 0.066 7.02 14.67 11.52
4/5/2024 12:45:00 AM 7.18 44.924 0.067 7.06 14.9 11.52
4/5/2024 1:00:00 AM 7.14 44.852 0.067 7.06 15.59 11.53
4/5/2024 1:15:00 AM 7.1 44.78 0.067 7.03 14.43 11.55
4/5/2024 1:30:00 AM 7.06 44.708 0.067 7.04 14.07 11.56
4/5/2024 1:45:00 AM 7.02 44.636 0.067 7.04 14.32 11.58
4/5/2024 2:00:00 AM 6.98 44.564 0.067 7.07 14.66 11.59
4/5/2024 2:15:00 AM 6.94 44.492 0.067 7.08 15.08 11.6
4/5/2024 2:30:00 AM 6.9 44.42 0.067 7.06 13.7 11.6
4/5/2024 2:45:00 AM 6.86 44.348 0.067 7.04 13.69 11.61
4/5/2024 3:00:00 AM 6.82 44.276 0.067 7.04 51.49 11.63
4/5/2024 3:15:00 AM 6.78 44.204 0.067 7.09 13.34 11.65
4/5/2024 3:30:00 AM 6.75 44.15 0.067 7.04 74.82 11.67
4/5/2024 3:45:00 AM 6.71 44.078 0.067 7.06 13.61 11.67
4/5/2024 4:00:00 AM 6.68 44.024 0.067 7.03 12.99 11.69
4/5/2024 4:15:00 AM 6.65 43.97 0.067 7.06 12.99 11.69
4/5/2024 4:30:00 AM 6.62 43.916 0.067 7.07 13.66 11.7
4/5/2024 4:45:00 AM 6.59 43.862 0.067 7.03 13.38 11.72
4/5/2024 5:00:00 AM 6.56 43.808 0.067 7.06 13.22 11.73
4/5/2024 5:15:00 AM 6.53 43.754 0.067 7.04 12.68 11.74
4/5/2024 5:30:00 AM 6.5 43.7 0.067 7.04 12.88 11.75
4/5/2024 5:45:00 AM 6.48 43.664 0.067 7.07 12.2 11.76
4/5/2024 6:00:00 AM 6.45 43.61 0.067 7.04 12.18 11.77
4/5/2024 6:15:00 AM 6.42 43.556 0.067 7.06 12.14 11.78
4/5/2024 6:30:00 AM 6.4 43.52 0.067 7.07 13.41 11.79
4/5/2024 6:45:00 AM 6.37 43.466 0.067 7.07 12.06 11.8
4/5/2024 7:00:00 AM 6.35 43.43 0.067 7.05 12.01 11.81
4/5/2024 7:15:00 AM 6.33 43.394 0.067 7.05 11.57 11.82
4/5/2024 7:30:00 AM 6.32 43.376 0.067 7.07 11.23 11.84
4/5/2024 7:45:00 AM 6.31 43.358 0.067 7.08 11.02 11.86
4/5/2024 8:00:00 AM 6.3 43.34 0.067 7.06 11.29 11.88
4/5/2024 8:15:00 AM 6.3 43.34 0.067 7.08 10.86 11.9
4/5/2024 8:30:00 AM 6.3 43.34 0.067 7.1 10.58 11.92
4/5/2024 8:45:00 AM 6.31 43.358 0.067 7.1 11.23 11.95
4/5/2024 9:00:00 AM 6.32 43.376 0.067 7.11 10.44 11.97
4/5/2024 9:15:00 AM 6.34 43.412 0.067 7.12 9.96 12
4/5/2024 9:30:00 AM 6.36 43.448 0.067 7.13 9.63 12.02
4/5/2024 9:45:00 AM 6.37 43.466 0.068 7.12 9.8 12.04
4/5/2024 10:00:00 AM 6.38 43.484 0.067 7.12 9.18 12.05
4/5/2024 10:15:00 AM 6.4 43.52 0.067 7.12 9.14 12.06
4/5/2024 10:30:00 AM 6.45 43.61 0.067 7.15 9.09 12.07
4/5/2024 10:45:00 AM 6.51 43.718 0.067 7.16 9.03 12.08
4/5/2024 11:00:00 AM 6.58 43.844 0.068 7.14 8.62 12.09
4/5/2024 11:15:00 AM 6.59 43.862 0.067 7.16 8.99 12.09
4/5/2024 11:30:00 AM 6.61 43.898 0.067 7.17 8.98 12.08
4/5/2024 11:45:00 AM 6.65 43.97 0.068 7.17 8.44 12.08
4/5/2024 12:00:00 PM 6.68 44.024 0.068 7.17 8.79 12.08
4/5/2024 12:15:00 PM 6.71 44.078 0.068 7.17 8.78 12.08
4/5/2024 12:30:00 PM 6.76 44.168 0.068 7.18 8.03 12.08
4/5/2024 12:45:00 PM 6.83 44.294 0.068 7.18 8.82 12.08
4/5/2024 1:00:00 PM 6.88 44.384 0.068 7.17 8.58 12.06
4/5/2024 1:15:00 PM 6.96 44.528 0.068 7.2 8.35 12.07
4/5/2024 1:30:00 PM 7.06 44.708 0.068 7.2 8.14 12.05
4/5/2024 1:45:00 PM 7.25 45.05 0.067 7.21 8.33 12.04
4/5/2024 2:00:00 PM 7.3 45.14 0.067 7.21 8.47 12.01
4/5/2024 2:15:00 PM 7.38 45.284 0.067 7.19 8.26 11.98
4/5/2024 2:30:00 PM 7.44 45.392 0.068 7.19 8.49 11.95
4/5/2024 2:45:00 PM 7.47 45.446 0.067 7.22 8.08 11.93
4/5/2024 3:00:00 PM 7.52 45.536 0.068 7.22 8.07 11.92
4/5/2024 3:15:00 PM 7.55 45.59 0.068 7.2 7.96 11.9
4/5/2024 3:30:00 PM 7.66 45.788 0.068 7.2 8.33 11.88
4/5/2024 3:45:00 PM 7.72 45.896 0.068 7.22 8.09 11.87
4/5/2024 4:00:00 PM 7.77 45.986 0.068 7.22 7.94 11.85
4/5/2024 4:15:00 PM 7.78 46.004 0.068 7.2 7.79 11.82
4/5/2024 4:30:00 PM 7.82 46.076 0.068 7.21 8.17 11.8
4/5/2024 4:45:00 PM 7.79 46.022 0.068 7.2 8.41 11.79
4/5/2024 5:00:00 PM 7.78 46.004 0.068 7.2 8.46 11.77
4/5/2024 5:15:00 PM 7.76 45.968 0.068 7.2 8.45 11.76
4/5/2024 5:30:00 PM 7.74 45.932 0.068 7.19 8.28 11.74
4/5/2024 5:45:00 PM 7.74 45.932 0.068 7.2 8.11 11.74
4/5/2024 6:00:00 PM 7.72 45.896 0.068 7.18 8.12 11.73
4/5/2024 6:15:00 PM 7.69 45.842 0.068 7.17 8.08 11.71
4/5/2024 6:30:00 PM 7.67 45.806 0.068 7.2 9.1 11.69
4/5/2024 6:45:00 PM 7.65 45.77 0.068 7.19 8.17 11.69
4/5/2024 7:00:00 PM 7.62 45.716 0.068 7.16 8.58 11.68
4/5/2024 7:15:00 PM 7.58 45.644 0.068 7.15 8.17 11.67
4/5/2024 7:30:00 PM 7.54 45.572 0.068 7.18 8.67 11.64
4/5/2024 7:45:00 PM 7.49 45.482 0.068 7.16 8.26 11.63
4/5/2024 8:00:00 PM 7.46 45.428 0.068 7.14 8.44 11.62
4/5/2024 8:15:00 PM 7.4 45.32 0.069 7.13 8.6 11.62
4/5/2024 8:30:00 PM 7.34 45.212 0.069 7.15 8.49 11.62
4/5/2024 8:45:00 PM 7.29 45.122 0.069 7.13 8.81 11.62
4/5/2024 9:00:00 PM 7.24 45.032 0.069 7.12 8.92 11.62
4/5/2024 9:15:00 PM 7.18 44.924 0.069 7.13 8.84 11.63
4/5/2024 9:30:00 PM 7.12 44.816 0.069 7.12 9.11 11.65
4/5/2024 9:45:00 PM 7.05 44.69 0.069 7.14 8.61 11.66
4/5/2024 10:00:00 PM 6.99 44.582 0.069 7.13 9.29 11.67
4/5/2024 10:15:00 PM 6.94 44.492 0.069 7.12 9.2 11.66
4/5/2024 10:30:00 PM 6.89 44.402 0.069 7.11 9.17 11.66
4/5/2024 10:45:00 PM 6.85 44.33 0.069 7.12 8.91 11.71
4/5/2024 11:00:00 PM 6.81 44.258 0.069 7.11 9.06 11.72
4/5/2024 11:15:00 PM 6.78 44.204 0.069 7.1 9.36 11.73
4/5/2024 11:30:00 PM 6.74 44.132 0.069 7.1 9.13 11.74
4/5/2024 11:45:00 PM 6.7 44.06 0.069 7.11 8.84 11.76
4/6/2024 12:00:00 AM 6.66 43.988 0.069 7.11 9.07 11.77
4/6/2024 12:15:00 AM 6.63 43.934 0.069 7.11 8.63 11.79
4/6/2024 12:30:00 AM 6.59 43.862 0.07 7.11 8.9 11.8
4/6/2024 12:45:00 AM 6.56 43.808 0.07 7.1 8.82 11.81
4/6/2024 1:00:00 AM 6.53 43.754 0.07 7.09 8.36 11.82
4/6/2024 1:15:00 AM 6.51 43.718 0.07 7.13 8.86 11.83
4/6/2024 1:30:00 AM 6.49 43.682 0.07 7.12 8.43 11.83
4/6/2024 1:45:00 AM 6.46 43.628 0.07 7.11 9.15 11.85
4/6/2024 2:00:00 AM 6.43 43.574 0.07 7.11 8.65 11.85
4/6/2024 2:15:00 AM 6.4 43.52 0.07 7.11 8.66 11.86
4/6/2024 2:30:00 AM 6.37 43.466 0.07 7.11 8.61 11.87
4/6/2024 2:45:00 AM 6.33 43.394 0.07 7.09 8.43 11.88
4/6/2024 3:00:00 AM 6.3 43.34 0.07 7.12 8.04 11.89
4/6/2024 3:15:00 AM 6.27 43.286 0.07 7.11 8.27 11.9
4/6/2024 3:30:00 AM 6.24 43.232 0.07 7.11 8.28 11.9
4/6/2024 3:45:00 AM 6.23 43.214 0.07 7.11 8.52 11.91
4/6/2024 4:00:00 AM 6.21 43.178 0.07 7.11 8.28 11.92
4/6/2024 4:15:00 AM 6.2 43.16 0.07 7.09 8.12 11.92
4/6/2024 4:30:00 AM 6.19 43.142 0.07 7.13 7.88 11.94
4/6/2024 4:45:00 AM 6.17 43.106 0.07 7.12 8.25 11.94
4/6/2024 5:00:00 AM 6.15 43.07 0.07 7.1 8.17 11.94
4/6/2024 5:15:00 AM 6.13 43.034 0.07 7.09 8.05 11.95
4/6/2024 5:30:00 AM 6.11 42.998 0.07 7.09 7.83 11.95
4/6/2024 5:45:00 AM 6.1 42.98 0.07 7.13 8.54 11.96
4/6/2024 6:00:00 AM 6.08 42.944 0.07 7.09 7.93 11.95
4/6/2024 6:15:00 AM 6.07 42.926 0.07 7.1 8.06 11.97
4/6/2024 6:30:00 AM 6.06 42.908 0.07 7.12 7.87 11.98
4/6/2024 6:45:00 AM 6.04 42.872 0.071 7.13 7.87 11.98
4/6/2024 7:00:00 AM 6.04 42.872 0.071 7.12 7.41 11.99
4/6/2024 7:15:00 AM 6.02 42.836 0.071 7.12 7.73 12
4/6/2024 7:30:00 AM 6.01 42.818 0.071 7.12 7.63 12.02
4/6/2024 7:45:00 AM 5.99 42.782 0.071 7.11 8.15 12.03
4/6/2024 8:00:00 AM 5.99 42.782 0.071 7.11 7.82 12.06
4/6/2024 8:15:00 AM 6 42.8 0.071 7.12 7.04 12.09
4/6/2024 8:30:00 AM 6.01 42.818 0.071 7.14 7.21 12.12
4/6/2024 8:45:00 AM 6.03 42.854 0.071 7.15 7.36 12.14
4/6/2024 9:00:00 AM 6.07 42.926 0.071 7.17 7.14 12.17
4/6/2024 9:15:00 AM 6.13 43.034 0.071 7.15 7.22 12.19
4/6/2024 9:30:00 AM 6.15 43.07 0.071 7.19 6.96 12.21
4/6/2024 9:45:00 AM 6.21 43.178 0.071 7.18 6.88 12.22
4/6/2024 10:00:00 AM 6.23 43.214 0.071 7.18 6.56 12.23
4/6/2024 10:15:00 AM 6.31 43.358 0.07 7.2 6.84 12.24
4/6/2024 10:30:00 AM 6.39 43.502 0.07 7.21 6.75 12.25
4/6/2024 10:45:00 AM 6.53 43.754 0.07 7.22 6.43 12.24
4/6/2024 11:00:00 AM 6.62 43.916 0.07 7.22 6.58 12.24
4/6/2024 11:15:00 AM 6.71 44.078 0.07 7.22 6.67 12.23
4/6/2024 11:30:00 AM 6.79 44.222 0.07 7.24 6.54 12.22
4/6/2024 11:45:00 AM 6.82 44.276 0.07 7.24 6.58 12.2
4/6/2024 12:00:00 PM 6.87 44.366 0.07 7.25 6.42 12.19
4/6/2024 12:15:00 PM 6.89 44.402 0.07 7.24 6.38 12.18
4/6/2024 12:30:00 PM 6.92 44.456 0.07 7.23 6.91 12.17
4/6/2024 12:45:00 PM 6.98 44.564 0.07 7.25 6.42 12.16
4/6/2024 1:00:00 PM 7.05 44.69 0.07 7.24 6.1 12.14
4/6/2024 1:15:00 PM 7.09 44.762 0.07 7.27 6.37 12.14
4/6/2024 1:30:00 PM 7.12 44.816 0.07 7.24 6.41 12.11
4/6/2024 1:45:00 PM 7.16 44.888 0.07 7.24 6.52 12.11
4/6/2024 2:00:00 PM 7.19 44.942 0.07 7.26 6.49 12.09
4/6/2024 2:15:00 PM 7.21 44.978 0.07 7.25 6.29 12.07
4/6/2024 2:30:00 PM 7.3 45.14 0.07 7.25 6.44 12.06
4/6/2024 2:45:00 PM 7.36 45.248 0.07 7.25 6.16 12.04
4/6/2024 3:00:00 PM 7.44 45.392 0.07 7.27 5.87 12.03
4/6/2024 3:15:00 PM 7.47 45.446 0.07 7.25 6.03 12
4/6/2024 3:30:00 PM 7.51 45.518 0.07 7.25 6.42 11.98
4/6/2024 3:45:00 PM 7.56 45.608 0.07 7.26 6.1 11.96
4/6/2024 4:00:00 PM 7.57 45.626 0.07 7.26 6.23 11.92
4/6/2024 4:15:00 PM 7.6 45.68 0.07 7.26 6.2 11.9
4/6/2024 4:30:00 PM 7.63 45.734 0.07 7.24 6.33 11.88
4/6/2024 4:45:00 PM 7.66 45.788 0.07 7.25 6.09 11.86
4/6/2024 5:00:00 PM 7.67 45.806 0.07 7.24 6.15 11.84
4/6/2024 5:15:00 PM 7.68 45.824 0.07 7.24 6.07 11.83
4/6/2024 5:30:00 PM 7.69 45.842 0.07 7.24 6.24 11.81
4/6/2024 5:45:00 PM 7.73 45.914 0.07 7.23 6.14 11.81
4/6/2024 6:00:00 PM 7.72 45.896 0.07 7.25 6.28 11.79
4/6/2024 6:15:00 PM 7.73 45.914 0.07 7.24 6.74 11.77
4/6/2024 6:30:00 PM 7.75 45.95 0.07 7.23 7.64 11.75
4/6/2024 6:45:00 PM 7.75 45.95 0.07 7.21 6.72 11.72
4/6/2024 7:00:00 PM 7.75 45.95 0.07 7.23 6.39 11.7
4/6/2024 7:15:00 PM 7.74 45.932 0.071 7.21 6.47 11.68
4/6/2024 7:30:00 PM 7.73 45.914 0.071 7.19 6.5 11.66
4/6/2024 7:45:00 PM 7.71 45.878 0.071 7.2 6.69 11.63
4/6/2024 8:00:00 PM 7.69 45.842 0.071 7.18 6.62 11.62
4/6/2024 8:15:00 PM 7.68 45.824 0.071 7.19 6.7 11.6
4/6/2024 8:30:00 PM 7.66 45.788 0.071 7.19 7.05 11.6
4/6/2024 8:45:00 PM 7.64 45.752 0.071 7.18 6.78 11.59
4/6/2024 9:00:00 PM 7.62 45.716 0.071 7.15 6.69 11.59
4/6/2024 9:15:00 PM 7.61 45.698 0.071 7.17 7.16 11.58
4/6/2024 9:30:00 PM 7.6 45.68 0.071 7.17 7 11.57
4/6/2024 9:45:00 PM 7.58 45.644 0.071 7.15 7.06 11.57
4/6/2024 10:00:00 PM 7.56 45.608 0.071 7.14 6.96 11.57
4/6/2024 10:15:00 PM 7.54 45.572 0.071 7.16 6.91 11.58
4/6/2024 10:30:00 PM 7.51 45.518 0.071 7.15 7.21 11.58
4/6/2024 10:45:00 PM 7.49 45.482 0.071 7.15 6.81 11.59
4/6/2024 11:00:00 PM 7.47 45.446 0.072 7.14 7.08 11.59
4/6/2024 11:15:00 PM 7.44 45.392 0.072 7.14 7.12 11.6
4/6/2024 11:30:00 PM 7.42 45.356 0.072 7.14 7.1 11.6
4/6/2024 11:45:00 PM 7.4 45.32 0.072 7.13 7.27 11.61
4/7/2024 12:00:00 AM 7.37 45.266 0.072 7.12 7.11 11.63
4/7/2024 12:15:00 AM 7.35 45.23 0.072 7.15 7.31 11.63
4/7/2024 12:30:00 AM 7.32 45.176 0.072 7.13 7.08 11.64
4/7/2024 12:45:00 AM 7.3 45.14 0.072 7.14 6.87 11.65
4/7/2024 1:00:00 AM 7.28 45.104 0.072 7.16 7.12 11.65
4/7/2024 1:15:00 AM 7.26 45.068 0.072 7.15 7.08 11.66
4/7/2024 1:30:00 AM 7.24 45.032 0.072 7.14 7.02 11.67
4/7/2024 1:45:00 AM 7.22 44.996 0.072 7.14 6.77 11.67
4/7/2024 2:00:00 AM 7.19 44.942 0.072 7.13 6.84 11.68
4/7/2024 2:15:00 AM 7.17 44.906 0.072 7.13 7.02 11.69
4/7/2024 2:30:00 AM 7.15 44.87 0.072 7.13 6.94 11.7
4/7/2024 2:45:00 AM 7.12 44.816 0.072 7.14 7.14 11.7
4/7/2024 3:00:00 AM 7.1 44.78 0.072 7.12 6.71 11.71
4/7/2024 3:15:00 AM 7.08 44.744 0.072 7.15 6.8 11.72
4/7/2024 3:30:00 AM 7.05 44.69 0.073 7.13 6.91 11.73
4/7/2024 3:45:00 AM 7.02 44.636 0.073 7.13 6.94 11.73
4/7/2024 4:00:00 AM 6.99 44.582 0.073 7.12 6.64 11.74
4/7/2024 4:15:00 AM 6.96 44.528 0.073 7.12 6.53 11.75
4/7/2024 4:30:00 AM 6.94 44.492 0.073 7.11 6.8 11.76
4/7/2024 4:45:00 AM 6.91 44.438 0.073 7.14 6.54 11.77
4/7/2024 5:00:00 AM 6.89 44.402 0.073 7.11 6.72 11.77
4/7/2024 5:15:00 AM 6.86 44.348 0.073 7.13 6.71 11.78
4/7/2024 5:30:00 AM 6.84 44.312 0.073 7.13 6.38 11.79
4/7/2024 5:45:00 AM 6.81 44.258 0.073 7.13 6.51 11.8
4/7/2024 6:00:00 AM 6.78 44.204 0.073 7.11 6.49 11.81
4/7/2024 6:15:00 AM 6.74 44.132 0.073 7.15 6.85 11.82
4/7/2024 6:30:00 AM 6.7 44.06 0.073 7.12 6.5 11.83
4/7/2024 6:45:00 AM 6.66 43.988 0.073 7.15 6.67 11.85
4/7/2024 7:00:00 AM 6.61 43.898 0.073 7.14 7.05 11.86
4/7/2024 7:15:00 AM 6.58 43.844 0.073 7.13 6.54 11.89
4/7/2024 7:30:00 AM 6.55 43.79 0.073 7.12 6.47 11.92
4/7/2024 7:45:00 AM 6.53 43.754 0.073 7.14 6.32 11.95
4/7/2024 8:00:00 AM 6.52 43.736 0.073 7.14 6.7 11.99
4/7/2024 8:15:00 AM 6.52 43.736 0.073 7.17 6.24 12.02
4/7/2024 8:30:00 AM 6.52 43.736 0.073 7.15 6.12 12.05
4/7/2024 8:45:00 AM 6.54 43.772 0.073 7.18 5.88 12.09
4/7/2024 9:00:00 AM 6.57 43.826 0.073 7.17 5.98 12.11
4/7/2024 9:15:00 AM 6.62 43.916 0.073 7.19 6.06 12.13
4/7/2024 9:30:00 AM 6.68 44.024 0.073 7.2 5.9 12.15
4/7/2024 9:45:00 AM 6.73 44.114 0.073 7.2 5.82 12.16
4/7/2024 10:00:00 AM 6.82 44.276 0.073 7.22 5.81 12.17
4/7/2024 10:15:00 AM 6.97 44.546 0.073 7.24 5.83 12.17
4/7/2024 10:30:00 AM 7.11 44.798 0.073 7.24 5.84 12.18
4/7/2024 10:45:00 AM 7.27 45.086 0.073 7.24 5.61 12.17
4/7/2024 11:00:00 AM 7.46 45.428 0.073 7.27 5.54 12.15
4/7/2024 11:15:00 AM 7.64 45.752 0.073 7.26 5.43 12.13
4/7/2024 11:30:00 AM 7.8 46.04 0.073 7.29 5.58 12.11
4/7/2024 11:45:00 AM 7.96 46.328 0.073 7.29 5.35 12.08
4/7/2024 12:00:00 PM 8.1 46.58 0.073 7.29 5.5 12.05
4/7/2024 12:15:00 PM 8.27 46.886 0.073 7.29 5.35 12.03
4/7/2024 12:30:00 PM 8.48 47.264 0.073 7.29 5.34 11.99
4/7/2024 12:45:00 PM 8.72 47.696 0.073 7.29 5.35 11.96
4/7/2024 1:00:00 PM 8.97 48.146 0.073 7.3 5.3 11.9
4/7/2024 1:15:00 PM 9.22 48.596 0.073 7.3 5.41 11.83
4/7/2024 1:30:00 PM 9.49 49.082 0.073 7.3 5.8 11.78
4/7/2024 1:45:00 PM 9.72 49.496 0.073 7.31 5.43 11.71
4/7/2024 2:00:00 PM 9.96 49.928 0.073 7.3 5.47 11.65
4/7/2024 2:15:00 PM 10.18 50.324 0.073 7.3 5.47 11.58
4/7/2024 2:30:00 PM 10.39 50.702 0.072 7.31 5.46 11.52
4/7/2024 2:45:00 PM 10.57 51.026 0.072 7.31 5.38 11.46
4/7/2024 3:00:00 PM 10.76 51.368 0.072 7.32 5.33 11.39
4/7/2024 3:15:00 PM 10.94 51.692 0.072 7.32 5.32 11.32
4/7/2024 3:30:00 PM 11.08 51.944 0.072 7.32 5.19 11.27
4/7/2024 3:45:00 PM 11.23 52.214 0.072 7.31 5.47 11.21
4/7/2024 4:00:00 PM 11.33 52.394 0.072 7.31 5.65 11.15
4/7/2024 4:15:00 PM 11.43 52.574 0.072 7.31 6.17 11.1
4/7/2024 4:30:00 PM 11.5 52.7 0.072 7.31 5.29 11.06
4/7/2024 4:45:00 PM 11.56 52.808 0.072 7.32 5.4 11.02
4/7/2024 5:00:00 PM 11.59 52.862 0.072 7.3 5.46 10.97
4/7/2024 5:15:00 PM 11.59 52.862 0.072 7.3 5.31 10.94
4/7/2024 5:30:00 PM 11.59 52.862 0.072 7.31 5.52 10.9
4/7/2024 5:45:00 PM 11.58 52.844 0.072 7.3 5.68 10.88
4/7/2024 6:00:00 PM 11.54 52.772 0.072 7.3 5.41 10.85
4/7/2024 6:15:00 PM 11.49 52.682 0.073 7.28 5.68 10.83
4/7/2024 6:30:00 PM 11.43 52.574 0.073 7.28 5.71 10.82
4/7/2024 6:45:00 PM 11.36 52.448 0.073 7.27 9.01 10.8
4/7/2024 7:00:00 PM 11.27 52.286 0.073 7.27 5.68 10.78
4/7/2024 7:15:00 PM 11.17 52.106 0.073 7.26 6.19 10.78
4/7/2024 7:30:00 PM 11.05 51.89 0.073 7.25 5.65 10.78
4/7/2024 7:45:00 PM 10.93 51.674 0.073 7.23 7.5 10.78
4/7/2024 8:00:00 PM 10.81 51.458 0.073 7.21 9.93 10.78
4/7/2024 8:15:00 PM 10.68 51.224 0.073 7.2 5.99 10.78
4/7/2024 8:30:00 PM 10.55 50.99 0.073 7.21 5.9 10.79
4/7/2024 8:45:00 PM 10.43 50.774 0.073 7.2 6.05 10.8
4/7/2024 9:00:00 PM 10.3 50.54 0.073 7.19 6.2 10.82
4/7/2024 9:15:00 PM 10.17 50.306 0.074 7.17 6.08 10.83
4/7/2024 9:30:00 PM 10.04 50.072 0.074 7.16 6.14 10.85
4/7/2024 9:45:00 PM 9.91 49.838 0.074 7.16 6.11 10.88
4/7/2024 10:00:00 PM 9.77 49.586 0.074 7.16 6.38 10.91
4/7/2024 10:15:00 PM 9.65 49.37 0.074 7.16 6.13 10.94
4/7/2024 10:30:00 PM 9.52 49.136 0.074 7.16 6.18 10.96
4/7/2024 10:45:00 PM 9.4 48.92 0.074 7.16 6.21 11
4/7/2024 11:00:00 PM 9.28 48.704 0.074 7.17 6.18 11.02
4/7/2024 11:15:00 PM 9.17 48.506 0.074 7.15 6.29 11.05
4/7/2024 11:30:00 PM 9.05 48.29 0.074 7.16 6.38 11.09
4/7/2024 11:45:00 PM 8.93 48.074 0.074 7.16 6.41 11.12
4/8/2024 12:00:00 AM 8.82 47.876 0.074 7.16 6.48 11.15
4/8/2024 12:15:00 AM 8.71 47.678 0.074 7.15 6.6 11.19
4/8/2024 12:30:00 AM 8.6 47.48 0.074 7.14 6.29 11.22
4/8/2024 12:45:00 AM 8.49 47.282 0.074 7.15 6.31 11.25
4/8/2024 1:00:00 AM 8.38 47.084 0.074 7.16 6.47 11.28
4/8/2024 1:15:00 AM 8.28 46.904 0.074 7.16 6.37 11.31
4/8/2024 1:30:00 AM 8.17 46.706 0.075 7.14 6.4 11.34
4/8/2024 1:45:00 AM 8.07 46.526 0.075 7.16 6.25 11.38
4/8/2024 2:00:00 AM 7.96 46.328 0.075 7.15 6.42 11.41
4/8/2024 2:15:00 AM 7.87 46.166 0.075 7.15 6.2 11.44
4/8/2024 2:30:00 AM 7.77 45.986 0.075 7.16 6.47 11.47
4/8/2024 2:45:00 AM 7.67 45.806 0.075 7.16 6.22 11.5
4/8/2024 3:00:00 AM 7.59 45.662 0.075 7.16 6.13 11.53
4/8/2024 3:15:00 AM 7.5 45.5 0.075 7.16 6.38 11.56
4/8/2024 3:30:00 AM 7.41 45.338 0.075 7.16 6.34 11.58
4/8/2024 3:45:00 AM 7.32 45.176 0.075 7.15 6.31 11.61
4/8/2024 4:00:00 AM 7.24 45.032 0.075 7.16 6.2 11.64
4/8/2024 4:15:00 AM 7.17 44.906 0.075 7.17 6.39 11.66
4/8/2024 4:30:00 AM 7.09 44.762 0.075 7.16 6.38 11.69
4/8/2024 4:45:00 AM 7 44.6 0.075 7.14 6.14 11.71
4/8/2024 5:00:00 AM 6.92 44.456 0.075 7.17 6.13 11.74
4/8/2024 5:15:00 AM 6.84 44.312 0.075 7.16 6.04 11.77
4/8/2024 5:30:00 AM 6.76 44.168 0.075 7.15 6.14 11.8
4/8/2024 5:45:00 AM 6.69 44.042 0.076 7.15 6 11.82
4/8/2024 6:00:00 AM 6.61 43.898 0.076 7.15 5.73 11.85
4/8/2024 6:15:00 AM 6.54 43.772 0.075 7.16 6.38 11.87
4/8/2024 6:30:00 AM 6.47 43.646 0.075 7.18 6.03 11.9
4/8/2024 6:45:00 AM 6.39 43.502 0.075 7.16 5.81 11.92
4/8/2024 7:00:00 AM 6.32 43.376 0.075 7.15 5.82 11.95
4/8/2024 7:15:00 AM 6.26 43.268 0.075 7.15 5.69 11.99
4/8/2024 7:30:00 AM 6.21 43.178 0.075 7.18 5.73 12.03
4/8/2024 7:45:00 AM 6.17 43.106 0.075 7.16 5.41 12.08
4/8/2024 8:00:00 AM 6.14 43.052 0.075 7.18 5.49 12.13
4/8/2024 8:15:00 AM 6.13 43.034 0.075 7.18 5.57 12.18
4/8/2024 8:30:00 AM 6.11 42.998 0.075 7.19 5.59 12.22
4/8/2024 8:45:00 AM 6.11 42.998 0.075 7.2 5.52 12.26
4/8/2024 9:00:00 AM 6.13 43.034 0.075 7.22 5.33 12.29
4/8/2024 9:15:00 AM 6.16 43.088 0.075 7.24 5.18 12.33
4/8/2024 9:30:00 AM 6.24 43.232 0.075 7.23 5.1 12.35
4/8/2024 9:45:00 AM 6.32 43.376 0.075 7.23 5.13 12.37
4/8/2024 10:00:00 AM 6.42 43.556 0.075 7.27 5.05 12.39
4/8/2024 10:15:00 AM 6.49 43.682 0.075 7.28 5.05 12.4
4/8/2024 10:30:00 AM 6.63 43.934 0.075 7.28 5.05 12.39
4/8/2024 10:45:00 AM 6.74 44.132 0.075 7.28 5.01 12.39
4/8/2024 11:00:00 AM 6.93 44.474 0.075 7.32 4.89 12.38
4/8/2024 11:15:00 AM 7.04 44.672 0.075 7.32 4.98 12.37
4/8/2024 11:30:00 AM 7.18 44.924 0.075 7.33 5 12.34
4/8/2024 11:45:00 AM 7.28 45.104 0.075 7.33 5.14 12.31
4/8/2024 12:00:00 PM 7.43 45.374 0.075 7.33 4.89 12.29
4/8/2024 12:15:00 PM 7.54 45.572 0.075 7.34 4.75 12.25
4/8/2024 12:30:00 PM 7.63 45.734 0.075 7.35 4.9 12.21
4/8/2024 12:45:00 PM 7.72 45.896 0.075 7.34 4.69 12.18
4/8/2024 1:00:00 PM 7.79 46.022 0.075 7.34 4.78 12.14
4/8/2024 1:15:00 PM 7.91 46.238 0.075 7.36 4.72 12.11
4/8/2024 1:30:00 PM 8.11 46.598 0.075 7.37 4.46 12.08
4/8/2024 1:45:00 PM 8.3 46.94 0.075 7.36 4.68 12.05
4/8/2024 2:00:00 PM 8.4 47.12 0.075 7.35 4.71 12.01
4/8/2024 2:15:00 PM 8.5 47.3 0.075 7.37 4.76 11.98
4/8/2024 2:30:00 PM 8.56 47.408 0.075 7.38 4.62 11.92
4/8/2024 2:45:00 PM 8.6 47.48 0.075 7.35 4.7 11.87
4/8/2024 3:00:00 PM 8.63 47.534 0.074 7.35 4.68 11.82
4/8/2024 3:15:00 PM 8.65 47.57 0.074 7.33 4.65 11.75
4/8/2024 3:30:00 PM 8.67 47.606 0.074 7.33 4.75 11.68
4/8/2024 3:45:00 PM 8.7 47.66 0.074 7.32 4.68 11.64
4/8/2024 4:00:00 PM 8.75 47.75 0.074 7.3 4.74 11.62
4/8/2024 4:15:00 PM 8.82 47.876 0.074 7.32 4.82 11.61
4/8/2024 4:30:00 PM 8.88 47.984 0.074 7.32 4.63 11.61
4/8/2024 4:45:00 PM 8.91 48.038 0.074 7.33 4.73 11.61
4/8/2024 5:00:00 PM 8.95 48.11 0.074 7.33 4.72 11.61
4/8/2024 5:15:00 PM 8.99 48.182 0.074 7.32 4.93 11.61
4/8/2024 5:30:00 PM 9.01 48.218 0.074 7.33 4.9 11.6
4/8/2024 5:45:00 PM 9.04 48.272 0.074 7.32 4.85 11.59
4/8/2024 6:00:00 PM 9.04 48.272 0.074 7.32 4.89 11.57
4/8/2024 6:15:00 PM 9.07 48.326 0.074 7.31 4.99 11.55
4/8/2024 6:30:00 PM 9.07 48.326 0.074 7.32 4.81 11.52
4/8/2024 6:45:00 PM 9.07 48.326 0.074 7.32 4.94 11.48
4/8/2024 7:00:00 PM 9.07 48.326 0.075 7.3 4.88 11.45
4/8/2024 7:15:00 PM 9.07 48.326 0.075 7.28 4.77 11.41
4/8/2024 7:30:00 PM 9.07 48.326 0.075 7.27 4.86 11.37
4/8/2024 7:45:00 PM 9.06 48.308 0.075 7.27 4.88 11.34
4/8/2024 8:00:00 PM 9.04 48.272 0.075 7.25 4.98 11.31
4/8/2024 8:15:00 PM 9.02 48.236 0.075 7.24 5.02 11.29
4/8/2024 8:30:00 PM 9 48.2 0.075 7.22 5.24 11.27
4/8/2024 8:45:00 PM 8.98 48.164 0.075 7.22 5.19 11.26
4/8/2024 9:00:00 PM 8.97 48.146 0.075 7.21 5.2 11.24
4/8/2024 9:15:00 PM 8.94 48.092 0.075 7.21 5.13 11.23
4/8/2024 9:30:00 PM 8.93 48.074 0.075 7.2 5.13 11.22
4/8/2024 9:45:00 PM 8.91 48.038 0.075 7.19 5.43 11.22
4/8/2024 10:00:00 PM 8.89 48.002 0.076 7.18 5.34 11.21
4/8/2024 10:15:00 PM 8.87 47.966 0.076 7.18 5.38 11.21
4/8/2024 10:30:00 PM 8.85 47.93 0.076 7.18 5.29 11.21
4/8/2024 10:45:00 PM 8.82 47.876 0.076 7.17 5.24 11.21
4/8/2024 11:00:00 PM 8.78 47.804 0.076 7.18 5.45 11.21
4/8/2024 11:15:00 PM 8.74 47.732 0.076 7.18 5.26 11.21
4/8/2024 11:30:00 PM 8.7 47.66 0.076 7.17 5.39 11.22
4/8/2024 11:45:00 PM 8.65 47.57 0.076 7.16 5.38 11.23
4/9/2024 12:00:00 AM 8.6 47.48 0.076 7.15 5.35 11.23
4/9/2024 12:15:00 AM 8.54 47.372 0.076 7.17 5.23 11.24
4/9/2024 12:30:00 AM 8.49 47.282 0.076 7.17 5.34 11.26
4/9/2024 12:45:00 AM 8.43 47.174 0.076 7.16 5.33 11.27
4/9/2024 1:00:00 AM 8.38 47.084 0.076 7.15 5.37 11.29
4/9/2024 1:15:00 AM 8.32 46.976 0.076 7.16 5.32 11.3
4/9/2024 1:30:00 AM 8.26 46.868 0.076 7.16 5.22 11.32
4/9/2024 1:45:00 AM 8.21 46.778 0.076 7.17 5.33 11.33
4/9/2024 2:00:00 AM 8.15 46.67 0.076 7.18 5.33 11.35
4/9/2024 2:15:00 AM 8.09 46.562 0.076 7.17 5.35 11.36
4/9/2024 2:30:00 AM 8.03 46.454 0.076 7.16 5.28 11.38
4/9/2024 2:45:00 AM 7.97 46.346 0.076 7.15 5.34 11.4
4/9/2024 3:00:00 AM 7.91 46.238 0.076 7.17 5.33 11.41
4/9/2024 3:15:00 AM 7.85 46.13 0.076 7.16 5.29 11.43
4/9/2024 3:30:00 AM 7.79 46.022 0.076 7.16 5.32 11.44
4/9/2024 3:45:00 AM 7.72 45.896 0.076 7.15 5.38 11.46
4/9/2024 4:00:00 AM 7.66 45.788 0.077 7.18 5.28 11.48
4/9/2024 4:15:00 AM 7.59 45.662 0.077 7.18 5.37 11.5
4/9/2024 4:30:00 AM 7.53 45.554 0.077 7.19 5.43 11.52
4/9/2024 4:45:00 AM 7.46 45.428 0.077 7.17 5.5 11.54
4/9/2024 5:00:00 AM 7.39 45.302 0.077 7.15 5.61 11.56
4/9/2024 5:15:00 AM 7.33 45.194 0.077 7.17 5.34 11.58
4/9/2024 5:30:00 AM 7.26 45.068 0.077 7.15 5.21 11.6
4/9/2024 5:45:00 AM 7.2 44.96 0.077 7.17 6.31 11.62
4/9/2024 6:00:00 AM 7.14 44.852 0.077 7.17 7.12 11.64
4/9/2024 6:15:00 AM 7.07 44.726 0.077 7.18 5.19 11.66
4/9/2024 6:30:00 AM 7.01 44.618 0.077 7.18 5.12 11.69
4/9/2024 6:45:00 AM 6.95 44.51 0.077 7.17 5.7 11.71
4/9/2024 7:00:00 AM 6.89 44.402 0.077 7.16 5.11 11.73
4/9/2024 7:15:00 AM 6.84 44.312 0.077 7.18 5.03 11.78
4/9/2024 7:30:00 AM 6.8 44.24 0.077 7.17 4.99 11.82
4/9/2024 7:45:00 AM 6.77 44.186 0.077 7.21 5.96 11.87
4/9/2024 8:00:00 AM 6.74 44.132 0.077 7.2 5.34 11.91
4/9/2024 8:15:00 AM 6.74 44.132 0.077 7.2 5.72 11.96
4/9/2024 8:30:00 AM 6.75 44.15 0.077 7.24 5.38 12
4/9/2024 8:45:00 AM 6.77 44.186 0.077 7.23 5.3 12.05
4/9/2024 9:00:00 AM 6.8 44.24 0.077 7.24 5.34 12.09
4/9/2024 9:15:00 AM 6.86 44.348 0.077 7.27 5.14 12.12
4/9/2024 9:30:00 AM 6.93 44.474 0.077 7.27 4.6 12.15
4/9/2024 9:45:00 AM 7.02 44.636 0.077 7.28 5.85 12.16
4/9/2024 10:00:00 AM 7.13 44.834 0.077 7.29 5.55 12.18
4/9/2024 10:15:00 AM 7.25 45.05 0.077 7.3 5.19 12.18
4/9/2024 10:30:00 AM 7.4 45.32 0.077 7.3 4.58 12.17
4/9/2024 10:45:00 AM 7.58 45.644 0.077 7.33 4.68 12.17
4/9/2024 11:00:00 AM 7.73 45.914 0.077 7.33 4.92 12.16
4/9/2024 11:15:00 AM 7.92 46.256 0.077 7.34 4.54 12.14
4/9/2024 11:30:00 AM 8.12 46.616 0.077 7.34 4.47 12.12
4/9/2024 11:45:00 AM 8.37 47.066 0.076 7.36 4.41 12.08
4/9/2024 12:00:00 PM 8.62 47.516 0.076 7.37 4.54 12.04
4/9/2024 12:15:00 PM 8.87 47.966 0.076 7.37 4.58 11.99
4/9/2024 12:30:00 PM 9.13 48.434 0.076 7.37 4.41 11.94
4/9/2024 12:45:00 PM 9.44 48.992 0.076 7.39 4.33 11.88
4/9/2024 1:00:00 PM 9.73 49.514 0.076 7.39 4.23 11.83
4/9/2024 1:15:00 PM 10.04 50.072 0.076 7.4 4.29 11.77
4/9/2024 1:30:00 PM 10.29 50.522 0.076 7.4 4.35 11.69
4/9/2024 1:45:00 PM 10.5 50.9 0.076 7.39 4.27 11.62
4/9/2024 2:00:00 PM 10.76 51.368 0.076 7.41 4.28 11.56
4/9/2024 2:15:00 PM 11.07 51.926 0.076 7.42 4.23 11.48
4/9/2024 2:30:00 PM 11.3 52.34 0.076 7.42 4.44 11.42
4/9/2024 2:45:00 PM 11.51 52.718 0.076 7.41 4.38 11.35
4/9/2024 3:00:00 PM 11.74 53.132 0.076 7.42 4.3 11.28
4/9/2024 3:15:00 PM 11.89 53.402 0.076 7.41 4.34 11.2
4/9/2024 3:30:00 PM 12.04 53.672 0.076 7.41 4.18 11.14
4/9/2024 3:45:00 PM 12.19 53.942 0.076 7.42 4.4 11.08
4/9/2024 4:00:00 PM 12.31 54.158 0.076 7.42 4.37 11.01
4/9/2024 4:15:00 PM 12.44 54.392 0.075 7.42 4.27 10.95
4/9/2024 4:30:00 PM 12.56 54.608 0.075 7.42 4.35 10.89
4/9/2024 4:45:00 PM 12.67 54.806 0.075 7.42 4.6 10.84
4/9/2024 5:00:00 PM 12.74 54.932 0.075 7.41 4.28 10.78
4/9/2024 5:15:00 PM 12.81 55.058 0.075 7.41 4.05 10.74
4/9/2024 5:30:00 PM 12.89 55.202 0.075 7.41 4.17 10.69
4/9/2024 5:45:00 PM 12.95 55.31 0.075 7.41 6.28 10.64
4/9/2024 6:00:00 PM 13.01 55.418 0.075 7.4 4.48 10.6
4/9/2024 6:15:00 PM 13.03 55.454 0.075 7.39 4.48 10.56
4/9/2024 6:30:00 PM 13.04 55.472 0.075 7.38 4.46 10.52
4/9/2024 6:45:00 PM 13.04 55.472 0.076 7.37 4.4 10.47
4/9/2024 7:00:00 PM 13.01 55.418 0.076 7.36 4.66 10.43
4/9/2024 7:15:00 PM 12.98 55.364 0.076 7.34 4.69 10.38
4/9/2024 7:30:00 PM 12.93 55.274 0.076 7.32 4.65 10.33
4/9/2024 7:45:00 PM 12.87 55.166 0.076 7.3 4.73 10.3
4/9/2024 8:00:00 PM 12.81 55.058 0.076 7.29 4.5 10.27
4/9/2024 8:15:00 PM 12.74 54.932 0.076 7.27 4.54 10.24
4/9/2024 8:30:00 PM 12.66 54.788 0.076 7.25 4.73 10.22
4/9/2024 8:45:00 PM 12.57 54.626 0.076 7.22 5.06 10.22
4/9/2024 9:00:00 PM 12.49 54.482 0.076 7.22 4.83 10.21
4/9/2024 9:15:00 PM 12.4 54.32 0.076 7.21 4.93 10.21
4/9/2024 9:30:00 PM 12.31 54.158 0.076 7.19 5.21 10.2
4/9/2024 9:45:00 PM 12.22 53.996 0.077 7.18 4.88 10.22
4/9/2024 10:00:00 PM 12.13 53.834 0.077 7.18 4.99 10.23
4/9/2024 10:15:00 PM 12.05 53.69 0.077 7.18 5.1 10.25
4/9/2024 10:30:00 PM 11.97 53.546 0.077 7.18 5.72 10.25
4/9/2024 10:45:00 PM 11.89 53.402 0.077 7.17 5.09 10.27
4/9/2024 11:00:00 PM 11.8 53.24 0.077 7.17 5.11 10.28
4/9/2024 11:15:00 PM 11.73 53.114 0.077 7.16 5.07 10.3
4/9/2024 11:30:00 PM 11.65 52.97 0.077 7.18 5.17 10.31
4/9/2024 11:45:00 PM 11.57 52.826 0.077 7.17 5.12 10.33
4/10/2024 12:00:00 AM 11.5 52.7 0.077 7.17 5.04 10.35
4/10/2024 12:15:00 AM 11.43 52.574 0.078 7.16 4.86 10.37
4/10/2024 12:30:00 AM 11.36 52.448 0.078 7.17 5.24 10.38
4/10/2024 12:45:00 AM 11.29 52.322 0.078 7.17 5.08 10.4
4/10/2024 1:00:00 AM 11.23 52.214 0.078 7.17 5.04 10.41
4/10/2024 1:15:00 AM 11.17 52.106 0.078 7.16 5.05 10.43
4/10/2024 1:30:00 AM 11.11 51.998 0.078 7.15 4.99 10.45
4/10/2024 1:45:00 AM 11.05 51.89 0.078 7.15 4.99 10.46
4/10/2024 2:00:00 AM 11 51.8 0.078 7.17 5.09 10.48
4/10/2024 2:15:00 AM 10.94 51.692 0.078 7.17 5.01 10.49
4/10/2024 2:30:00 AM 10.89 51.602 0.078 7.16 5.03 10.5
4/10/2024 2:45:00 AM 10.83 51.494 0.078 7.16 4.91 10.52
4/10/2024 3:00:00 AM 10.78 51.404 0.078 7.15 4.9 10.54
4/10/2024 3:15:00 AM 10.72 51.296 0.078 7.16 5.14 10.55
4/10/2024 3:30:00 AM 10.66 51.188 0.078 7.16 4.89 10.56
4/10/2024 3:45:00 AM 10.6 51.08 0.078 7.15 5.24 10.58
4/10/2024 4:00:00 AM 10.54 50.972 0.078 7.18 17.71 10.58
4/10/2024 4:15:00 AM 10.49 50.882 0.078 7.16 4.77 10.61
4/10/2024 4:30:00 AM 10.44 50.792 0.078 7.14 5.17 10.62
4/10/2024 4:45:00 AM 10.4 50.72 0.078 7.17 4.93 10.64
4/10/2024 5:00:00 AM 10.36 50.648 0.079 7.16 4.99 10.65
4/10/2024 5:15:00 AM 10.33 50.594 0.079 7.16 5.08 10.66
4/10/2024 5:30:00 AM 10.29 50.522 0.079 7.17 4.73 10.67
4/10/2024 5:45:00 AM 10.25 50.45 0.079 7.16 4.83 10.69
4/10/2024 6:00:00 AM 10.2 50.36 0.079 7.16 4.79 10.7
4/10/2024 6:15:00 AM 10.16 50.288 0.079 7.15 4.87 10.71
4/10/2024 6:30:00 AM 10.12 50.216 0.079 7.16 4.74 10.72
4/10/2024 6:45:00 AM 10.08 50.144 0.079 7.17 4.74 10.74
4/10/2024 7:00:00 AM 10.04 50.072 0.079 7.17 4.77 10.77
4/10/2024 7:15:00 AM 10 50 0.079 7.17 4.6 10.8
4/10/2024 7:30:00 AM 9.97 49.946 0.079 7.17 5.31 10.84
4/10/2024 7:45:00 AM 9.96 49.928 0.079 7.18 5.06 10.87
4/10/2024 8:00:00 AM 9.94 49.892 0.079 7.19 5.01 10.9
4/10/2024 8:15:00 AM 9.92 49.856 0.079 7.2 4.75 10.91
4/10/2024 8:30:00 AM 9.92 49.856 0.079 7.2 9.01 10.94
4/10/2024 8:45:00 AM 9.92 49.856 0.079 7.2 7.59 10.98
4/10/2024 9:00:00 AM 9.91 49.838 0.079 7.2 5.41 11.01
4/10/2024 9:15:00 AM 9.91 49.838 0.079 7.23 5.03 11.02
4/10/2024 9:30:00 AM 9.92 49.856 0.079 7.23 4.69 11.07
4/10/2024 9:45:00 AM 9.95 49.91 0.079 7.24 4.83 11.12
4/10/2024 10:00:00 AM 9.99 49.982 0.079 7.25 4.71 11.14
4/10/2024 10:15:00 AM 10.01 50.018 0.079 7.28 4.45 11.17
4/10/2024 10:30:00 AM 10.02 50.036 0.079 7.29 4.48 11.19
4/10/2024 10:45:00 AM 10.04 50.072 0.079 7.28 4.54 11.2
4/10/2024 11:00:00 AM 10.07 50.126 0.079 7.3 4.36 11.21
4/10/2024 11:15:00 AM 10.1 50.18 0.079 7.3 4.36 11.23
4/10/2024 11:30:00 AM 10.12 50.216 0.079 7.32 4.48 11.23
4/10/2024 11:45:00 AM 10.13 50.234 0.079 7.32 5.06 11.23
4/10/2024 12:00:00 PM 10.13 50.234 0.079 7.32 4.57 11.2
4/10/2024 12:15:00 PM 10.15 50.27 0.078 7.32 4.78 11.19
4/10/2024 12:30:00 PM 10.18 50.324 0.078 7.31 4.58 11.2
4/10/2024 12:45:00 PM 10.19 50.342 0.078 7.34 4.44 11.19
4/10/2024 1:00:00 PM 10.21 50.378 0.078 7.34 4.83 11.19
4/10/2024 1:15:00 PM 10.24 50.432 0.078 7.34 4.72 11.2
4/10/2024 1:30:00 PM 10.26 50.468 0.078 7.34 4.58 11.2
4/10/2024 1:45:00 PM 10.29 50.522 0.078 7.34 4.65 11.2
4/10/2024 2:00:00 PM 10.32 50.576 0.078 7.35 4.63 11.21
4/10/2024 2:15:00 PM 10.37 50.666 0.078 7.36 4.77 11.22
4/10/2024 2:30:00 PM 10.48 50.864 0.078 7.37 4.79 11.24
4/10/2024 2:45:00 PM 10.59 51.062 0.078 7.37 4.73 11.25
4/10/2024 3:00:00 PM 10.73 51.314 0.078 7.4 4.69 11.26
4/10/2024 3:15:00 PM 10.84 51.512 0.078 7.41 4.73 11.26
4/10/2024 3:30:00 PM 10.93 51.674 0.078 7.42 4.9 11.25
4/10/2024 3:45:00 PM 10.97 51.746 0.078 7.42 4.64 11.22
4/10/2024 4:00:00 PM 11 51.8 0.078 7.41 4.58 11.16
4/10/2024 4:15:00 PM 11.01 51.818 0.078 7.4 4.37 11.1
4/10/2024 4:30:00 PM 11.03 51.854 0.078 7.38 4.27 11.06
4/10/2024 4:45:00 PM 11.06 51.908 0.078 7.38 4.4 11.04
4/10/2024 5:00:00 PM 11.08 51.944 0.078 7.38 4.37 11.02
4/10/2024 5:15:00 PM 11.13 52.034 0.078 7.38 4.38 11.02
4/10/2024 5:30:00 PM 11.18 52.124 0.078 7.39 4.4 11.02
4/10/2024 5:45:00 PM 11.21 52.178 0.078 7.39 4.25 11
4/10/2024 6:00:00 PM 11.26 52.268 0.078 7.4 4.49 11
4/10/2024 6:15:00 PM 11.25 52.25 0.078 7.39 4.33 10.97
4/10/2024 6:30:00 PM 11.26 52.268 0.078 7.39 4.36 10.95
4/10/2024 6:45:00 PM 11.27 52.286 0.078 7.37 4.45 10.92
4/10/2024 7:00:00 PM 11.28 52.304 0.077 7.36 4.46 10.88
4/10/2024 7:15:00 PM 11.28 52.304 0.077 7.35 4.41 10.84
4/10/2024 7:30:00 PM 11.28 52.304 0.077 7.34 4.42 10.79
4/10/2024 7:45:00 PM 11.28 52.304 0.077 7.32 4.8 10.74
4/10/2024 8:00:00 PM 11.28 52.304 0.077 7.31 4.92 10.7
4/10/2024 8:15:00 PM 11.27 52.286 0.078 7.29 4.51 10.65
4/10/2024 8:30:00 PM 11.25 52.25 0.078 7.28 4.57 10.62
4/10/2024 8:45:00 PM 11.23 52.214 0.078 7.27 4.36 10.6
4/10/2024 9:00:00 PM 11.2 52.16 0.078 7.25 4.87 10.58
4/10/2024 9:15:00 PM 11.17 52.106 0.078 7.23 5.13 10.56
4/10/2024 9:30:00 PM 11.13 52.034 0.078 7.22 4.57 10.55
4/10/2024 9:45:00 PM 11.1 51.98 0.078 7.2 5.31 10.55
4/10/2024 10:00:00 PM 11.06 51.908 0.078 7.19 4.73 10.54
4/10/2024 10:15:00 PM 11.03 51.854 0.078 7.2 4.63 10.54
4/10/2024 10:30:00 PM 11 51.8 0.078 7.19 4.67 10.54
4/10/2024 10:45:00 PM 10.97 51.746 0.078 7.18 4.97 10.54
4/10/2024 11:00:00 PM 10.94 51.692 0.078 7.18 4.47 10.54
4/10/2024 11:15:00 PM 10.92 51.656 0.078 7.17 4.87 10.54
4/10/2024 11:30:00 PM 10.9 51.62 0.078 7.16 4.61 10.54
4/10/2024 11:45:00 PM 10.88 51.584 0.079 7.17 4.7 10.54
4/11/2024 12:00:00 AM 10.86 51.548 0.079 7.16 4.51 10.53
4/11/2024 12:15:00 AM 10.84 51.512 0.079 7.15 4.68 10.54
4/11/2024 12:30:00 AM 10.82 51.476 0.079 7.16 4.65 10.55
4/11/2024 12:45:00 AM 10.8 51.44 0.079 7.16 4.65 10.55
4/11/2024 1:00:00 AM 10.78 51.404 0.079 7.16 4.72 10.56
4/11/2024 1:15:00 AM 10.76 51.368 0.079 7.15 4.65 10.55
4/11/2024 1:30:00 AM 10.74 51.332 0.079 7.17 4.61 10.57
4/11/2024 1:45:00 AM 10.73 51.314 0.079 7.17 4.81 10.57
4/11/2024 2:00:00 AM 10.71 51.278 0.079 7.17 4.64 10.58
4/11/2024 2:15:00 AM 10.69 51.242 0.079 7.18 4.73 10.58
4/11/2024 2:30:00 AM 10.67 51.206 0.08 7.17 4.69 10.58
4/11/2024 2:45:00 AM 10.66 51.188 0.08 7.17 4.67 10.58
4/11/2024 3:00:00 AM 10.65 51.17 0.08 7.18 4.65 10.58
4/11/2024 3:15:00 AM 10.64 51.152 0.08 7.18 4.74 10.59
4/11/2024 3:30:00 AM 10.63 51.134 0.08 7.19 5.03 10.58
4/11/2024 3:45:00 AM 10.62 51.116 0.08 7.2 4.6 10.59
4/11/2024 4:00:00 AM 10.61 51.098 0.08 7.19 4.94 10.59
4/11/2024 4:15:00 AM 10.6 51.08 0.08 7.2 4.7 10.59
4/11/2024 4:30:00 AM 10.59 51.062 0.08 7.21 4.71 10.59
4/11/2024 4:45:00 AM 10.58 51.044 0.08 7.2 4.73 10.59
4/11/2024 5:00:00 AM 10.57 51.026 0.08 7.21 4.78 10.59
4/11/2024 5:15:00 AM 10.56 51.008 0.08 7.21 4.79 10.59
4/11/2024 5:30:00 AM 10.55 50.99 0.08 7.2 5.4 10.59
4/11/2024 5:45:00 AM 10.55 50.99 0.08 7.2 4.74 10.6
4/11/2024 6:00:00 AM 10.55 50.99 0.08 7.2 4.87 10.59
4/11/2024 6:15:00 AM 10.55 50.99 0.08 7.22 4.61 10.59
4/11/2024 6:30:00 AM 10.55 50.99 0.08 7.22 4.85 10.59
4/11/2024 6:45:00 AM 10.55 50.99 0.08 7.23 4.92 10.58
4/11/2024 7:00:00 AM 10.56 51.008 0.08 7.21 4.83 10.6
4/11/2024 7:15:00 AM 10.56 51.008 0.08 7.22 4.68 10.6
4/11/2024 7:30:00 AM 10.56 51.008 0.08 7.22 4.84 10.61
4/11/2024 7:45:00 AM 10.57 51.026 0.08 7.24 4.66 10.63
4/11/2024 8:00:00 AM 10.58 51.044 0.08 7.25 4.62 10.65
4/11/2024 8:15:00 AM 10.59 51.062 0.08 7.24 4.59 10.67
4/11/2024 8:30:00 AM 10.59 51.062 0.08 7.25 4.38 10.68
4/11/2024 8:45:00 AM 10.61 51.098 0.08 7.25 4.39 10.7
4/11/2024 9:00:00 AM 10.64 51.152 0.08 7.27 4.55 10.74
4/11/2024 9:15:00 AM 10.66 51.188 0.08 7.28 4.51 10.77
4/11/2024 9:30:00 AM 10.7 51.26 0.08 7.3 4.26 10.81
4/11/2024 9:45:00 AM 10.77 51.386 0.08 7.31 4.37 10.86
4/11/2024 10:00:00 AM 10.84 51.512 0.08 7.32 4.35 10.89
4/11/2024 10:15:00 AM 10.92 51.656 0.08 7.33 4.2 10.93
4/11/2024 10:30:00 AM 10.98 51.764 0.08 7.34 4.24 10.95
4/11/2024 10:45:00 AM 11.04 51.872 0.08 7.36 4.3 10.96
4/11/2024 11:00:00 AM 11.1 51.98 0.08 7.38 4.77 10.97
4/11/2024 11:15:00 AM 11.14 52.052 0.08 7.39 3.96 10.98
4/11/2024 11:30:00 AM 11.24 52.232 0.08 7.39 3.98 11
4/11/2024 11:45:00 AM 11.42 52.556 0.08 7.4 4 11
4/11/2024 12:00:00 PM 11.54 52.772 0.08 7.42 3.87 11.02
4/11/2024 12:15:00 PM 11.76 53.168 0.079 7.44 4.07 11.01
4/11/2024 12:30:00 PM 11.82 53.276 0.079 7.44 3.87 11
4/11/2024 12:45:00 PM 11.92 53.456 0.079 7.44 4.42 10.98
4/11/2024 1:00:00 PM 11.96 53.528 0.079 7.47 3.84 10.97
4/11/2024 1:15:00 PM 12.27 54.086 0.079 7.48 4.2 10.96
4/11/2024 1:30:00 PM 12.37 54.266 0.079 7.47 4.17 10.92
4/11/2024 1:45:00 PM 12.39 54.302 0.079 7.48 4.03 10.89
4/11/2024 2:00:00 PM 12.45 54.41 0.079 7.48 4.03 10.87
4/11/2024 2:15:00 PM 12.62 54.716 0.079 7.49 4.11 10.85
4/11/2024 2:30:00 PM 12.7 54.86 0.079 7.5 4.2 10.82
4/11/2024 2:45:00 PM 12.85 55.13 0.079 7.51 4.25 10.81
4/11/2024 3:00:00 PM 13.04 55.472 0.079 7.52 3.98 10.8
4/11/2024 3:15:00 PM 13.05 55.49 0.079 7.5 4.15 10.75
4/11/2024 3:30:00 PM 13 55.4 0.079 7.49 4.08 10.68
4/11/2024 3:45:00 PM 13.03 55.454 0.079 7.5 4.09 10.65
4/11/2024 4:00:00 PM 13.06 55.508 0.079 7.49 4.12 10.62
4/11/2024 4:15:00 PM 13.12 55.616 0.079 7.49 4.05 10.61
4/11/2024 4:30:00 PM 13.15 55.67 0.079 7.5 3.91 10.57
4/11/2024 4:45:00 PM 13.17 55.706 0.079 7.49 4.01 10.54
4/11/2024 5:00:00 PM 13.2 55.76 0.079 7.48 3.97 10.49
4/11/2024 5:15:00 PM 13.21 55.778 0.079 7.47 4.03 10.45
4/11/2024 5:30:00 PM 13.21 55.778 0.079 7.45 4.14 10.38
4/11/2024 5:45:00 PM 13.21 55.778 0.079 7.43 4.28 10.31
4/11/2024 6:00:00 PM 13.2 55.76 0.079 7.41 4.11 10.27
4/11/2024 6:15:00 PM 13.2 55.76 0.079 7.4 4.14 10.25
4/11/2024 6:30:00 PM 13.19 55.742 0.079 7.39 4.21 10.21
4/11/2024 6:45:00 PM 13.17 55.706 0.079 7.38 4.13 10.17
4/11/2024 7:00:00 PM 13.15 55.67 0.079 7.35 4.21 10.12
4/11/2024 7:15:00 PM 13.13 55.634 0.079 7.34 4.18 10.08
4/11/2024 7:30:00 PM 13.1 55.58 0.079 7.34 4.27 10.05
4/11/2024 7:45:00 PM 13.07 55.526 0.079 7.33 4.61 10.02
4/11/2024 8:00:00 PM 13.05 55.49 0.079 7.31 4.45 10
4/11/2024 8:15:00 PM 13.02 55.436 0.08 7.3 4.67 9.97
4/11/2024 8:30:00 PM 12.98 55.364 0.08 7.3 4.48 9.96
4/11/2024 8:45:00 PM 12.95 55.31 0.08 7.29 4.49 9.95
4/11/2024 9:00:00 PM 12.93 55.274 0.08 7.28 4.66 9.94
4/11/2024 9:15:00 PM 12.91 55.238 0.08 7.28 4.56 9.93
4/11/2024 9:30:00 PM 12.89 55.202 0.08 7.27 5.1 9.93
4/11/2024 9:45:00 PM 12.86 55.148 0.08 7.27 4.92 9.93
4/11/2024 10:00:00 PM 12.85 55.13 0.08 7.27 4.53 9.92
4/11/2024 10:15:00 PM 12.83 55.094 0.08 7.26 4.74 9.91
4/11/2024 10:30:00 PM 12.82 55.076 0.08 7.25 5.13 9.91
4/11/2024 10:45:00 PM 12.81 55.058 0.08 7.25 4.75 9.91
4/11/2024 11:00:00 PM 12.8 55.04 0.08 7.26 4.53 9.86
4/11/2024 11:15:00 PM 12.79 55.022 0.08 7.25 4.7 9.9
4/11/2024 11:30:00 PM 12.78 55.004 0.08 7.25 4.89 9.9
4/11/2024 11:45:00 PM 12.77 54.986 0.081 7.25 4.75 9.89
4/12/2024 12:00:00 AM 12.79 55.022 0.08 7.25 5.03 9.89
4/12/2024 12:15:00 AM 12.79 55.022 0.08 7.26 5.62 9.89
4/12/2024 12:30:00 AM 12.79 55.022 0.08 7.26 5.38 9.88
4/12/2024 12:45:00 AM 12.8 55.04 0.08 7.26 5.63 9.87
4/12/2024 1:00:00 AM 12.83 55.094 0.08 7.25 6.44 9.87
4/12/2024 1:15:00 AM 12.82 55.076 0.08 7.24 6.36 9.87
4/12/2024 1:30:00 AM 12.82 55.076 0.08 7.24 7.18 9.86
4/12/2024 1:45:00 AM 12.83 55.094 0.081 7.24 9.32 9.85
4/12/2024 2:00:00 AM 12.87 55.166 0.083 7.27 13.81 9.84
4/12/2024 2:15:00 AM 12.91 55.238 0.085 7.29 25.89 9.84
4/12/2024 2:30:00 AM 12.91 55.238 0.086 7.31 40.45 9.85
4/12/2024 2:45:00 AM 12.91 55.238 0.088 7.35 50.65 9.85
4/12/2024 3:00:00 AM 12.89 55.202 0.088 7.38 57.1 9.85
4/12/2024 3:15:00 AM 12.87 55.166 0.086 7.35 50.71 9.86
4/12/2024 3:30:00 AM 12.84 55.112 0.084 7.32 43.35 9.85
4/12/2024 3:45:00 AM 12.82 55.076 0.082 7.31 41.07 9.86
4/12/2024 4:00:00 AM 12.82 55.076 0.08 7.3 40.01 9.86
4/12/2024 4:15:00 AM 12.79 55.022 0.079 7.27 43.7 9.85
4/12/2024 4:30:00 AM 12.75 54.95 0.078 7.25 40.43 9.86
4/12/2024 4:45:00 AM 12.69 54.842 0.076 7.24 40.98 9.87
4/12/2024 5:00:00 AM 12.64 54.752 0.076 7.24 43.16 9.89
4/12/2024 5:15:00 AM 12.62 54.716 0.076 7.25 49.58 9.9
4/12/2024 5:30:00 AM 12.6 54.68 0.077 7.26 52.95 9.91
4/12/2024 5:45:00 AM 12.6 54.68 0.078 7.29 56.99 9.9
4/12/2024 6:00:00 AM 12.59 54.662 0.079 7.3 62.62 9.87
4/12/2024 6:15:00 AM 12.58 54.644 0.081 7.3 63.8 9.84
4/12/2024 6:30:00 AM 12.58 54.644 0.081 7.32 63.78 9.83
4/12/2024 6:45:00 AM 12.57 54.626 0.081 7.32 67.14 9.82
4/12/2024 7:00:00 AM 12.56 54.608 0.082 7.31 66.63 9.81
4/12/2024 7:15:00 AM 12.55 54.59 0.082 7.3 66.59 9.81
4/12/2024 7:30:00 AM 12.54 54.572 0.082 7.32 65.13 9.82
4/12/2024 7:45:00 AM 12.53 54.554 0.081 7.33 64.95 9.84
4/12/2024 8:00:00 AM 12.52 54.536 0.08 7.32 61 9.86
4/12/2024 8:15:00 AM 12.51 54.518 0.079 7.33 55.86 9.88
4/12/2024 8:30:00 AM 12.49 54.482 0.077 7.32 51.8 9.89
4/12/2024 8:45:00 AM 12.47 54.446 0.076 7.3 46.43 9.91
4/12/2024 9:00:00 AM 12.44 54.392 0.076 7.29 43.83 9.92
4/12/2024 9:15:00 AM 12.41 54.338 0.076 7.3 41.86 9.94
4/12/2024 9:30:00 AM 12.4 54.32 0.076 7.3 39.83 9.98
4/12/2024 9:45:00 AM 12.39 54.302 0.076 7.32 38.95 10.01
4/12/2024 10:00:00 AM 12.36 54.248 0.075 7.31 35.09 10.04
4/12/2024 10:15:00 AM 12.33 54.194 0.075 7.32 38.54 10.07
4/12/2024 10:30:00 AM 12.29 54.122 0.075 7.32 37.69 10.09
4/12/2024 10:45:00 AM 12.31 54.158 0.074 7.31 35.24 10.13
4/12/2024 11:00:00 AM 12.33 54.194 0.074 7.33 33.19 10.16
4/12/2024 11:15:00 AM 12.35 54.23 0.074 7.34 33.58 10.18
4/12/2024 11:30:00 AM 12.37 54.266 0.074 7.35 30.78 10.2
4/12/2024 11:45:00 AM 12.42 54.356 0.073 7.34 30.63 10.22
4/12/2024 12:00:00 PM 12.41 54.338 0.073 7.34 30.51 10.24
4/12/2024 12:15:00 PM 12.38 54.284 0.073 7.34 30.56 10.23
4/12/2024 12:30:00 PM 12.34 54.212 0.073 7.34 30.52 10.22
4/12/2024 12:45:00 PM 12.31 54.158 0.073 7.35 28.66 10.23
4/12/2024 1:00:00 PM 12.33 54.194 0.072 7.34 29.53 10.24
4/12/2024 1:15:00 PM 12.3 54.14 0.072 7.33 27.27 10.26
4/12/2024 1:30:00 PM 12.3 54.14 0.071 7.35 26.14 10.27
4/12/2024 1:45:00 PM 12.3 54.14 0.071 7.34 25.46 10.28
4/12/2024 2:00:00 PM 12.3 54.14 0.071 7.34 25.02 10.29
4/12/2024 2:15:00 PM 12.32 54.176 0.071 7.35 23.01 10.31
4/12/2024 2:30:00 PM 12.3 54.14 0.071 7.34 22.77 10.31
4/12/2024 2:45:00 PM 12.32 54.176 0.071 7.35 23.09 10.33
4/12/2024 3:00:00 PM 12.31 54.158 0.071 7.37 23.5 10.33
4/12/2024 3:15:00 PM 12.3 54.14 0.071 7.36 22.22 10.33
4/12/2024 3:30:00 PM 12.28 54.104 0.071 7.36 20.81 10.33
4/12/2024 3:45:00 PM 12.24 54.032 0.071 7.35 20.57 10.32
4/12/2024 4:00:00 PM 12.2 53.96 0.07 7.36 20.05 10.31
4/12/2024 4:15:00 PM 12.15 53.87 0.07 7.34 19.22 10.31
4/12/2024 4:30:00 PM 12.12 53.816 0.07 7.35 19.8 10.33
4/12/2024 4:45:00 PM 12.09 53.762 0.07 7.34 18.26 10.34
4/12/2024 5:00:00 PM 12.07 53.726 0.07 7.37 18.06 10.34
4/12/2024 5:15:00 PM 12.02 53.636 0.07 7.36 18.54 10.32
4/12/2024 5:30:00 PM 11.97 53.546 0.071 7.34 16.96 10.29
4/12/2024 5:45:00 PM 11.92 53.456 0.071 7.33 18.9 10.27
4/12/2024 6:00:00 PM 11.87 53.366 0.071 7.32 16.43 10.28
4/12/2024 6:15:00 PM 11.81 53.258 0.071 7.33 16.48 10.29
4/12/2024 6:30:00 PM 11.75 53.15 0.071 7.32 16.39 10.3
4/12/2024 6:45:00 PM 11.69 53.042 0.07 7.3 15.26 10.3
4/12/2024 7:00:00 PM 11.63 52.934 0.07 7.29 15.32 10.3
4/12/2024 7:15:00 PM 11.57 52.826 0.07 7.29 15.72 10.3
4/12/2024 7:30:00 PM 11.51 52.718 0.07 7.26 14.44 10.3
4/12/2024 7:45:00 PM 11.44 52.592 0.07 7.28 14.09 10.3
4/12/2024 8:00:00 PM 11.37 52.466 0.07 7.27 14.45 10.29
4/12/2024 8:15:00 PM 11.31 52.358 0.071 7.27 14.12 10.31
4/12/2024 8:30:00 PM 11.25 52.25 0.071 7.26 14.61 10.31
4/12/2024 8:45:00 PM 11.18 52.124 0.071 7.25 13.52 10.33
4/12/2024 9:00:00 PM 11.12 52.016 0.071 7.26 13.65 10.34
4/12/2024 9:15:00 PM 11.06 51.908 0.071 7.25 13.84 10.34
4/12/2024 9:30:00 PM 11.01 51.818 0.072 7.25 14.16 10.36
4/12/2024 9:45:00 PM 10.96 51.728 0.072 7.23 14.24 10.37
4/12/2024 10:00:00 PM 10.91 51.638 0.072 7.24 14.54 10.38
4/12/2024 10:15:00 PM 10.86 51.548 0.072 7.24 13.68 10.4
4/12/2024 10:30:00 PM 10.8 51.44 0.072 7.22 14.29 10.41
4/12/2024 10:45:00 PM 10.76 51.368 0.073 7.24 14.63 10.43
4/12/2024 11:00:00 PM 10.7 51.26 0.072 7.24 13.6 10.44
4/12/2024 11:15:00 PM 10.66 51.188 0.072 7.24 13.85 10.46
4/12/2024 11:30:00 PM 10.61 51.098 0.073 7.24 13.55 10.47
4/12/2024 11:45:00 PM 10.56 51.008 0.073 7.22 13.27 10.49
4/13/2024 12:00:00 AM 10.51 50.918 0.073 7.22 12.88 10.5
4/13/2024 12:15:00 AM 10.44 50.792 0.073 7.22 12.68 10.52
4/13/2024 12:30:00 AM 10.38 50.684 0.073 7.22 12.95 10.54
4/13/2024 12:45:00 AM 10.33 50.594 0.073 7.23 13.12 10.55
4/13/2024 1:00:00 AM 10.26 50.468 0.073 7.23 13.09 10.57
4/13/2024 1:15:00 AM 10.2 50.36 0.073 7.24 13.67 10.59
4/13/2024 1:30:00 AM 10.14 50.252 0.073 7.21 13.27 10.6
4/13/2024 1:45:00 AM 10.09 50.162 0.073 7.23 12.76 10.62
4/13/2024 2:00:00 AM 10.03 50.054 0.074 7.23 13.09 10.64
4/13/2024 2:15:00 AM 9.98 49.964 0.074 7.23 13.68 10.65
4/13/2024 2:30:00 AM 9.92 49.856 0.074 7.23 13.24 10.67
4/13/2024 2:45:00 AM 9.86 49.748 0.074 7.22 13.63 10.68
4/13/2024 3:00:00 AM 9.81 49.658 0.074 7.22 12.9 10.69
4/13/2024 3:15:00 AM 9.75 49.55 0.074 7.24 13.08 10.71
4/13/2024 3:30:00 AM 9.69 49.442 0.074 7.23 13.85 10.73
4/13/2024 3:45:00 AM 9.64 49.352 0.074 7.23 12.72 10.76
4/13/2024 4:00:00 AM 9.59 49.262 0.074 7.22 13.09 10.77
4/13/2024 4:15:00 AM 9.54 49.172 0.074 7.22 12.96 10.79
4/13/2024 4:30:00 AM 9.49 49.082 0.074 7.21 12.13 10.81
4/13/2024 4:45:00 AM 9.43 48.974 0.074 7.21 12.69 10.83
4/13/2024 5:00:00 AM 9.38 48.884 0.074 7.24 12.51 10.84
4/13/2024 5:15:00 AM 9.31 48.758 0.074 7.23 12.72 10.86
4/13/2024 5:30:00 AM 9.26 48.668 0.074 7.24 12.7 10.88
4/13/2024 5:45:00 AM 9.2 48.56 0.074 7.24 13.1 10.9
4/13/2024 6:00:00 AM 9.15 48.47 0.074 7.23 12.76 10.91
4/13/2024 6:15:00 AM 9.1 48.38 0.074 7.24 13.3 10.93
4/13/2024 6:30:00 AM 9.05 48.29 0.074 7.23 12.95 10.95
4/13/2024 6:45:00 AM 9 48.2 0.074 7.23 13.59 10.97
4/13/2024 7:00:00 AM 8.95 48.11 0.074 7.22 12.76 10.99
4/13/2024 7:15:00 AM 8.91 48.038 0.074 7.2 12.55 11.01
4/13/2024 7:30:00 AM 8.87 47.966 0.074 7.24 12.47 11.04
4/13/2024 7:45:00 AM 8.84 47.912 0.074 7.24 12.23 11.07
4/13/2024 8:00:00 AM 8.82 47.876 0.074 7.23 12.59 11.11
4/13/2024 8:15:00 AM 8.79 47.822 0.073 7.24 11.37 11.14
4/13/2024 8:30:00 AM 8.77 47.786 0.073 7.24 11.88 11.17
4/13/2024 8:45:00 AM 8.75 47.75 0.073 7.24 11.7 11.19
4/13/2024 9:00:00 AM 8.73 47.714 0.073 7.27 11.46 11.23
4/13/2024 9:15:00 AM 8.73 47.714 0.073 7.28 11.13 11.26
4/13/2024 9:30:00 AM 8.71 47.678 0.073 7.26 11.26 11.3
4/13/2024 9:45:00 AM 8.71 47.678 0.073 7.29 10.55 11.32
4/13/2024 10:00:00 AM 8.71 47.678 0.073 7.28 10.06 11.35
4/13/2024 10:15:00 AM 8.71 47.678 0.073 7.3 10.37 11.38
4/13/2024 10:30:00 AM 8.71 47.678 0.073 7.29 10.01 11.39
4/13/2024 10:45:00 AM 8.71 47.678 0.073 7.32 9.92 11.4
4/13/2024 11:00:00 AM 8.7 47.66 0.073 7.33 10.21 11.4
4/13/2024 11:15:00 AM 8.7 47.66 0.073 7.31 9.87 11.42
4/13/2024 11:30:00 AM 8.69 47.642 0.073 7.31 9.27 11.44
4/13/2024 11:45:00 AM 8.69 47.642 0.073 7.34 9.65 11.45
4/13/2024 12:00:00 PM 8.68 47.624 0.073 7.34 8.89 11.45
4/13/2024 12:15:00 PM 8.68 47.624 0.073 7.33 8.89 11.45
4/13/2024 12:30:00 PM 8.66 47.588 0.073 7.32 8.77 11.45
4/13/2024 12:45:00 PM 8.65 47.57 0.073 7.34 8.64 11.45
4/13/2024 1:00:00 PM 8.65 47.57 0.073 7.33 8.75 11.44
4/13/2024 1:15:00 PM 8.65 47.57 0.073 7.33 9.18 11.43
4/13/2024 1:30:00 PM 8.66 47.588 0.074 7.32 9.04 11.44
4/13/2024 1:45:00 PM 8.66 47.588 0.073 7.33 8.71 11.46
4/13/2024 2:00:00 PM 8.68 47.624 0.073 7.35 8.26 11.48
4/13/2024 2:15:00 PM 8.7 47.66 0.073 7.36 8.34 11.51
4/13/2024 2:30:00 PM 8.73 47.714 0.073 7.34 8.3 11.53
4/13/2024 2:45:00 PM 8.76 47.768 0.072 7.34 7.98 11.54
4/13/2024 3:00:00 PM 8.79 47.822 0.073 7.36 8.04 11.54
4/13/2024 3:15:00 PM 8.81 47.858 0.072 7.35 8.5 11.55
4/13/2024 3:30:00 PM 8.83 47.894 0.073 7.35 8.25 11.54
4/13/2024 3:45:00 PM 8.84 47.912 0.073 7.35 7.96 11.54
4/13/2024 4:00:00 PM 8.86 47.948 0.073 7.38 8.12 11.54
4/13/2024 4:15:00 PM 8.89 48.002 0.073 7.37 8.49 11.53
4/13/2024 4:30:00 PM 8.92 48.056 0.072 7.37 7.93 11.53
4/13/2024 4:45:00 PM 8.96 48.128 0.073 7.36 7.99 11.52
4/13/2024 5:00:00 PM 8.99 48.182 0.073 7.37 7.99 11.52
4/13/2024 5:15:00 PM 9 48.2 0.073 7.37 7.81 11.51
4/13/2024 5:30:00 PM 9.02 48.236 0.072 7.37 7.81 11.51
4/13/2024 5:45:00 PM 9.04 48.272 0.072 7.36 7.84 11.5
4/13/2024 6:00:00 PM 9.06 48.308 0.072 7.37 7.78 11.48
4/13/2024 6:15:00 PM 9.07 48.326 0.072 7.36 8.99 11.47
4/13/2024 6:30:00 PM 9.07 48.326 0.072 7.34 8.49 11.44
4/13/2024 6:45:00 PM 9.06 48.308 0.072 7.35 8.03 11.41
4/13/2024 7:00:00 PM 9.03 48.254 0.072 7.33 8.92 11.39
4/13/2024 7:15:00 PM 9 48.2 0.072 7.31 8.06 11.37
4/13/2024 7:30:00 PM 8.97 48.146 0.072 7.29 8.11 11.35
4/13/2024 7:45:00 PM 8.93 48.074 0.072 7.3 8.03 11.32
4/13/2024 8:00:00 PM 8.89 48.002 0.072 7.27 7.52 11.3
4/13/2024 8:15:00 PM 8.84 47.912 0.072 7.26 8.19 11.28
4/13/2024 8:30:00 PM 8.79 47.822 0.072 7.27 7.84 11.26
4/13/2024 8:45:00 PM 8.74 47.732 0.072 7.24 8.36 11.25
4/13/2024 9:00:00 PM 8.69 47.642 0.072 7.22 8.85 11.24
4/13/2024 9:15:00 PM 8.64 47.552 0.072 7.21 9.08 11.24
4/13/2024 9:30:00 PM 8.6 47.48 0.072 7.23 8.3 11.24
4/13/2024 9:45:00 PM 8.56 47.408 0.072 7.23 8.13 11.24
4/13/2024 10:00:00 PM 8.52 47.336 0.073 7.2 7.71 11.24
4/13/2024 10:15:00 PM 8.48 47.264 0.073 7.19 8.29 11.24
4/13/2024 10:30:00 PM 8.43 47.174 0.073 7.2 7.75 11.25
4/13/2024 10:45:00 PM 8.38 47.084 0.073 7.19 8.56 11.26
4/13/2024 11:00:00 PM 8.33 46.994 0.073 7.19 8.47 11.28
4/13/2024 11:15:00 PM 8.28 46.904 0.073 7.19 8.48 11.3
4/13/2024 11:30:00 PM 8.23 46.814 0.073 7.19 8.21 11.31
4/13/2024 11:45:00 PM 8.18 46.724 0.073 7.17 8.1 11.32
4/14/2024 12:00:00 AM 8.14 46.652 0.073 7.17 8.4 11.33
4/14/2024 12:15:00 AM 8.09 46.562 0.073 7.19 7.83 11.35
4/14/2024 12:30:00 AM 8.05 46.49 0.073 7.17 7.79 11.36
4/14/2024 12:45:00 AM 8 46.4 0.073 7.16 8.13 11.38
4/14/2024 1:00:00 AM 7.94 46.292 0.073 7.15 7.88 11.39
4/14/2024 1:15:00 AM 7.89 46.202 0.073 7.18 7.33 11.41
4/14/2024 1:30:00 AM 7.83 46.094 0.073 7.17 7.69 11.43
4/14/2024 1:45:00 AM 7.78 46.004 0.073 7.16 7.45 11.44
4/14/2024 2:00:00 AM 7.72 45.896 0.073 7.15 8.16 11.45
4/14/2024 2:15:00 AM 7.66 45.788 0.074 7.18 7.95 11.45
4/14/2024 2:30:00 AM 7.61 45.698 0.074 7.16 8.25 11.45
4/14/2024 2:45:00 AM 7.55 45.59 0.074 7.17 7.97 11.46
4/14/2024 3:00:00 AM 7.5 45.5 0.074 7.16 8.12 11.48
4/14/2024 3:15:00 AM 7.46 45.428 0.074 7.17 7.5 11.51
4/14/2024 3:30:00 AM 7.41 45.338 0.073 7.17 7.85 11.54
4/14/2024 3:45:00 AM 7.36 45.248 0.073 7.15 7.56 11.56
4/14/2024 4:00:00 AM 7.31 45.158 0.073 7.14 7.59 11.58
4/14/2024 4:15:00 AM 7.27 45.086 0.073 7.17 7.51 11.59
4/14/2024 4:30:00 AM 7.23 45.014 0.073 7.15 7.75 11.6
4/14/2024 4:45:00 AM 7.19 44.942 0.074 7.14 7.6 11.62
4/14/2024 5:00:00 AM 7.15 44.87 0.073 7.18 7.55 11.63
4/14/2024 5:15:00 AM 7.11 44.798 0.073 7.15 7.52 11.64
4/14/2024 5:30:00 AM 7.08 44.744 0.073 7.17 7.35 11.65
4/14/2024 5:45:00 AM 7.05 44.69 0.073 7.14 7.58 11.67
4/14/2024 6:00:00 AM 7.02 44.636 0.073 7.16 6.89 11.68
4/14/2024 6:15:00 AM 6.99 44.582 0.073 7.16 7.32 11.69
4/14/2024 6:30:00 AM 6.95 44.51 0.073 7.15 6.91 11.71
4/14/2024 6:45:00 AM 6.92 44.456 0.073 7.14 6.79 11.72
4/14/2024 7:00:00 AM 6.89 44.402 0.073 7.16 6.74 11.75
4/14/2024 7:15:00 AM 6.86 44.348 0.073 7.17 6.71 11.77
4/14/2024 7:30:00 AM 6.85 44.33 0.073 7.19 6.44 11.8
4/14/2024 7:45:00 AM 6.84 44.312 0.073 7.17 6.17 11.84
4/14/2024 8:00:00 AM 6.84 44.312 0.073 7.15 6.47 11.88
4/14/2024 8:15:00 AM 6.86 44.348 0.073 7.21 6.54 11.91
4/14/2024 8:30:00 AM 6.88 44.384 0.073 7.22 6.37 11.94
4/14/2024 8:45:00 AM 6.93 44.474 0.073 7.21 6.31 11.97
4/14/2024 9:00:00 AM 6.99 44.582 0.073 7.22 6.32 11.99
4/14/2024 9:15:00 AM 7.07 44.726 0.073 7.23 6.4 12.01
4/14/2024 9:30:00 AM 7.16 44.888 0.073 7.26 6.39 12.02
4/14/2024 9:45:00 AM 7.27 45.086 0.073 7.27 6.1 12.03
4/14/2024 10:00:00 AM 7.4 45.32 0.073 7.28 6.05 12.03
4/14/2024 10:15:00 AM 7.55 45.59 0.073 7.3 6.01 12.03
4/14/2024 10:30:00 AM 7.7 45.86 0.073 7.31 5.78 12.01
4/14/2024 10:45:00 AM 7.82 46.076 0.073 7.32 5.77 11.99
4/14/2024 11:00:00 AM 7.91 46.238 0.073 7.31 5.57 11.97
4/14/2024 11:15:00 AM 7.98 46.364 0.073 7.31 5.51 11.92
4/14/2024 11:30:00 AM 8.03 46.454 0.073 7.3 6.24 11.85
4/14/2024 11:45:00 AM 8.09 46.562 0.073 7.31 5.86 11.81
4/14/2024 12:00:00 PM 8.25 46.85 0.072 7.3 5.8 11.79
4/14/2024 12:15:00 PM 8.5 47.3 0.072 7.32 5.98 11.77
4/14/2024 12:30:00 PM 8.78 47.804 0.072 7.33 5.48 11.75
4/14/2024 12:45:00 PM 9.05 48.29 0.072 7.32 6.95 11.71
4/14/2024 1:00:00 PM 9.28 48.704 0.072 7.34 6.03 11.68
4/14/2024 1:15:00 PM 9.55 49.19 0.072 7.34 6.27 11.64
4/14/2024 1:30:00 PM 9.82 49.676 0.072 7.35 6.01 11.58
4/14/2024 1:45:00 PM 10.09 50.162 0.071 7.37 6.15 11.52
4/14/2024 2:00:00 PM 10.37 50.666 0.072 7.37 5.69 11.46
4/14/2024 2:15:00 PM 10.62 51.116 0.072 7.36 5.56 11.39
4/14/2024 2:30:00 PM 10.87 51.566 0.072 7.36 5.62 11.33
4/14/2024 2:45:00 PM 11.11 51.998 0.072 7.38 5.74 11.26
4/14/2024 3:00:00 PM 11.33 52.394 0.072 7.37 5.78 11.2
4/14/2024 3:15:00 PM 11.55 52.79 0.072 7.38 5.66 11.14
4/14/2024 3:30:00 PM 11.77 53.186 0.072 7.37 6.16 11.06
4/14/2024 3:45:00 PM 12 53.6 0.072 7.38 5.89 10.99
4/14/2024 4:00:00 PM 12.17 53.906 0.072 7.38 5.93 10.92
4/14/2024 4:15:00 PM 12.39 54.302 0.072 7.39 5.61 10.86
4/14/2024 4:30:00 PM 12.55 54.59 0.071 7.39 6.73 10.81
4/14/2024 4:45:00 PM 12.62 54.716 0.072 7.39 5.65 10.73
4/14/2024 5:00:00 PM 12.66 54.788 0.071 7.38 5.74 10.64
4/14/2024 5:15:00 PM 12.69 54.842 0.072 7.36 5.84 10.58
4/14/2024 5:30:00 PM 12.7 54.86 0.072 7.35 5.85 10.53
4/14/2024 5:45:00 PM 12.69 54.842 0.072 7.33 6.94 10.48
4/14/2024 6:00:00 PM 12.68 54.824 0.072 7.32 6.08 10.43
4/14/2024 6:15:00 PM 12.67 54.806 0.072 7.31 6.1 10.41
4/14/2024 6:30:00 PM 12.65 54.77 0.072 7.3 6.1 10.36
4/14/2024 6:45:00 PM 12.61 54.698 0.072 7.28 5.93 10.32
4/14/2024 7:00:00 PM 12.57 54.626 0.071 7.26 11.14 10.28
4/14/2024 7:15:00 PM 12.53 54.554 0.072 7.25 7.39 10.24
4/14/2024 7:30:00 PM 12.47 54.446 0.072 7.23 8.1 10.21
4/14/2024 7:45:00 PM 12.41 54.338 0.072 7.23 9.55 10.19
4/14/2024 8:00:00 PM 12.35 54.23 0.072 7.21 10.02 10.18
4/14/2024 8:15:00 PM 12.3 54.14 0.073 7.21 9.89 10.17
4/14/2024 8:30:00 PM 12.26 54.068 0.074 7.2 12.12 10.17
4/14/2024 8:45:00 PM 12.22 53.996 0.074 7.2 11.13 10.16
4/14/2024 9:00:00 PM 12.19 53.942 0.075 7.2 12.61 10.17
4/14/2024 9:15:00 PM 12.15 53.87 0.076 7.23 13.28 10.17
4/14/2024 9:30:00 PM 12.11 53.798 0.077 7.25 16.08 10.16
4/14/2024 9:45:00 PM 12.08 53.744 0.077 7.26 18.93 10.16
4/14/2024 10:00:00 PM 12.05 53.69 0.078 7.24 20.44 10.15
4/14/2024 10:15:00 PM 12.02 53.636 0.077 7.22 17.23 10.15
4/14/2024 10:30:00 PM 11.98 53.564 0.077 7.21 15.02 10.17
4/14/2024 10:45:00 PM 11.94 53.492 0.076 7.2 12.92 10.18
4/14/2024 11:00:00 PM 11.9 53.42 0.076 7.18 13.11 10.21
4/14/2024 11:15:00 PM 11.85 53.33 0.075 7.17 11.95 10.22
4/14/2024 11:30:00 PM 11.81 53.258 0.075 7.17 10.9 10.24
4/14/2024 11:45:00 PM 11.77 53.186 0.075 7.17 11.25 10.25
4/15/2024 12:00:00 AM 11.73 53.114 0.075 7.17 9.77 10.26
4/15/2024 12:15:00 AM 11.69 53.042 0.075 7.17 9.8 10.27
4/15/2024 12:30:00 AM 11.65 52.97 0.075 7.16 9.97 10.28
4/15/2024 12:45:00 AM 11.61 52.898 0.075 7.17 9.87 10.29
4/15/2024 1:00:00 AM 11.57 52.826 0.075 7.17 9.49 10.3
4/15/2024 1:15:00 AM 11.53 52.754 0.075 7.17 9.49 10.32
4/15/2024 1:30:00 AM 11.48 52.664 0.075 7.17 9.5 10.33
4/15/2024 1:45:00 AM 11.44 52.592 0.075 7.16 11.05 10.34
4/15/2024 2:00:00 AM 11.39 52.502 0.075 7.16 9.62 10.35
4/15/2024 2:15:00 AM 11.35 52.43 0.075 7.17 10.01 10.37
4/15/2024 2:30:00 AM 11.3 52.34 0.075 7.16 9.33 10.38
4/15/2024 2:45:00 AM 11.25 52.25 0.075 7.16 9.61 10.39
4/15/2024 3:00:00 AM 11.2 52.16 0.075 7.16 9.12 10.4
4/15/2024 3:15:00 AM 11.15 52.07 0.075 7.16 10.29 10.41
4/15/2024 3:30:00 AM 11.1 51.98 0.075 7.16 10 10.43
4/15/2024 3:45:00 AM 11.05 51.89 0.075 7.16 8.97 10.44
4/15/2024 4:00:00 AM 11.01 51.818 0.075 7.17 7.99 10.45
4/15/2024 4:15:00 AM 10.97 51.746 0.075 7.15 8.43 10.46
4/15/2024 4:30:00 AM 10.92 51.656 0.076 7.15 8.28 10.47
4/15/2024 4:45:00 AM 10.86 51.548 0.076 7.17 8.47 10.49
4/15/2024 5:00:00 AM 10.81 51.458 0.076 7.17 8.1 10.5
4/15/2024 5:15:00 AM 10.77 51.386 0.076 7.15 8.77 10.52
4/15/2024 5:30:00 AM 10.73 51.314 0.076 7.15 8.35 10.53
4/15/2024 5:45:00 AM 10.68 51.224 0.076 7.16 8.17 10.54
4/15/2024 6:00:00 AM 10.64 51.152 0.076 7.16 8.84 10.56
4/15/2024 6:15:00 AM 10.59 51.062 0.075 7.16 7.87 10.58
4/15/2024 6:30:00 AM 10.54 50.972 0.076 7.17 7.78 10.59
4/15/2024 6:45:00 AM 10.5 50.9 0.076 7.18 7.64 10.61
4/15/2024 7:00:00 AM 10.45 50.81 0.076 7.18 7.6 10.64
4/15/2024 7:15:00 AM 10.42 50.756 0.076 7.19 6.87 10.68
4/15/2024 7:30:00 AM 10.38 50.684 0.076 7.2 7.31 10.72
4/15/2024 7:45:00 AM 10.36 50.648 0.076 7.2 7.32 10.77
4/15/2024 8:00:00 AM 10.34 50.612 0.075 7.2 6.71 10.82
4/15/2024 8:15:00 AM 10.33 50.594 0.075 7.22 6.68 10.87
4/15/2024 8:30:00 AM 10.33 50.594 0.076 7.25 8.71 10.93
4/15/2024 8:45:00 AM 10.35 50.63 0.075 7.24 6.58 10.98
4/15/2024 9:00:00 AM 10.38 50.684 0.075 7.25 6.59 11.02
4/15/2024 9:15:00 AM 10.43 50.774 0.075 7.29 6.83 11.06
4/15/2024 9:30:00 AM 10.51 50.918 0.075 7.29 6.32 11.09
4/15/2024 9:45:00 AM 10.6 51.08 0.075 7.31 6.46 11.12
4/15/2024 10:00:00 AM 10.69 51.242 0.075 7.31 6.4 11.13
4/15/2024 10:15:00 AM 10.79 51.422 0.075 7.33 5.75 11.15
4/15/2024 10:30:00 AM 10.87 51.566 0.075 7.34 6.02 11.16
4/15/2024 10:45:00 AM 10.95 51.71 0.075 7.37 6.52 11.17
4/15/2024 11:00:00 AM 11.07 51.926 0.074 7.38 5.79 11.17
4/15/2024 11:15:00 AM 11.19 52.142 0.075 7.39 5.8 11.17
4/15/2024 11:30:00 AM 11.38 52.484 0.075 7.39 5.35 11.17
4/15/2024 11:45:00 AM 11.6 52.88 0.074 7.42 5.14 11.15
4/15/2024 12:00:00 PM 11.83 53.294 0.074 7.43 5.3 11.13
4/15/2024 12:15:00 PM 12.03 53.654 0.074 7.44 5.28 11.11
4/15/2024 12:30:00 PM 12.3 54.14 0.074 7.46 5.25 11.08
4/15/2024 12:45:00 PM 12.54 54.572 0.074 7.46 5.35 11.04
4/15/2024 1:00:00 PM 12.76 54.968 0.074 7.46 6.42 11
4/15/2024 1:15:00 PM 12.98 55.364 0.074 7.46 5.53 10.95
4/15/2024 1:30:00 PM 13.18 55.724 0.074 7.48 4.88 10.9
4/15/2024 1:45:00 PM 13.41 56.138 0.074 7.47 5.19 10.85
4/15/2024 2:00:00 PM 13.61 56.498 0.074 7.48 8.75 10.81
4/15/2024 2:15:00 PM 13.8 56.84 0.074 7.48 5.16 10.76
4/15/2024 2:30:00 PM 14 57.2 0.074 7.48 5.03 10.71
4/15/2024 2:45:00 PM 14.11 57.398 0.074 7.49 5.56 10.65
4/15/2024 3:00:00 PM 14.25 57.65 0.074 7.48 5.91 10.61
4/15/2024 3:15:00 PM 14.39 57.902 0.074 7.49 6.88 10.56
4/15/2024 3:30:00 PM 14.51 58.118 0.073 7.49 6.94 10.5
4/15/2024 3:45:00 PM 14.65 58.37 0.074 7.48 5.96 10.46
4/15/2024 4:00:00 PM 14.79 58.622 0.073 7.49 5.58 10.42
4/15/2024 4:15:00 PM 14.86 58.748 0.073 7.47 5.25 10.34
4/15/2024 4:30:00 PM 14.94 58.892 0.073 7.46 5.43 10.29
4/15/2024 4:45:00 PM 14.98 58.964 0.073 7.45 5.31 10.24
4/15/2024 5:00:00 PM 15.06 59.108 0.073 7.46 5.62 10.2
4/15/2024 5:15:00 PM 15.05 59.09 0.074 7.44 5.63 10.14
4/15/2024 5:30:00 PM 15.03 59.054 0.074 7.43 5.73 10.09
4/15/2024 5:45:00 PM 14.99 58.982 0.074 7.42 5.42 10.06
4/15/2024 6:00:00 PM 14.92 58.856 0.074 7.39 5.31 10.02
4/15/2024 6:15:00 PM 14.85 58.73 0.074 7.38 5.23 10
4/15/2024 6:30:00 PM 14.79 58.622 0.074 7.36 5.29 9.97
4/15/2024 6:45:00 PM 14.74 58.532 0.074 7.34 5.6 9.94
4/15/2024 7:00:00 PM 14.7 58.46 0.074 7.33 5.46 9.91
4/15/2024 7:15:00 PM 14.64 58.352 0.074 7.33 5.44 9.88
4/15/2024 7:30:00 PM 14.57 58.226 0.074 7.31 5.98 9.86
4/15/2024 7:45:00 PM 14.49 58.082 0.074 7.3 5.48 9.84
4/15/2024 8:00:00 PM 14.4 57.92 0.074 7.28 5.85 9.81
4/15/2024 8:15:00 PM 14.29 57.722 0.074 7.27 5.64 9.8
4/15/2024 8:30:00 PM 14.18 57.524 0.074 7.26 5.9 9.79
4/15/2024 8:45:00 PM 14.06 57.308 0.075 7.26 5.85 9.8
4/15/2024 9:00:00 PM 13.94 57.092 0.075 7.24 6.52 9.8
4/15/2024 9:15:00 PM 13.81 56.858 0.075 7.22 5.91 9.81
4/15/2024 9:30:00 PM 13.68 56.624 0.075 7.22 5.98 9.83
4/15/2024 9:45:00 PM 13.55 56.39 0.075 7.23 5.82 9.85
4/15/2024 10:00:00 PM 13.41 56.138 0.074 7.23 6.1 9.88
4/15/2024 10:15:00 PM 13.28 55.904 0.075 7.22 6.3 9.91
4/15/2024 10:30:00 PM 13.15 55.67 0.075 7.22 6.09 9.94
4/15/2024 10:45:00 PM 13.02 55.436 0.075 7.21 6.28 9.96
4/15/2024 11:00:00 PM 12.9 55.22 0.075 7.2 6.11 9.99
4/15/2024 11:15:00 PM 12.79 55.022 0.076 7.21 7.17 10.02
4/15/2024 11:30:00 PM 12.68 54.824 0.076 7.2 6.64 10.05
4/15/2024 11:45:00 PM 12.57 54.626 0.076 7.2 5.9 10.07
4/16/2024 12:00:00 AM 12.47 54.446 0.076 7.2 5.96 10.1
4/16/2024 12:15:00 AM 12.36 54.248 0.076 7.18 6.01 10.13
4/16/2024 12:30:00 AM 12.25 54.05 0.076 7.19 5.9 10.15
4/16/2024 12:45:00 AM 12.14 53.852 0.076 7.19 5.83 10.18
4/16/2024 1:00:00 AM 12.03 53.654 0.076 7.19 5.85 10.21
4/16/2024 1:15:00 AM 11.92 53.456 0.076 7.19 5.99 10.24
4/16/2024 1:30:00 AM 11.81 53.258 0.076 7.19 6.06 10.27
4/16/2024 1:45:00 AM 11.7 53.06 0.076 7.18 6.07 10.3
4/16/2024 2:00:00 AM 11.59 52.862 0.076 7.17 6.03 10.33
4/16/2024 2:15:00 AM 11.47 52.646 0.076 7.2 5.88 10.36
4/16/2024 2:30:00 AM 11.37 52.466 0.076 7.19 5.83 10.39
4/16/2024 2:45:00 AM 11.26 52.268 0.076 7.19 5.97 10.42
4/16/2024 3:00:00 AM 11.15 52.07 0.076 7.19 6.17 10.44
4/16/2024 3:15:00 AM 11.05 51.89 0.076 7.18 6.14 10.47
4/16/2024 3:30:00 AM 10.94 51.692 0.076 7.17 5.9 10.5
4/16/2024 3:45:00 AM 10.84 51.512 0.076 7.19 6.08 10.53
4/16/2024 4:00:00 AM 10.74 51.332 0.076 7.18 5.81 10.56
4/16/2024 4:15:00 AM 10.64 51.152 0.076 7.18 5.74 10.59
4/16/2024 4:30:00 AM 10.54 50.972 0.076 7.17 5.8 10.62
4/16/2024 4:45:00 AM 10.44 50.792 0.076 7.2 5.75 10.65
4/16/2024 5:00:00 AM 10.34 50.612 0.077 7.18 5.65 10.68
4/16/2024 5:15:00 AM 10.24 50.432 0.077 7.17 5.53 10.7
4/16/2024 5:30:00 AM 10.14 50.252 0.077 7.19 5.41 10.73
4/16/2024 5:45:00 AM 10.04 50.072 0.077 7.19 5.31 10.76
4/16/2024 6:00:00 AM 9.94 49.892 0.077 7.19 5.46 10.79
4/16/2024 6:15:00 AM 9.84 49.712 0.077 7.19 5.75 10.83
4/16/2024 6:30:00 AM 9.75 49.55 0.077 7.2 5.69 10.86
4/16/2024 6:45:00 AM 9.66 49.388 0.077 7.19 5.47 10.9
4/16/2024 7:00:00 AM 9.57 49.226 0.077 7.19 5.44 10.94
4/16/2024 7:15:00 AM 9.49 49.082 0.077 7.19 5.02 11
4/16/2024 7:30:00 AM 9.43 48.974 0.077 7.22 5.32 11.05
4/16/2024 7:45:00 AM 9.38 48.884 0.077 7.22 4.99 11.11
4/16/2024 8:00:00 AM 9.34 48.812 0.077 7.23 5.08 11.17
4/16/2024 8:15:00 AM 9.31 48.758 0.077 7.26 4.96 11.23
4/16/2024 8:30:00 AM 9.3 48.74 0.077 7.26 4.87 11.29
4/16/2024 8:45:00 AM 9.3 48.74 0.077 7.27 4.86 11.34
4/16/2024 9:00:00 AM 9.32 48.776 0.077 7.28 4.95 11.39
4/16/2024 9:15:00 AM 9.36 48.848 0.077 7.3 4.73 11.44
4/16/2024 9:30:00 AM 9.42 48.956 0.077 7.31 4.82 11.47
4/16/2024 9:45:00 AM 9.51 49.118 0.076 7.32 4.41 11.5
4/16/2024 10:00:00 AM 9.59 49.262 0.076 7.32 4.52 11.52
4/16/2024 10:15:00 AM 9.7 49.46 0.076 7.36 4.52 11.53
4/16/2024 10:30:00 AM 9.84 49.712 0.076 7.38 4.32 11.55
4/16/2024 10:45:00 AM 10.01 50.018 0.076 7.39 4.18 11.55
4/16/2024 11:00:00 AM 10.16 50.288 0.076 7.39 4.36 11.55
4/16/2024 11:15:00 AM 10.38 50.684 0.076 7.41 4.32 11.54
4/16/2024 11:30:00 AM 10.59 51.062 0.076 7.42 4.06 11.52
4/16/2024 11:45:00 AM 10.83 51.494 0.076 7.44 4.14 11.5
4/16/2024 12:00:00 PM 11.08 51.944 0.076 7.44 4.33 11.46
4/16/2024 12:15:00 PM 11.34 52.412 0.076 7.45 4.22 11.43
4/16/2024 12:30:00 PM 11.61 52.898 0.076 7.47 4 11.39
4/16/2024 12:45:00 PM 11.86 53.348 0.076 7.47 5.08 11.35
4/16/2024 1:00:00 PM 12.1 53.78 0.076 7.49 4.16 11.3
4/16/2024 1:15:00 PM 12.32 54.176 0.076 7.49 3.93 11.26
4/16/2024 1:30:00 PM 12.54 54.572 0.076 7.5 4.1 11.21
4/16/2024 1:45:00 PM 12.7 54.86 0.076 7.5 4.32 11.17
4/16/2024 2:00:00 PM 12.9 55.22 0.076 7.51 4.16 11.11
4/16/2024 2:15:00 PM 13.13 55.634 0.075 7.52 3.98 11.06
4/16/2024 2:30:00 PM 13.34 56.012 0.075 7.53 3.99 11.01
4/16/2024 2:45:00 PM 13.56 56.408 0.075 7.53 3.95 10.95
4/16/2024 3:00:00 PM 13.76 56.768 0.075 7.54 4.09 10.89
4/16/2024 3:15:00 PM 13.91 57.038 0.075 7.54 3.88 10.83
4/16/2024 3:30:00 PM 14.06 57.308 0.075 7.54 4.22 10.77
4/16/2024 3:45:00 PM 14.19 57.542 0.075 7.53 3.85 10.71
4/16/2024 4:00:00 PM 14.32 57.776 0.075 7.53 4.41 10.65
4/16/2024 4:15:00 PM 14.43 57.974 0.075 7.54 3.98 10.6
4/16/2024 4:30:00 PM 14.52 58.136 0.075 7.53 3.93 10.53
4/16/2024 4:45:00 PM 14.59 58.262 0.075 7.51 3.98 10.48
4/16/2024 5:00:00 PM 14.64 58.352 0.075 7.5 3.81 10.42
4/16/2024 5:15:00 PM 14.68 58.424 0.075 7.5 4 10.38
4/16/2024 5:30:00 PM 14.7 58.46 0.075 7.48 4.13 10.33
4/16/2024 5:45:00 PM 14.71 58.478 0.075 7.46 4.14 10.28
4/16/2024 6:00:00 PM 14.69 58.442 0.075 7.45 4.2 10.23
4/16/2024 6:15:00 PM 14.66 58.388 0.075 7.44 3.97 10.18
4/16/2024 6:30:00 PM 14.62 58.316 0.075 7.41 4.35 10.13
4/16/2024 6:45:00 PM 14.57 58.226 0.075 7.39 4.29 10.1
4/16/2024 7:00:00 PM 14.52 58.136 0.075 7.38 4.46 10.07
4/16/2024 7:15:00 PM 14.45 58.01 0.075 7.36 4.42 10.04
4/16/2024 7:30:00 PM 14.38 57.884 0.075 7.34 4.23 10.01
4/16/2024 7:45:00 PM 14.3 57.74 0.076 7.33 4.5 9.98
4/16/2024 8:00:00 PM 14.2 57.56 0.076 7.31 4.82 9.95
4/16/2024 8:15:00 PM 14.1 57.38 0.076 7.29 4.67 9.93
4/16/2024 8:30:00 PM 13.99 57.182 0.076 7.26 4.65 9.92
4/16/2024 8:45:00 PM 13.87 56.966 0.076 7.26 4.86 9.91
4/16/2024 9:00:00 PM 13.75 56.75 0.076 7.25 4.78 9.91
4/16/2024 9:15:00 PM 13.63 56.534 0.076 7.25 4.93 9.92
4/16/2024 9:30:00 PM 13.51 56.318 0.076 7.23 4.74 9.93
4/16/2024 9:45:00 PM 13.38 56.084 0.077 7.21 4.81 9.94
4/16/2024 10:00:00 PM 13.25 55.85 0.077 7.2 4.98 9.96
4/16/2024 10:15:00 PM 13.13 55.634 0.077 7.2 4.92 9.97
4/16/2024 10:30:00 PM 13.01 55.418 0.077 7.21 5.07 10
4/16/2024 10:45:00 PM 12.9 55.22 0.077 7.2 4.84 10.02
4/16/2024 11:00:00 PM 12.78 55.004 0.077 7.21 5.35 10.04
4/16/2024 11:15:00 PM 12.67 54.806 0.077 7.2 5.68 10.07
4/16/2024 11:30:00 PM 12.56 54.608 0.077 7.21 4.89 10.09
4/16/2024 11:45:00 PM 12.45 54.41 0.077 7.2 5.12 10.12
4/17/2024 12:00:00 AM 12.35 54.23 0.077 7.2 4.88 10.14
4/17/2024 12:15:00 AM 12.24 54.032 0.077 7.18 4.86 10.17
4/17/2024 12:30:00 AM 12.14 53.852 0.077 7.19 4.94 10.19
4/17/2024 12:45:00 AM 12.03 53.654 0.078 7.2 4.98 10.22
4/17/2024 1:00:00 AM 11.93 53.474 0.078 7.19 4.9 10.25
4/17/2024 1:15:00 AM 11.82 53.276 0.078 7.19 6.32 10.27
4/17/2024 1:30:00 AM 11.72 53.096 0.078 7.19 5.22 10.3
4/17/2024 1:45:00 AM 11.62 52.916 0.078 7.19 4.97 10.32
4/17/2024 2:00:00 AM 11.52 52.736 0.078 7.19 4.87 10.35
4/17/2024 2:15:00 AM 11.43 52.574 0.078 7.18 4.95 10.38
4/17/2024 2:30:00 AM 11.34 52.412 0.078 7.19 5.1 10.4
4/17/2024 2:45:00 AM 11.26 52.268 0.078 7.19 4.77 10.42
4/17/2024 3:00:00 AM 11.18 52.124 0.078 7.19 4.91 10.44
4/17/2024 3:15:00 AM 11.11 51.998 0.078 7.19 4.73 10.47
4/17/2024 3:30:00 AM 11.04 51.872 0.078 7.19 4.72 10.49
4/17/2024 3:45:00 AM 10.98 51.764 0.078 7.19 4.79 10.51
4/17/2024 4:00:00 AM 10.92 51.656 0.078 7.2 4.74 10.53
4/17/2024 4:15:00 AM 10.86 51.548 0.078 7.2 4.86 10.54
4/17/2024 4:30:00 AM 10.8 51.44 0.078 7.19 4.89 10.57
4/17/2024 4:45:00 AM 10.74 51.332 0.078 7.21 4.74 10.58
4/17/2024 5:00:00 AM 10.68 51.224 0.078 7.21 4.59 10.6
4/17/2024 5:15:00 AM 10.62 51.116 0.078 7.21 4.7 10.62
4/17/2024 5:30:00 AM 10.57 51.026 0.078 7.21 4.78 10.63
4/17/2024 5:45:00 AM 10.51 50.918 0.078 7.2 4.89 10.65
4/17/2024 6:00:00 AM 10.46 50.828 0.078 7.22 4.6 10.67
4/17/2024 6:15:00 AM 10.4 50.72 0.079 7.22 4.56 10.68
4/17/2024 6:30:00 AM 10.35 50.63 0.078 7.22 4.65 10.7
4/17/2024 6:45:00 AM 10.3 50.54 0.078 7.23 4.69 10.73
4/17/2024 7:00:00 AM 10.25 50.45 0.078 7.22 4.4 10.77
4/17/2024 7:15:00 AM 10.2 50.36 0.078 7.22 4.52 10.82
4/17/2024 7:30:00 AM 10.19 50.342 0.078 7.25 5.27 10.89
4/17/2024 7:45:00 AM 10.18 50.324 0.078 7.27 4.46 10.96
4/17/2024 8:00:00 AM 10.15 50.27 0.078 7.27 4.63 11.01
4/17/2024 8:15:00 AM 10.14 50.252 0.078 7.29 4.21 11.06
4/17/2024 8:30:00 AM 10.18 50.324 0.078 7.32 4.29 11.13
4/17/2024 8:45:00 AM 10.21 50.378 0.078 7.33 4.01 11.18
4/17/2024 9:00:00 AM 10.23 50.414 0.078 7.34 4.12 11.23
4/17/2024 9:15:00 AM 10.27 50.486 0.078 7.36 4.04 11.28
4/17/2024 9:30:00 AM 10.32 50.576 0.078 7.37 4.04 11.31
4/17/2024 9:45:00 AM 10.37 50.666 0.078 7.4 3.96 11.34
4/17/2024 10:00:00 AM 10.45 50.81 0.078 7.41 3.97 11.36
4/17/2024 10:15:00 AM 10.51 50.918 0.078 7.43 3.71 11.37
4/17/2024 10:30:00 AM 10.57 51.026 0.078 7.43 3.71 11.37
4/17/2024 10:45:00 AM 10.61 51.098 0.078 7.45 3.83 11.36
4/17/2024 11:00:00 AM 10.67 51.206 0.078 7.44 3.84 11.34
4/17/2024 11:15:00 AM 10.73 51.314 0.077 7.47 3.83 11.34
4/17/2024 11:30:00 AM 10.78 51.404 0.077 7.47 3.68 11.33
4/17/2024 11:45:00 AM 10.81 51.458 0.077 7.46 3.82 11.31
4/17/2024 12:00:00 PM 10.86 51.548 0.077 7.46 3.68 11.29
4/17/2024 12:15:00 PM 10.91 51.638 0.077 7.49 3.76 11.29
4/17/2024 12:30:00 PM 10.97 51.746 0.077 7.48 3.75 11.27
4/17/2024 12:45:00 PM 11 51.8 0.077 7.48 3.72 11.25
4/17/2024 1:00:00 PM 11.03 51.854 0.077 7.48 3.78 11.22
4/17/2024 1:15:00 PM 11.07 51.926 0.077 7.47 3.75 11.2
4/17/2024 1:30:00 PM 11.13 52.034 0.077 7.47 3.72 11.19
4/17/2024 1:45:00 PM 11.17 52.106 0.077 7.49 3.83 11.19
4/17/2024 2:00:00 PM 11.2 52.16 0.077 7.48 3.78 11.16
4/17/2024 2:15:00 PM 11.23 52.214 0.077 7.48 3.63 11.13
4/17/2024 2:30:00 PM 11.27 52.286 0.076 7.47 3.78 11.12
4/17/2024 2:45:00 PM 11.3 52.34 0.076 7.47 3.85 11.09
4/17/2024 3:00:00 PM 11.33 52.394 0.076 7.46 3.77 11.06
4/17/2024 3:15:00 PM 11.35 52.43 0.076 7.48 3.7 11.03
4/17/2024 3:30:00 PM 11.38 52.484 0.076 7.47 3.72 11.02
4/17/2024 3:45:00 PM 11.42 52.556 0.076 7.47 3.8 11.02
4/17/2024 4:00:00 PM 11.46 52.628 0.076 7.47 3.81 11.03
4/17/2024 4:15:00 PM 11.53 52.754 0.076 7.47 3.86 11.03
4/17/2024 4:30:00 PM 11.6 52.88 0.076 7.5 3.83 11.05
4/17/2024 4:45:00 PM 11.75 53.15 0.076 7.52 3.8 11.06
4/17/2024 5:00:00 PM 11.79 53.222 0.076 7.51 3.77 11.04
4/17/2024 5:15:00 PM 11.82 53.276 0.076 7.5 3.81 11.01
4/17/2024 5:30:00 PM 11.8 53.24 0.076 7.48 3.99 10.96
4/17/2024 5:45:00 PM 11.82 53.276 0.076 7.48 3.82 10.9
4/17/2024 6:00:00 PM 11.89 53.402 0.076 7.47 3.88 10.88
4/17/2024 6:15:00 PM 11.95 53.51 0.076 7.45 3.95 10.83
4/17/2024 6:30:00 PM 12 53.6 0.076 7.44 3.72 10.76
4/17/2024 6:45:00 PM 12.03 53.654 0.076 7.42 4.13 10.71
4/17/2024 7:00:00 PM 12.04 53.672 0.076 7.4 3.88 10.66
4/17/2024 7:15:00 PM 12.05 53.69 0.076 7.38 3.84 10.6
4/17/2024 7:30:00 PM 12.04 53.672 0.077 7.38 3.91 10.55
4/17/2024 7:45:00 PM 12.03 53.654 0.077 7.34 4.06 10.5
4/17/2024 8:00:00 PM 12.02 53.636 0.077 7.32 4.24 10.45
4/17/2024 8:15:00 PM 12.01 53.618 0.077 7.31 4.19 10.42
4/17/2024 8:30:00 PM 12 53.6 0.077 7.31 3.93 10.39
4/17/2024 8:45:00 PM 11.99 53.582 0.077 7.29 4.13 10.36
4/17/2024 9:00:00 PM 11.98 53.564 0.077 7.28 4.29 10.34
4/17/2024 9:15:00 PM 11.96 53.528 0.077 7.28 4.31 10.33
4/17/2024 9:30:00 PM 11.94 53.492 0.077 7.28 4.17 10.31
4/17/2024 9:45:00 PM 11.92 53.456 0.077 7.27 4.37 10.3
4/17/2024 10:00:00 PM 11.9 53.42 0.078 7.25 4.4 10.29
4/17/2024 10:15:00 PM 11.89 53.402 0.078 7.27 4.38 10.28
4/17/2024 10:30:00 PM 11.87 53.366 0.078 7.26 4.37 10.28
4/17/2024 10:45:00 PM 11.86 53.348 0.078 7.25 4.22 10.27
4/17/2024 11:00:00 PM 11.84 53.312 0.078 7.24 4.43 10.27
4/17/2024 11:15:00 PM 11.81 53.258 0.078 7.25 4.61 10.27
4/17/2024 11:30:00 PM 11.79 53.222 0.078 7.25 4.48 10.27

These are provisional data and have not been subject to a quality assurance process, but rather are the raw data reported by the instrument.
H: value is above sensor operating range
L: value is below sensor operating range
Offline: station is not reporting data
NC: parameter is not collected at site

Data Availability & Limitations

Uncertainty and potential for error can be associated with environmental monitoring data. Provisional data have not been subject to a quality assurance process, but rather are the raw data reported by the instrument. Data users are cautioned to consider carefully the provisional nature of the information before using it for decisions that concern personal or public safety or the conduct of business that involves substantial monetary or operational consequences.

Approved data are currently available by request by emailing: [email protected]. Approved data have been subject to a quality assurance process to correct for equipment or fouling drift. Data recorded during equipment malfunctions have been removed.

View Historical Stations that have been discontinued.